<?xml version="1.0" encoding="UTF-8" standalone="no" ?>
<gpx xmlns="http://www.topografix.com/GPX/1/1" xmlns:xsi="http://www.w3.org/2001/XMLSchema-instance" xsi:schemaLocation="http://www.topografix.com/GPX/1/1 http://www.topografix.com/GPX/1/1/gpx.xsd" version="1.1" creator="VisuGPX - https://www.visugpx.com">
  <metadata>
    <name> RSPG Châteaufort Ravin de Terre Basse: 18 NOV 2021 09:13</name>
    <desc><![CDATA[Se Garer sur le parking dans le village de Châteaufort. Prendre le sentier qui descend dans la ravin de la Pène, monter ensuite par l'autre versant du ravin pour continuer par le sentier jusqu'à St Geniez. Monter après le village jusqu'au pas de l'Echelle. Continuer sur le chemin qui descend au  monastère de la Péne et de Terre Basse pour rejoindre Châteaufort.]]></desc>
  </metadata>
  <trk>
    <name><![CDATA[Chateaufort Ravin de Terre Basse: 18 NOV 2021 09:13]]></name>
    <trkseg>
      <trkpt lat="44.27442" lon="6.01721">
        <ele>570.68</ele>
        <time>2021-11-18T08:13:42Z</time>
      </trkpt>
      <trkpt lat="44.27442" lon="6.0172">
        <ele>575.97</ele>
        <time>2021-11-18T08:13:44Z</time>
      </trkpt>
      <trkpt lat="44.27441" lon="6.01719">
        <ele>582.7</ele>
        <time>2021-11-18T08:13:46Z</time>
      </trkpt>
      <trkpt lat="44.2744" lon="6.01718">
        <ele>582.7</ele>
        <time>2021-11-18T08:13:47Z</time>
      </trkpt>
      <trkpt lat="44.2744" lon="6.01716">
        <ele>587.02</ele>
        <time>2021-11-18T08:13:49Z</time>
      </trkpt>
      <trkpt lat="44.27439" lon="6.01715">
        <ele>591.35</ele>
        <time>2021-11-18T08:13:51Z</time>
      </trkpt>
      <trkpt lat="44.27438" lon="6.01712">
        <ele>595.19</ele>
        <time>2021-11-18T08:13:53Z</time>
      </trkpt>
      <trkpt lat="44.27437" lon="6.0171">
        <ele>598.56</ele>
        <time>2021-11-18T08:13:55Z</time>
      </trkpt>
      <trkpt lat="44.27436" lon="6.01705">
        <ele>603.36</ele>
        <time>2021-11-18T08:13:58Z</time>
      </trkpt>
      <trkpt lat="44.27435" lon="6.01701">
        <ele>607.69</ele>
        <time>2021-11-18T08:14:01Z</time>
      </trkpt>
      <trkpt lat="44.27434" lon="6.01697">
        <ele>611.54</ele>
        <time>2021-11-18T08:14:04Z</time>
      </trkpt>
      <trkpt lat="44.27433" lon="6.01694">
        <ele>614.9</ele>
        <time>2021-11-18T08:14:07Z</time>
      </trkpt>
      <trkpt lat="44.27432" lon="6.0169">
        <ele>618.26</ele>
        <time>2021-11-18T08:14:10Z</time>
      </trkpt>
      <trkpt lat="44.27431" lon="6.01688">
        <ele>620.19</ele>
        <time>2021-11-18T08:14:12Z</time>
      </trkpt>
      <trkpt lat="44.27429" lon="6.01686">
        <ele>622.11</ele>
        <time>2021-11-18T08:14:14Z</time>
      </trkpt>
      <trkpt lat="44.27426" lon="6.01677">
        <ele>625.96</ele>
        <time>2021-11-18T08:14:21Z</time>
      </trkpt>
      <trkpt lat="44.27423" lon="6.0167">
        <ele>630.28</ele>
        <time>2021-11-18T08:14:27Z</time>
      </trkpt>
      <trkpt lat="44.27422" lon="6.01663">
        <ele>633.65</ele>
        <time>2021-11-18T08:14:32Z</time>
      </trkpt>
      <trkpt lat="44.27422" lon="6.01661">
        <ele>634.13</ele>
        <time>2021-11-18T08:14:33Z</time>
      </trkpt>
      <trkpt lat="44.27421" lon="6.01658">
        <ele>636.53</ele>
        <time>2021-11-18T08:14:36Z</time>
      </trkpt>
      <trkpt lat="44.27419" lon="6.01653">
        <ele>767.27</ele>
        <time>2021-11-18T08:14:40Z</time>
      </trkpt>
      <trkpt lat="44.27417" lon="6.0165">
        <ele>512.04</ele>
        <time>2021-11-18T08:14:43Z</time>
      </trkpt>
      <trkpt lat="44.27417" lon="6.0165">
        <ele>512.04</ele>
        <time>2021-11-18T08:14:44Z</time>
      </trkpt>
      <trkpt lat="44.27411" lon="6.0164">
        <ele>514.44</ele>
        <time>2021-11-18T08:14:55Z</time>
      </trkpt>
      <trkpt lat="44.27399" lon="6.01631">
        <ele>513.96</ele>
        <time>2021-11-18T08:15:09Z</time>
      </trkpt>
      <trkpt lat="44.27401" lon="6.0164">
        <ele>513.48</ele>
        <time>2021-11-18T08:15:27Z</time>
      </trkpt>
      <trkpt lat="44.27401" lon="6.01651">
        <ele>513</ele>
        <time>2021-11-18T08:15:41Z</time>
      </trkpt>
      <trkpt lat="44.27397" lon="6.01663">
        <ele>512.04</ele>
        <time>2021-11-18T08:15:56Z</time>
      </trkpt>
      <trkpt lat="44.2739" lon="6.01663">
        <ele>512.52</ele>
        <time>2021-11-18T08:16:10Z</time>
      </trkpt>
      <trkpt lat="44.27388" lon="6.01662">
        <ele>513.96</ele>
        <time>2021-11-18T08:16:24Z</time>
      </trkpt>
      <trkpt lat="44.27385" lon="6.0166">
        <ele>514.92</ele>
        <time>2021-11-18T08:16:40Z</time>
      </trkpt>
      <trkpt lat="44.27383" lon="6.01655">
        <ele>516.37</ele>
        <time>2021-11-18T08:16:54Z</time>
      </trkpt>
      <trkpt lat="44.27384" lon="6.01655">
        <ele>517.81</ele>
        <time>2021-11-18T08:17:12Z</time>
      </trkpt>
      <trkpt lat="44.2738" lon="6.01658">
        <ele>515.88</ele>
        <time>2021-11-18T08:17:27Z</time>
      </trkpt>
      <trkpt lat="44.27379" lon="6.01665">
        <ele>514.44</ele>
        <time>2021-11-18T08:17:42Z</time>
      </trkpt>
      <trkpt lat="44.27373" lon="6.01665">
        <ele>513.48</ele>
        <time>2021-11-18T08:17:54Z</time>
      </trkpt>
      <trkpt lat="44.27369" lon="6.01675">
        <ele>511.08</ele>
        <time>2021-11-18T08:18:09Z</time>
      </trkpt>
      <trkpt lat="44.27368" lon="6.01673">
        <ele>510.6</ele>
        <time>2021-11-18T08:18:11Z</time>
      </trkpt>
      <trkpt lat="44.27354" lon="6.01667">
        <ele>507.23</ele>
        <time>2021-11-18T08:18:28Z</time>
      </trkpt>
      <trkpt lat="44.27336" lon="6.01653">
        <ele>504.83</ele>
        <time>2021-11-18T08:18:45Z</time>
      </trkpt>
      <trkpt lat="44.27323" lon="6.01638">
        <ele>502.91</ele>
        <time>2021-11-18T08:18:59Z</time>
      </trkpt>
      <trkpt lat="44.27322" lon="6.01638">
        <ele>502.91</ele>
        <time>2021-11-18T08:19:01Z</time>
      </trkpt>
      <trkpt lat="44.2732" lon="6.01642">
        <ele>500.98</ele>
        <time>2021-11-18T08:19:15Z</time>
      </trkpt>
      <trkpt lat="44.27319" lon="6.0165">
        <ele>499.54</ele>
        <time>2021-11-18T08:19:28Z</time>
      </trkpt>
      <trkpt lat="44.2731" lon="6.01639">
        <ele>497.62</ele>
        <time>2021-11-18T08:19:46Z</time>
      </trkpt>
      <trkpt lat="44.27306" lon="6.01633">
        <ele>496.66</ele>
        <time>2021-11-18T08:19:52Z</time>
      </trkpt>
      <trkpt lat="44.27298" lon="6.01624">
        <ele>495.7</ele>
        <time>2021-11-18T08:20:02Z</time>
      </trkpt>
      <trkpt lat="44.27283" lon="6.01605">
        <ele>493.77</ele>
        <time>2021-11-18T08:20:21Z</time>
      </trkpt>
      <trkpt lat="44.27281" lon="6.01594">
        <ele>493.77</ele>
        <time>2021-11-18T08:20:36Z</time>
      </trkpt>
      <trkpt lat="44.27282" lon="6.01591">
        <ele>493.77</ele>
        <time>2021-11-18T08:20:56Z</time>
      </trkpt>
      <trkpt lat="44.27277" lon="6.01587">
        <ele>491.85</ele>
        <time>2021-11-18T08:21:11Z</time>
      </trkpt>
      <trkpt lat="44.27271" lon="6.01584">
        <ele>490.41</ele>
        <time>2021-11-18T08:21:24Z</time>
      </trkpt>
      <trkpt lat="44.27263" lon="6.01579">
        <ele>488.01</ele>
        <time>2021-11-18T08:21:40Z</time>
      </trkpt>
      <trkpt lat="44.27256" lon="6.01572">
        <ele>485.6</ele>
        <time>2021-11-18T08:21:53Z</time>
      </trkpt>
      <trkpt lat="44.27251" lon="6.01567">
        <ele>484.64</ele>
        <time>2021-11-18T08:22:00Z</time>
      </trkpt>
      <trkpt lat="44.27243" lon="6.01561">
        <ele>482.24</ele>
        <time>2021-11-18T08:22:15Z</time>
      </trkpt>
      <trkpt lat="44.27233" lon="6.01555">
        <ele>480.32</ele>
        <time>2021-11-18T08:22:28Z</time>
      </trkpt>
      <trkpt lat="44.27226" lon="6.01529">
        <ele>478.87</ele>
        <time>2021-11-18T08:22:44Z</time>
      </trkpt>
      <trkpt lat="44.27225" lon="6.01528">
        <ele>478.87</ele>
        <time>2021-11-18T08:22:45Z</time>
      </trkpt>
      <trkpt lat="44.27216" lon="6.01531">
        <ele>478.87</ele>
        <time>2021-11-18T08:22:58Z</time>
      </trkpt>
      <trkpt lat="44.2722" lon="6.01526">
        <ele>477.91</ele>
        <time>2021-11-18T08:23:22Z</time>
      </trkpt>
      <trkpt lat="44.27219" lon="6.01527">
        <ele>479.84</ele>
        <time>2021-11-18T08:23:43Z</time>
      </trkpt>
      <trkpt lat="44.27218" lon="6.01526">
        <ele>479.84</ele>
        <time>2021-11-18T08:23:59Z</time>
      </trkpt>
      <trkpt lat="44.27209" lon="6.01532">
        <ele>479.84</ele>
        <time>2021-11-18T08:24:16Z</time>
      </trkpt>
      <trkpt lat="44.27199" lon="6.01527">
        <ele>481.76</ele>
        <time>2021-11-18T08:24:30Z</time>
      </trkpt>
      <trkpt lat="44.27194" lon="6.0153">
        <ele>485.6</ele>
        <time>2021-11-18T08:24:43Z</time>
      </trkpt>
      <trkpt lat="44.27192" lon="6.01527">
        <ele>487.05</ele>
        <time>2021-11-18T08:24:51Z</time>
      </trkpt>
      <trkpt lat="44.27186" lon="6.01519">
        <ele>489.93</ele>
        <time>2021-11-18T08:25:05Z</time>
      </trkpt>
      <trkpt lat="44.27179" lon="6.01509">
        <ele>492.81</ele>
        <time>2021-11-18T08:25:19Z</time>
      </trkpt>
      <trkpt lat="44.27177" lon="6.01508">
        <ele>493.77</ele>
        <time>2021-11-18T08:25:21Z</time>
      </trkpt>
      <trkpt lat="44.27171" lon="6.01496">
        <ele>495.22</ele>
        <time>2021-11-18T08:25:35Z</time>
      </trkpt>
      <trkpt lat="44.2717" lon="6.01501">
        <ele>498.1</ele>
        <time>2021-11-18T08:25:48Z</time>
      </trkpt>
      <trkpt lat="44.2717" lon="6.01502">
        <ele>498.58</ele>
        <time>2021-11-18T08:25:49Z</time>
      </trkpt>
      <trkpt lat="44.27168" lon="6.01507">
        <ele>500.98</ele>
        <time>2021-11-18T08:26:02Z</time>
      </trkpt>
      <trkpt lat="44.27163" lon="6.01497">
        <ele>503.87</ele>
        <time>2021-11-18T08:26:16Z</time>
      </trkpt>
      <trkpt lat="44.2716" lon="6.01488">
        <ele>507.23</ele>
        <time>2021-11-18T08:26:30Z</time>
      </trkpt>
      <trkpt lat="44.27157" lon="6.01481">
        <ele>509.64</ele>
        <time>2021-11-18T08:26:43Z</time>
      </trkpt>
      <trkpt lat="44.27151" lon="6.01476">
        <ele>512.52</ele>
        <time>2021-11-18T08:26:56Z</time>
      </trkpt>
      <trkpt lat="44.27146" lon="6.01469">
        <ele>514.92</ele>
        <time>2021-11-18T08:27:09Z</time>
      </trkpt>
      <trkpt lat="44.27139" lon="6.01461">
        <ele>518.29</ele>
        <time>2021-11-18T08:27:24Z</time>
      </trkpt>
      <trkpt lat="44.27133" lon="6.01452">
        <ele>520.69</ele>
        <time>2021-11-18T08:27:38Z</time>
      </trkpt>
      <trkpt lat="44.27127" lon="6.01443">
        <ele>523.09</ele>
        <time>2021-11-18T08:27:51Z</time>
      </trkpt>
      <trkpt lat="44.27121" lon="6.01438">
        <ele>525.5</ele>
        <time>2021-11-18T08:28:08Z</time>
      </trkpt>
      <trkpt lat="44.27114" lon="6.01432">
        <ele>527.9</ele>
        <time>2021-11-18T08:28:21Z</time>
      </trkpt>
      <trkpt lat="44.27108" lon="6.0142">
        <ele>531.27</ele>
        <time>2021-11-18T08:28:37Z</time>
      </trkpt>
      <trkpt lat="44.27105" lon="6.01405">
        <ele>533.67</ele>
        <time>2021-11-18T08:28:52Z</time>
      </trkpt>
      <trkpt lat="44.27103" lon="6.01398">
        <ele>535.11</ele>
        <time>2021-11-18T08:29:04Z</time>
      </trkpt>
      <trkpt lat="44.271" lon="6.01393">
        <ele>537.99</ele>
        <time>2021-11-18T08:29:20Z</time>
      </trkpt>
      <trkpt lat="44.27102" lon="6.01392">
        <ele>538.96</ele>
        <time>2021-11-18T08:29:48Z</time>
      </trkpt>
      <trkpt lat="44.271" lon="6.01391">
        <ele>540.88</ele>
        <time>2021-11-18T08:30:12Z</time>
      </trkpt>
      <trkpt lat="44.27098" lon="6.01387">
        <ele>541.84</ele>
        <time>2021-11-18T08:30:23Z</time>
      </trkpt>
      <trkpt lat="44.27091" lon="6.01386">
        <ele>545.2</ele>
        <time>2021-11-18T08:30:36Z</time>
      </trkpt>
      <trkpt lat="44.27087" lon="6.01383">
        <ele>545.2</ele>
        <time>2021-11-18T08:30:56Z</time>
      </trkpt>
      <trkpt lat="44.27083" lon="6.0138">
        <ele>547.61</ele>
        <time>2021-11-18T08:31:08Z</time>
      </trkpt>
      <trkpt lat="44.2708" lon="6.0137">
        <ele>550.49</ele>
        <time>2021-11-18T08:31:25Z</time>
      </trkpt>
      <trkpt lat="44.27076" lon="6.01364">
        <ele>551.45</ele>
        <time>2021-11-18T08:31:31Z</time>
      </trkpt>
      <trkpt lat="44.27069" lon="6.01359">
        <ele>552.9</ele>
        <time>2021-11-18T08:31:40Z</time>
      </trkpt>
      <trkpt lat="44.2706" lon="6.01338">
        <ele>554.82</ele>
        <time>2021-11-18T08:31:58Z</time>
      </trkpt>
      <trkpt lat="44.27058" lon="6.01318">
        <ele>556.74</ele>
        <time>2021-11-18T08:32:12Z</time>
      </trkpt>
      <trkpt lat="44.27055" lon="6.0131">
        <ele>557.7</ele>
        <time>2021-11-18T08:32:26Z</time>
      </trkpt>
      <trkpt lat="44.27052" lon="6.01305">
        <ele>559.14</ele>
        <time>2021-11-18T08:32:46Z</time>
      </trkpt>
      <trkpt lat="44.27048" lon="6.01297">
        <ele>559.14</ele>
        <time>2021-11-18T08:32:53Z</time>
      </trkpt>
      <trkpt lat="44.27045" lon="6.01286">
        <ele>559.62</ele>
        <time>2021-11-18T08:33:00Z</time>
      </trkpt>
      <trkpt lat="44.27038" lon="6.01276">
        <ele>560.59</ele>
        <time>2021-11-18T08:33:14Z</time>
      </trkpt>
      <trkpt lat="44.2703" lon="6.01269">
        <ele>559.62</ele>
        <time>2021-11-18T08:33:26Z</time>
      </trkpt>
      <trkpt lat="44.27019" lon="6.01262">
        <ele>557.7</ele>
        <time>2021-11-18T08:33:41Z</time>
      </trkpt>
      <trkpt lat="44.27008" lon="6.01256">
        <ele>556.26</ele>
        <time>2021-11-18T08:33:55Z</time>
      </trkpt>
      <trkpt lat="44.26998" lon="6.01255">
        <ele>554.34</ele>
        <time>2021-11-18T08:34:09Z</time>
      </trkpt>
      <trkpt lat="44.26985" lon="6.01259">
        <ele>552.9</ele>
        <time>2021-11-18T08:34:25Z</time>
      </trkpt>
      <trkpt lat="44.26973" lon="6.0127">
        <ele>551.45</ele>
        <time>2021-11-18T08:34:43Z</time>
      </trkpt>
      <trkpt lat="44.26965" lon="6.01271">
        <ele>550.49</ele>
        <time>2021-11-18T08:34:52Z</time>
      </trkpt>
      <trkpt lat="44.26943" lon="6.0127">
        <ele>548.57</ele>
        <time>2021-11-18T08:35:11Z</time>
      </trkpt>
      <trkpt lat="44.26931" lon="6.01271">
        <ele>549.05</ele>
        <time>2021-11-18T08:35:27Z</time>
      </trkpt>
      <trkpt lat="44.26923" lon="6.01281">
        <ele>547.13</ele>
        <time>2021-11-18T08:35:43Z</time>
      </trkpt>
      <trkpt lat="44.26915" lon="6.01286">
        <ele>546.17</ele>
        <time>2021-11-18T08:35:58Z</time>
      </trkpt>
      <trkpt lat="44.26909" lon="6.01287">
        <ele>546.17</ele>
        <time>2021-11-18T08:36:14Z</time>
      </trkpt>
      <trkpt lat="44.26907" lon="6.01279">
        <ele>548.57</ele>
        <time>2021-11-18T08:36:30Z</time>
      </trkpt>
      <trkpt lat="44.26906" lon="6.0128">
        <ele>550.97</ele>
        <time>2021-11-18T08:36:47Z</time>
      </trkpt>
      <trkpt lat="44.26901" lon="6.01279">
        <ele>551.45</ele>
        <time>2021-11-18T08:37:01Z</time>
      </trkpt>
      <trkpt lat="44.26892" lon="6.01275">
        <ele>554.34</ele>
        <time>2021-11-18T08:37:15Z</time>
      </trkpt>
      <trkpt lat="44.26889" lon="6.01268">
        <ele>556.26</ele>
        <time>2021-11-18T08:37:29Z</time>
      </trkpt>
      <trkpt lat="44.2688" lon="6.01265">
        <ele>559.14</ele>
        <time>2021-11-18T08:37:43Z</time>
      </trkpt>
      <trkpt lat="44.26879" lon="6.01264">
        <ele>559.62</ele>
        <time>2021-11-18T08:37:44Z</time>
      </trkpt>
      <trkpt lat="44.26872" lon="6.01259">
        <ele>562.03</ele>
        <time>2021-11-18T08:37:58Z</time>
      </trkpt>
      <trkpt lat="44.26865" lon="6.01255">
        <ele>564.91</ele>
        <time>2021-11-18T08:38:12Z</time>
      </trkpt>
      <trkpt lat="44.26863" lon="6.01247">
        <ele>567.32</ele>
        <time>2021-11-18T08:38:26Z</time>
      </trkpt>
      <trkpt lat="44.26858" lon="6.01242">
        <ele>570.68</ele>
        <time>2021-11-18T08:38:39Z</time>
      </trkpt>
      <trkpt lat="44.26855" lon="6.01235">
        <ele>573.56</ele>
        <time>2021-11-18T08:38:48Z</time>
      </trkpt>
      <trkpt lat="44.26861" lon="6.01221">
        <ele>575.01</ele>
        <time>2021-11-18T08:39:02Z</time>
      </trkpt>
      <trkpt lat="44.26868" lon="6.01209">
        <ele>576.93</ele>
        <time>2021-11-18T08:39:17Z</time>
      </trkpt>
      <trkpt lat="44.26868" lon="6.01208">
        <ele>576.93</ele>
        <time>2021-11-18T08:39:18Z</time>
      </trkpt>
      <trkpt lat="44.26875" lon="6.01195">
        <ele>578.85</ele>
        <time>2021-11-18T08:39:32Z</time>
      </trkpt>
      <trkpt lat="44.26878" lon="6.0118">
        <ele>580.77</ele>
        <time>2021-11-18T08:39:47Z</time>
      </trkpt>
      <trkpt lat="44.26878" lon="6.01166">
        <ele>582.22</ele>
        <time>2021-11-18T08:40:01Z</time>
      </trkpt>
      <trkpt lat="44.26882" lon="6.0115">
        <ele>585.58</ele>
        <time>2021-11-18T08:40:16Z</time>
      </trkpt>
      <trkpt lat="44.2688" lon="6.01133">
        <ele>587.5</ele>
        <time>2021-11-18T08:40:31Z</time>
      </trkpt>
      <trkpt lat="44.26881" lon="6.01126">
        <ele>588.46</ele>
        <time>2021-11-18T08:40:37Z</time>
      </trkpt>
      <trkpt lat="44.26877" lon="6.01112">
        <ele>591.83</ele>
        <time>2021-11-18T08:40:49Z</time>
      </trkpt>
      <trkpt lat="44.26874" lon="6.01098">
        <ele>592.31</ele>
        <time>2021-11-18T08:41:03Z</time>
      </trkpt>
      <trkpt lat="44.26874" lon="6.01081">
        <ele>593.27</ele>
        <time>2021-11-18T08:41:16Z</time>
      </trkpt>
      <trkpt lat="44.26873" lon="6.01064">
        <ele>595.67</ele>
        <time>2021-11-18T08:41:30Z</time>
      </trkpt>
      <trkpt lat="44.26871" lon="6.0105">
        <ele>596.64</ele>
        <time>2021-11-18T08:41:42Z</time>
      </trkpt>
      <trkpt lat="44.26864" lon="6.01034">
        <ele>597.6</ele>
        <time>2021-11-18T08:41:56Z</time>
      </trkpt>
      <trkpt lat="44.26858" lon="6.0103">
        <ele>598.56</ele>
        <time>2021-11-18T08:42:04Z</time>
      </trkpt>
      <trkpt lat="44.26849" lon="6.01018">
        <ele>599.52</ele>
        <time>2021-11-18T08:42:18Z</time>
      </trkpt>
      <trkpt lat="44.26843" lon="6.01004">
        <ele>601.44</ele>
        <time>2021-11-18T08:42:32Z</time>
      </trkpt>
      <trkpt lat="44.26837" lon="6.00996">
        <ele>601.92</ele>
        <time>2021-11-18T08:42:39Z</time>
      </trkpt>
      <trkpt lat="44.26827" lon="6.00981">
        <ele>602.88</ele>
        <time>2021-11-18T08:42:53Z</time>
      </trkpt>
      <trkpt lat="44.26817" lon="6.00966">
        <ele>603.85</ele>
        <time>2021-11-18T08:43:09Z</time>
      </trkpt>
      <trkpt lat="44.26808" lon="6.0095">
        <ele>605.29</ele>
        <time>2021-11-18T08:43:25Z</time>
      </trkpt>
      <trkpt lat="44.26802" lon="6.00949">
        <ele>606.25</ele>
        <time>2021-11-18T08:43:40Z</time>
      </trkpt>
      <trkpt lat="44.26803" lon="6.00948">
        <ele>607.69</ele>
        <time>2021-11-18T08:44:13Z</time>
      </trkpt>
      <trkpt lat="44.26797" lon="6.00951">
        <ele>608.17</ele>
        <time>2021-11-18T08:44:38Z</time>
      </trkpt>
      <trkpt lat="44.268" lon="6.00946">
        <ele>609.13</ele>
        <time>2021-11-18T08:44:57Z</time>
      </trkpt>
      <trkpt lat="44.26804" lon="6.00943">
        <ele>610.09</ele>
        <time>2021-11-18T08:45:16Z</time>
      </trkpt>
      <trkpt lat="44.26806" lon="6.00941">
        <ele>610.57</ele>
        <time>2021-11-18T08:45:41Z</time>
      </trkpt>
      <trkpt lat="44.26799" lon="6.00941">
        <ele>611.54</ele>
        <time>2021-11-18T08:45:58Z</time>
      </trkpt>
      <trkpt lat="44.26794" lon="6.00949">
        <ele>613.46</ele>
        <time>2021-11-18T08:46:12Z</time>
      </trkpt>
      <trkpt lat="44.26798" lon="6.00966">
        <ele>615.38</ele>
        <time>2021-11-18T08:46:29Z</time>
      </trkpt>
      <trkpt lat="44.268" lon="6.00978">
        <ele>617.3</ele>
        <time>2021-11-18T08:46:42Z</time>
      </trkpt>
      <trkpt lat="44.268" lon="6.0099">
        <ele>619.23</ele>
        <time>2021-11-18T08:46:59Z</time>
      </trkpt>
      <trkpt lat="44.26801" lon="6.01006">
        <ele>621.15</ele>
        <time>2021-11-18T08:47:14Z</time>
      </trkpt>
      <trkpt lat="44.268" lon="6.01025">
        <ele>623.55</ele>
        <time>2021-11-18T08:47:33Z</time>
      </trkpt>
      <trkpt lat="44.268" lon="6.01038">
        <ele>625.47</ele>
        <time>2021-11-18T08:47:47Z</time>
      </trkpt>
      <trkpt lat="44.26802" lon="6.01053">
        <ele>627.4</ele>
        <time>2021-11-18T08:48:01Z</time>
      </trkpt>
      <trkpt lat="44.26803" lon="6.01068">
        <ele>629.8</ele>
        <time>2021-11-18T08:48:16Z</time>
      </trkpt>
      <trkpt lat="44.26799" lon="6.01079">
        <ele>631.72</ele>
        <time>2021-11-18T08:48:29Z</time>
      </trkpt>
      <trkpt lat="44.26791" lon="6.01089">
        <ele>633.65</ele>
        <time>2021-11-18T08:48:44Z</time>
      </trkpt>
      <trkpt lat="44.26779" lon="6.01088">
        <ele>635.57</ele>
        <time>2021-11-18T08:48:58Z</time>
      </trkpt>
      <trkpt lat="44.2677" lon="6.01078">
        <ele>637.01</ele>
        <time>2021-11-18T08:49:12Z</time>
      </trkpt>
      <trkpt lat="44.2676" lon="6.01069">
        <ele>638.45</ele>
        <time>2021-11-18T08:49:27Z</time>
      </trkpt>
      <trkpt lat="44.26747" lon="6.01064">
        <ele>640.38</ele>
        <time>2021-11-18T08:49:43Z</time>
      </trkpt>
      <trkpt lat="44.2674" lon="6.01062">
        <ele>642.3</ele>
        <time>2021-11-18T08:49:55Z</time>
      </trkpt>
      <trkpt lat="44.26731" lon="6.01066">
        <ele>644.22</ele>
        <time>2021-11-18T08:50:11Z</time>
      </trkpt>
      <trkpt lat="44.26729" lon="6.01067">
        <ele>644.22</ele>
        <time>2021-11-18T08:50:14Z</time>
      </trkpt>
      <trkpt lat="44.26719" lon="6.01075">
        <ele>645.66</ele>
        <time>2021-11-18T08:50:28Z</time>
      </trkpt>
      <trkpt lat="44.26708" lon="6.01082">
        <ele>648.07</ele>
        <time>2021-11-18T08:50:43Z</time>
      </trkpt>
      <trkpt lat="44.26696" lon="6.01087">
        <ele>649.99</ele>
        <time>2021-11-18T08:50:59Z</time>
      </trkpt>
      <trkpt lat="44.2669" lon="6.01088">
        <ele>650.95</ele>
        <time>2021-11-18T08:51:06Z</time>
      </trkpt>
      <trkpt lat="44.26678" lon="6.0109">
        <ele>652.39</ele>
        <time>2021-11-18T08:51:21Z</time>
      </trkpt>
      <trkpt lat="44.26665" lon="6.01095">
        <ele>653.83</ele>
        <time>2021-11-18T08:51:36Z</time>
      </trkpt>
      <trkpt lat="44.26654" lon="6.01103">
        <ele>656.24</ele>
        <time>2021-11-18T08:51:53Z</time>
      </trkpt>
      <trkpt lat="44.26646" lon="6.01106">
        <ele>658.16</ele>
        <time>2021-11-18T08:52:07Z</time>
      </trkpt>
      <trkpt lat="44.26642" lon="6.01116">
        <ele>660.56</ele>
        <time>2021-11-18T08:52:21Z</time>
      </trkpt>
      <trkpt lat="44.26641" lon="6.01129">
        <ele>662.97</ele>
        <time>2021-11-18T08:52:35Z</time>
      </trkpt>
      <trkpt lat="44.26641" lon="6.01146">
        <ele>664.89</ele>
        <time>2021-11-18T08:52:50Z</time>
      </trkpt>
      <trkpt lat="44.26641" lon="6.0116">
        <ele>666.81</ele>
        <time>2021-11-18T08:53:04Z</time>
      </trkpt>
      <trkpt lat="44.26641" lon="6.0117">
        <ele>668.25</ele>
        <time>2021-11-18T08:53:18Z</time>
      </trkpt>
      <trkpt lat="44.2664" lon="6.01185">
        <ele>670.18</ele>
        <time>2021-11-18T08:53:33Z</time>
      </trkpt>
      <trkpt lat="44.26639" lon="6.01198">
        <ele>672.1</ele>
        <time>2021-11-18T08:53:47Z</time>
      </trkpt>
      <trkpt lat="44.26635" lon="6.01213">
        <ele>674.02</ele>
        <time>2021-11-18T08:54:03Z</time>
      </trkpt>
      <trkpt lat="44.26631" lon="6.01224">
        <ele>675.94</ele>
        <time>2021-11-18T08:54:17Z</time>
      </trkpt>
      <trkpt lat="44.2663" lon="6.01226">
        <ele>676.42</ele>
        <time>2021-11-18T08:54:19Z</time>
      </trkpt>
      <trkpt lat="44.26622" lon="6.01238">
        <ele>678.83</ele>
        <time>2021-11-18T08:54:35Z</time>
      </trkpt>
      <trkpt lat="44.26613" lon="6.0125">
        <ele>680.27</ele>
        <time>2021-11-18T08:54:51Z</time>
      </trkpt>
      <trkpt lat="44.26604" lon="6.0126">
        <ele>681.71</ele>
        <time>2021-11-18T08:55:06Z</time>
      </trkpt>
      <trkpt lat="44.26596" lon="6.0127">
        <ele>683.63</ele>
        <time>2021-11-18T08:55:21Z</time>
      </trkpt>
      <trkpt lat="44.26585" lon="6.01276">
        <ele>686.04</ele>
        <time>2021-11-18T08:55:36Z</time>
      </trkpt>
      <trkpt lat="44.26577" lon="6.01281">
        <ele>687.96</ele>
        <time>2021-11-18T08:55:49Z</time>
      </trkpt>
      <trkpt lat="44.26567" lon="6.01286">
        <ele>689.88</ele>
        <time>2021-11-18T08:56:03Z</time>
      </trkpt>
      <trkpt lat="44.26559" lon="6.01289">
        <ele>691.81</ele>
        <time>2021-11-18T08:56:17Z</time>
      </trkpt>
      <trkpt lat="44.26551" lon="6.01298">
        <ele>693.25</ele>
        <time>2021-11-18T08:56:31Z</time>
      </trkpt>
      <trkpt lat="44.26544" lon="6.01303">
        <ele>694.69</ele>
        <time>2021-11-18T08:56:44Z</time>
      </trkpt>
      <trkpt lat="44.26538" lon="6.01313">
        <ele>696.61</ele>
        <time>2021-11-18T08:56:58Z</time>
      </trkpt>
      <trkpt lat="44.26531" lon="6.01325">
        <ele>698.05</ele>
        <time>2021-11-18T08:57:12Z</time>
      </trkpt>
      <trkpt lat="44.26525" lon="6.0133">
        <ele>699.5</ele>
        <time>2021-11-18T08:57:24Z</time>
      </trkpt>
      <trkpt lat="44.26515" lon="6.01339">
        <ele>701.42</ele>
        <time>2021-11-18T08:57:40Z</time>
      </trkpt>
      <trkpt lat="44.26502" lon="6.01345">
        <ele>703.34</ele>
        <time>2021-11-18T08:57:55Z</time>
      </trkpt>
      <trkpt lat="44.26496" lon="6.01351">
        <ele>705.26</ele>
        <time>2021-11-18T08:58:07Z</time>
      </trkpt>
      <trkpt lat="44.26489" lon="6.01359">
        <ele>706.71</ele>
        <time>2021-11-18T08:58:21Z</time>
      </trkpt>
      <trkpt lat="44.2648" lon="6.01368">
        <ele>709.11</ele>
        <time>2021-11-18T08:58:37Z</time>
      </trkpt>
      <trkpt lat="44.26473" lon="6.01377">
        <ele>711.03</ele>
        <time>2021-11-18T08:58:50Z</time>
      </trkpt>
      <trkpt lat="44.26465" lon="6.01385">
        <ele>712.47</ele>
        <time>2021-11-18T08:59:03Z</time>
      </trkpt>
      <trkpt lat="44.26459" lon="6.01395">
        <ele>713.92</ele>
        <time>2021-11-18T08:59:18Z</time>
      </trkpt>
      <trkpt lat="44.26454" lon="6.01407">
        <ele>715.36</ele>
        <time>2021-11-18T08:59:32Z</time>
      </trkpt>
      <trkpt lat="44.26444" lon="6.01421">
        <ele>717.28</ele>
        <time>2021-11-18T08:59:46Z</time>
      </trkpt>
      <trkpt lat="44.26443" lon="6.01425">
        <ele>717.76</ele>
        <time>2021-11-18T08:59:50Z</time>
      </trkpt>
      <trkpt lat="44.26439" lon="6.01436">
        <ele>718.72</ele>
        <time>2021-11-18T09:00:03Z</time>
      </trkpt>
      <trkpt lat="44.26432" lon="6.01447">
        <ele>720.16</ele>
        <time>2021-11-18T09:00:18Z</time>
      </trkpt>
      <trkpt lat="44.26429" lon="6.0145">
        <ele>720.65</ele>
        <time>2021-11-18T09:00:29Z</time>
      </trkpt>
      <trkpt lat="44.26428" lon="6.01448">
        <ele>719.68</ele>
        <time>2021-11-18T09:00:43Z</time>
      </trkpt>
      <trkpt lat="44.26428" lon="6.01448">
        <ele>720.16</ele>
        <time>2021-11-18T09:01:08Z</time>
      </trkpt>
      <trkpt lat="44.26427" lon="6.01449">
        <ele>720.16</ele>
        <time>2021-11-18T09:01:32Z</time>
      </trkpt>
      <trkpt lat="44.26429" lon="6.0145">
        <ele>721.13</ele>
        <time>2021-11-18T09:01:52Z</time>
      </trkpt>
      <trkpt lat="44.26427" lon="6.01451">
        <ele>722.09</ele>
        <time>2021-11-18T09:02:05Z</time>
      </trkpt>
      <trkpt lat="44.26427" lon="6.01454">
        <ele>722.09</ele>
        <time>2021-11-18T09:02:25Z</time>
      </trkpt>
      <trkpt lat="44.26426" lon="6.01451">
        <ele>722.57</ele>
        <time>2021-11-18T09:02:38Z</time>
      </trkpt>
      <trkpt lat="44.26426" lon="6.01455">
        <ele>724.01</ele>
        <time>2021-11-18T09:03:00Z</time>
      </trkpt>
      <trkpt lat="44.26422" lon="6.01461">
        <ele>724.01</ele>
        <time>2021-11-18T09:03:16Z</time>
      </trkpt>
      <trkpt lat="44.26418" lon="6.01467">
        <ele>725.93</ele>
        <time>2021-11-18T09:03:28Z</time>
      </trkpt>
      <trkpt lat="44.26412" lon="6.01477">
        <ele>728.34</ele>
        <time>2021-11-18T09:03:41Z</time>
      </trkpt>
      <trkpt lat="44.26406" lon="6.01486">
        <ele>729.78</ele>
        <time>2021-11-18T09:03:56Z</time>
      </trkpt>
      <trkpt lat="44.26398" lon="6.01492">
        <ele>731.7</ele>
        <time>2021-11-18T09:04:10Z</time>
      </trkpt>
      <trkpt lat="44.26394" lon="6.01493">
        <ele>732.18</ele>
        <time>2021-11-18T09:04:29Z</time>
      </trkpt>
      <trkpt lat="44.26392" lon="6.01494">
        <ele>732.66</ele>
        <time>2021-11-18T09:04:54Z</time>
      </trkpt>
      <trkpt lat="44.26395" lon="6.01494">
        <ele>733.14</ele>
        <time>2021-11-18T09:05:22Z</time>
      </trkpt>
      <trkpt lat="44.26394" lon="6.01492">
        <ele>733.62</ele>
        <time>2021-11-18T09:05:56Z</time>
      </trkpt>
      <trkpt lat="44.2639" lon="6.01492">
        <ele>734.1</ele>
        <time>2021-11-18T09:06:08Z</time>
      </trkpt>
      <trkpt lat="44.26387" lon="6.01501">
        <ele>735.55</ele>
        <time>2021-11-18T09:06:28Z</time>
      </trkpt>
      <trkpt lat="44.26379" lon="6.01507">
        <ele>736.51</ele>
        <time>2021-11-18T09:06:42Z</time>
      </trkpt>
      <trkpt lat="44.26369" lon="6.01512">
        <ele>737.95</ele>
        <time>2021-11-18T09:06:57Z</time>
      </trkpt>
      <trkpt lat="44.26359" lon="6.01514">
        <ele>739.87</ele>
        <time>2021-11-18T09:07:12Z</time>
      </trkpt>
      <trkpt lat="44.2635" lon="6.01521">
        <ele>741.31</ele>
        <time>2021-11-18T09:07:27Z</time>
      </trkpt>
      <trkpt lat="44.26341" lon="6.01526">
        <ele>742.76</ele>
        <time>2021-11-18T09:07:41Z</time>
      </trkpt>
      <trkpt lat="44.26335" lon="6.01531">
        <ele>744.2</ele>
        <time>2021-11-18T09:07:55Z</time>
      </trkpt>
      <trkpt lat="44.2633" lon="6.01542">
        <ele>747.56</ele>
        <time>2021-11-18T09:08:12Z</time>
      </trkpt>
      <trkpt lat="44.2632" lon="6.01545">
        <ele>749.49</ele>
        <time>2021-11-18T09:08:26Z</time>
      </trkpt>
      <trkpt lat="44.26313" lon="6.0155">
        <ele>751.41</ele>
        <time>2021-11-18T09:08:39Z</time>
      </trkpt>
      <trkpt lat="44.2631" lon="6.0156">
        <ele>754.29</ele>
        <time>2021-11-18T09:08:53Z</time>
      </trkpt>
      <trkpt lat="44.26305" lon="6.01567">
        <ele>756.21</ele>
        <time>2021-11-18T09:09:06Z</time>
      </trkpt>
      <trkpt lat="44.26298" lon="6.01572">
        <ele>758.62</ele>
        <time>2021-11-18T09:09:21Z</time>
      </trkpt>
      <trkpt lat="44.2629" lon="6.01581">
        <ele>761.5</ele>
        <time>2021-11-18T09:09:36Z</time>
      </trkpt>
      <trkpt lat="44.26287" lon="6.01591">
        <ele>762.94</ele>
        <time>2021-11-18T09:09:49Z</time>
      </trkpt>
      <trkpt lat="44.26282" lon="6.01602">
        <ele>764.39</ele>
        <time>2021-11-18T09:10:03Z</time>
      </trkpt>
      <trkpt lat="44.26275" lon="6.01613">
        <ele>766.79</ele>
        <time>2021-11-18T09:10:17Z</time>
      </trkpt>
      <trkpt lat="44.26267" lon="6.01622">
        <ele>768.71</ele>
        <time>2021-11-18T09:10:31Z</time>
      </trkpt>
      <trkpt lat="44.26256" lon="6.01626">
        <ele>771.6</ele>
        <time>2021-11-18T09:10:46Z</time>
      </trkpt>
      <trkpt lat="44.26247" lon="6.01631">
        <ele>774</ele>
        <time>2021-11-18T09:10:59Z</time>
      </trkpt>
      <trkpt lat="44.26242" lon="6.01632">
        <ele>774.48</ele>
        <time>2021-11-18T09:11:14Z</time>
      </trkpt>
      <trkpt lat="44.2624" lon="6.01638">
        <ele>776.4</ele>
        <time>2021-11-18T09:11:31Z</time>
      </trkpt>
      <trkpt lat="44.26232" lon="6.01648">
        <ele>778.81</ele>
        <time>2021-11-18T09:11:46Z</time>
      </trkpt>
      <trkpt lat="44.26229" lon="6.01648">
        <ele>779.29</ele>
        <time>2021-11-18T09:12:08Z</time>
      </trkpt>
      <trkpt lat="44.26228" lon="6.01648">
        <ele>779.77</ele>
        <time>2021-11-18T09:12:42Z</time>
      </trkpt>
      <trkpt lat="44.26227" lon="6.01647">
        <ele>780.25</ele>
        <time>2021-11-18T09:13:16Z</time>
      </trkpt>
      <trkpt lat="44.26229" lon="6.01644">
        <ele>780.73</ele>
        <time>2021-11-18T09:13:43Z</time>
      </trkpt>
      <trkpt lat="44.2623" lon="6.01645">
        <ele>780.73</ele>
        <time>2021-11-18T09:14:06Z</time>
      </trkpt>
      <trkpt lat="44.26231" lon="6.01646">
        <ele>780.73</ele>
        <time>2021-11-18T09:14:24Z</time>
      </trkpt>
      <trkpt lat="44.26231" lon="6.0165">
        <ele>781.21</ele>
        <time>2021-11-18T09:14:34Z</time>
      </trkpt>
      <trkpt lat="44.26233" lon="6.01654">
        <ele>781.21</ele>
        <time>2021-11-18T09:14:56Z</time>
      </trkpt>
      <trkpt lat="44.26232" lon="6.01653">
        <ele>781.69</ele>
        <time>2021-11-18T09:15:21Z</time>
      </trkpt>
      <trkpt lat="44.2623" lon="6.01656">
        <ele>781.69</ele>
        <time>2021-11-18T09:15:27Z</time>
      </trkpt>
      <trkpt lat="44.26229" lon="6.01669">
        <ele>782.65</ele>
        <time>2021-11-18T09:15:41Z</time>
      </trkpt>
      <trkpt lat="44.2623" lon="6.01676">
        <ele>782.65</ele>
        <time>2021-11-18T09:15:57Z</time>
      </trkpt>
      <trkpt lat="44.26231" lon="6.01677">
        <ele>782.65</ele>
        <time>2021-11-18T09:16:10Z</time>
      </trkpt>
      <trkpt lat="44.26231" lon="6.01678">
        <ele>782.17</ele>
        <time>2021-11-18T09:16:33Z</time>
      </trkpt>
      <trkpt lat="44.2623" lon="6.01679">
        <ele>782.65</ele>
        <time>2021-11-18T09:17:17Z</time>
      </trkpt>
      <trkpt lat="44.26231" lon="6.01676">
        <ele>782.65</ele>
        <time>2021-11-18T09:18:03Z</time>
      </trkpt>
      <trkpt lat="44.26231" lon="6.01678">
        <ele>783.13</ele>
        <time>2021-11-18T09:18:44Z</time>
      </trkpt>
      <trkpt lat="44.2623" lon="6.01677">
        <ele>783.13</ele>
        <time>2021-11-18T09:19:25Z</time>
      </trkpt>
      <trkpt lat="44.26231" lon="6.01675">
        <ele>783.61</ele>
        <time>2021-11-18T09:20:06Z</time>
      </trkpt>
      <trkpt lat="44.26232" lon="6.01676">
        <ele>783.61</ele>
        <time>2021-11-18T09:20:43Z</time>
      </trkpt>
      <trkpt lat="44.26232" lon="6.01678">
        <ele>784.09</ele>
        <time>2021-11-18T09:21:23Z</time>
      </trkpt>
      <trkpt lat="44.26232" lon="6.01677">
        <ele>784.57</ele>
        <time>2021-11-18T09:22:06Z</time>
      </trkpt>
      <trkpt lat="44.26232" lon="6.01681">
        <ele>784.57</ele>
        <time>2021-11-18T09:22:50Z</time>
      </trkpt>
      <trkpt lat="44.26231" lon="6.01677">
        <ele>785.05</ele>
        <time>2021-11-18T09:23:22Z</time>
      </trkpt>
      <trkpt lat="44.26232" lon="6.01679">
        <ele>785.53</ele>
        <time>2021-11-18T09:23:49Z</time>
      </trkpt>
      <trkpt lat="44.26233" lon="6.01679">
        <ele>786.5</ele>
        <time>2021-11-18T09:23:55Z</time>
      </trkpt>
      <trkpt lat="44.2623" lon="6.01681">
        <ele>786.02</ele>
        <time>2021-11-18T09:24:23Z</time>
      </trkpt>
      <trkpt lat="44.26228" lon="6.01681">
        <ele>786.5</ele>
        <time>2021-11-18T09:24:59Z</time>
      </trkpt>
      <trkpt lat="44.26229" lon="6.01681">
        <ele>786.5</ele>
        <time>2021-11-18T09:25:19Z</time>
      </trkpt>
      <trkpt lat="44.26228" lon="6.0168">
        <ele>786.5</ele>
        <time>2021-11-18T09:25:53Z</time>
      </trkpt>
      <trkpt lat="44.26229" lon="6.0168">
        <ele>786.98</ele>
        <time>2021-11-18T09:26:27Z</time>
      </trkpt>
      <trkpt lat="44.26229" lon="6.01687">
        <ele>787.46</ele>
        <time>2021-11-18T09:26:43Z</time>
      </trkpt>
      <trkpt lat="44.26231" lon="6.01696">
        <ele>788.42</ele>
        <time>2021-11-18T09:26:57Z</time>
      </trkpt>
      <trkpt lat="44.2623" lon="6.01708">
        <ele>789.38</ele>
        <time>2021-11-18T09:27:10Z</time>
      </trkpt>
      <trkpt lat="44.26227" lon="6.01723">
        <ele>790.34</ele>
        <time>2021-11-18T09:27:23Z</time>
      </trkpt>
      <trkpt lat="44.2622" lon="6.01734">
        <ele>790.82</ele>
        <time>2021-11-18T09:27:39Z</time>
      </trkpt>
      <trkpt lat="44.26218" lon="6.01738">
        <ele>791.3</ele>
        <time>2021-11-18T09:27:44Z</time>
      </trkpt>
      <trkpt lat="44.26206" lon="6.0175">
        <ele>792.74</ele>
        <time>2021-11-18T09:28:00Z</time>
      </trkpt>
      <trkpt lat="44.26192" lon="6.01752">
        <ele>794.19</ele>
        <time>2021-11-18T09:28:15Z</time>
      </trkpt>
      <trkpt lat="44.26185" lon="6.01757">
        <ele>795.15</ele>
        <time>2021-11-18T09:28:30Z</time>
      </trkpt>
      <trkpt lat="44.26176" lon="6.01765">
        <ele>797.55</ele>
        <time>2021-11-18T09:28:46Z</time>
      </trkpt>
      <trkpt lat="44.26171" lon="6.01775">
        <ele>798.99</ele>
        <time>2021-11-18T09:28:59Z</time>
      </trkpt>
      <trkpt lat="44.26166" lon="6.01784">
        <ele>800.44</ele>
        <time>2021-11-18T09:29:14Z</time>
      </trkpt>
      <trkpt lat="44.2616" lon="6.0179">
        <ele>801.4</ele>
        <time>2021-11-18T09:29:26Z</time>
      </trkpt>
      <trkpt lat="44.26149" lon="6.01796">
        <ele>803.32</ele>
        <time>2021-11-18T09:29:41Z</time>
      </trkpt>
      <trkpt lat="44.26142" lon="6.01803">
        <ele>805.24</ele>
        <time>2021-11-18T09:29:55Z</time>
      </trkpt>
      <trkpt lat="44.26137" lon="6.0181">
        <ele>807.16</ele>
        <time>2021-11-18T09:30:09Z</time>
      </trkpt>
      <trkpt lat="44.26131" lon="6.01818">
        <ele>809.09</ele>
        <time>2021-11-18T09:30:23Z</time>
      </trkpt>
      <trkpt lat="44.26121" lon="6.01827">
        <ele>811.01</ele>
        <time>2021-11-18T09:30:39Z</time>
      </trkpt>
      <trkpt lat="44.26112" lon="6.01832">
        <ele>812.45</ele>
        <time>2021-11-18T09:30:53Z</time>
      </trkpt>
      <trkpt lat="44.26105" lon="6.0184">
        <ele>814.37</ele>
        <time>2021-11-18T09:31:08Z</time>
      </trkpt>
      <trkpt lat="44.26098" lon="6.01848">
        <ele>816.3</ele>
        <time>2021-11-18T09:31:22Z</time>
      </trkpt>
      <trkpt lat="44.26089" lon="6.01854">
        <ele>817.74</ele>
        <time>2021-11-18T09:31:37Z</time>
      </trkpt>
      <trkpt lat="44.26083" lon="6.01865">
        <ele>820.14</ele>
        <time>2021-11-18T09:31:51Z</time>
      </trkpt>
      <trkpt lat="44.26081" lon="6.01873">
        <ele>822.06</ele>
        <time>2021-11-18T09:32:00Z</time>
      </trkpt>
      <trkpt lat="44.26077" lon="6.0188">
        <ele>823.99</ele>
        <time>2021-11-18T09:32:14Z</time>
      </trkpt>
      <trkpt lat="44.26074" lon="6.01892">
        <ele>826.39</ele>
        <time>2021-11-18T09:32:28Z</time>
      </trkpt>
      <trkpt lat="44.26067" lon="6.01902">
        <ele>827.83</ele>
        <time>2021-11-18T09:32:41Z</time>
      </trkpt>
      <trkpt lat="44.26059" lon="6.01908">
        <ele>828.79</ele>
        <time>2021-11-18T09:32:54Z</time>
      </trkpt>
      <trkpt lat="44.26048" lon="6.01911">
        <ele>830.24</ele>
        <time>2021-11-18T09:33:07Z</time>
      </trkpt>
      <trkpt lat="44.26033" lon="6.01912">
        <ele>828.79</ele>
        <time>2021-11-18T09:33:25Z</time>
      </trkpt>
      <trkpt lat="44.26024" lon="6.01915">
        <ele>828.31</ele>
        <time>2021-11-18T09:33:37Z</time>
      </trkpt>
      <trkpt lat="44.26011" lon="6.01928">
        <ele>828.79</ele>
        <time>2021-11-18T09:33:54Z</time>
      </trkpt>
      <trkpt lat="44.26002" lon="6.01939">
        <ele>829.76</ele>
        <time>2021-11-18T09:34:08Z</time>
      </trkpt>
      <trkpt lat="44.25995" lon="6.01951">
        <ele>831.2</ele>
        <time>2021-11-18T09:34:22Z</time>
      </trkpt>
      <trkpt lat="44.25989" lon="6.01966">
        <ele>833.12</ele>
        <time>2021-11-18T09:34:36Z</time>
      </trkpt>
      <trkpt lat="44.25984" lon="6.01982">
        <ele>834.56</ele>
        <time>2021-11-18T09:34:50Z</time>
      </trkpt>
      <trkpt lat="44.25983" lon="6.01989">
        <ele>835.52</ele>
        <time>2021-11-18T09:34:57Z</time>
      </trkpt>
      <trkpt lat="44.25981" lon="6.02004">
        <ele>837.45</ele>
        <time>2021-11-18T09:35:10Z</time>
      </trkpt>
      <trkpt lat="44.2598" lon="6.02008">
        <ele>837.93</ele>
        <time>2021-11-18T09:35:14Z</time>
      </trkpt>
      <trkpt lat="44.25978" lon="6.02021">
        <ele>839.85</ele>
        <time>2021-11-18T09:35:28Z</time>
      </trkpt>
      <trkpt lat="44.25973" lon="6.02032">
        <ele>841.77</ele>
        <time>2021-11-18T09:35:42Z</time>
      </trkpt>
      <trkpt lat="44.25967" lon="6.02043">
        <ele>844.18</ele>
        <time>2021-11-18T09:35:56Z</time>
      </trkpt>
      <trkpt lat="44.25961" lon="6.02051">
        <ele>846.58</ele>
        <time>2021-11-18T09:36:11Z</time>
      </trkpt>
      <trkpt lat="44.25958" lon="6.02063">
        <ele>848.5</ele>
        <time>2021-11-18T09:36:24Z</time>
      </trkpt>
      <trkpt lat="44.25961" lon="6.02075">
        <ele>851.38</ele>
        <time>2021-11-18T09:36:38Z</time>
      </trkpt>
      <trkpt lat="44.25963" lon="6.02092">
        <ele>852.35</ele>
        <time>2021-11-18T09:36:51Z</time>
      </trkpt>
      <trkpt lat="44.25962" lon="6.02098">
        <ele>853.31</ele>
        <time>2021-11-18T09:36:57Z</time>
      </trkpt>
      <trkpt lat="44.25958" lon="6.02111">
        <ele>855.23</ele>
        <time>2021-11-18T09:37:11Z</time>
      </trkpt>
      <trkpt lat="44.25954" lon="6.02121">
        <ele>857.63</ele>
        <time>2021-11-18T09:37:25Z</time>
      </trkpt>
      <trkpt lat="44.25945" lon="6.02131">
        <ele>859.56</ele>
        <time>2021-11-18T09:37:39Z</time>
      </trkpt>
      <trkpt lat="44.25939" lon="6.02142">
        <ele>861.48</ele>
        <time>2021-11-18T09:37:52Z</time>
      </trkpt>
      <trkpt lat="44.25933" lon="6.0215">
        <ele>862.92</ele>
        <time>2021-11-18T09:38:04Z</time>
      </trkpt>
      <trkpt lat="44.25924" lon="6.02157">
        <ele>864.36</ele>
        <time>2021-11-18T09:38:17Z</time>
      </trkpt>
      <trkpt lat="44.25915" lon="6.02165">
        <ele>867.25</ele>
        <time>2021-11-18T09:38:32Z</time>
      </trkpt>
      <trkpt lat="44.25906" lon="6.02172">
        <ele>869.17</ele>
        <time>2021-11-18T09:38:47Z</time>
      </trkpt>
      <trkpt lat="44.25898" lon="6.0218">
        <ele>871.09</ele>
        <time>2021-11-18T09:39:00Z</time>
      </trkpt>
      <trkpt lat="44.25891" lon="6.02184">
        <ele>872.53</ele>
        <time>2021-11-18T09:39:15Z</time>
      </trkpt>
      <trkpt lat="44.25889" lon="6.02184">
        <ele>873.01</ele>
        <time>2021-11-18T09:39:34Z</time>
      </trkpt>
      <trkpt lat="44.25888" lon="6.02183">
        <ele>873.01</ele>
        <time>2021-11-18T09:39:53Z</time>
      </trkpt>
      <trkpt lat="44.25887" lon="6.02181">
        <ele>873.01</ele>
        <time>2021-11-18T09:40:06Z</time>
      </trkpt>
      <trkpt lat="44.25887" lon="6.02179">
        <ele>872.53</ele>
        <time>2021-11-18T09:40:20Z</time>
      </trkpt>
      <trkpt lat="44.25888" lon="6.02179">
        <ele>872.53</ele>
        <time>2021-11-18T09:40:47Z</time>
      </trkpt>
      <trkpt lat="44.25887" lon="6.0218">
        <ele>872.53</ele>
        <time>2021-11-18T09:41:03Z</time>
      </trkpt>
      <trkpt lat="44.25888" lon="6.02183">
        <ele>873.01</ele>
        <time>2021-11-18T09:41:22Z</time>
      </trkpt>
      <trkpt lat="44.25888" lon="6.02182">
        <ele>873.5</ele>
        <time>2021-11-18T09:41:36Z</time>
      </trkpt>
      <trkpt lat="44.25882" lon="6.02188">
        <ele>874.46</ele>
        <time>2021-11-18T09:41:48Z</time>
      </trkpt>
      <trkpt lat="44.25874" lon="6.02195">
        <ele>875.9</ele>
        <time>2021-11-18T09:42:02Z</time>
      </trkpt>
      <trkpt lat="44.25868" lon="6.02207">
        <ele>877.34</ele>
        <time>2021-11-18T09:42:16Z</time>
      </trkpt>
      <trkpt lat="44.25865" lon="6.02219">
        <ele>878.78</ele>
        <time>2021-11-18T09:42:30Z</time>
      </trkpt>
      <trkpt lat="44.25859" lon="6.02225">
        <ele>878.78</ele>
        <time>2021-11-18T09:42:44Z</time>
      </trkpt>
      <trkpt lat="44.25853" lon="6.02239">
        <ele>881.19</ele>
        <time>2021-11-18T09:43:01Z</time>
      </trkpt>
      <trkpt lat="44.2585" lon="6.02244">
        <ele>883.59</ele>
        <time>2021-11-18T09:43:12Z</time>
      </trkpt>
      <trkpt lat="44.25847" lon="6.0225">
        <ele>885.03</ele>
        <time>2021-11-18T09:43:25Z</time>
      </trkpt>
      <trkpt lat="44.25843" lon="6.02257">
        <ele>888.88</ele>
        <time>2021-11-18T09:43:39Z</time>
      </trkpt>
      <trkpt lat="44.2584" lon="6.02268">
        <ele>889.84</ele>
        <time>2021-11-18T09:43:55Z</time>
      </trkpt>
      <trkpt lat="44.25839" lon="6.02273">
        <ele>891.76</ele>
        <time>2021-11-18T09:44:09Z</time>
      </trkpt>
      <trkpt lat="44.25834" lon="6.02281">
        <ele>894.16</ele>
        <time>2021-11-18T09:44:24Z</time>
      </trkpt>
      <trkpt lat="44.25831" lon="6.02287">
        <ele>896.57</ele>
        <time>2021-11-18T09:44:39Z</time>
      </trkpt>
      <trkpt lat="44.25827" lon="6.02297">
        <ele>898.49</ele>
        <time>2021-11-18T09:44:53Z</time>
      </trkpt>
      <trkpt lat="44.25828" lon="6.02306">
        <ele>900.41</ele>
        <time>2021-11-18T09:45:07Z</time>
      </trkpt>
      <trkpt lat="44.25826" lon="6.02319">
        <ele>902.82</ele>
        <time>2021-11-18T09:45:20Z</time>
      </trkpt>
      <trkpt lat="44.25823" lon="6.02328">
        <ele>904.26</ele>
        <time>2021-11-18T09:45:33Z</time>
      </trkpt>
      <trkpt lat="44.25822" lon="6.02337">
        <ele>906.18</ele>
        <time>2021-11-18T09:45:47Z</time>
      </trkpt>
      <trkpt lat="44.25822" lon="6.02344">
        <ele>907.14</ele>
        <time>2021-11-18T09:45:59Z</time>
      </trkpt>
      <trkpt lat="44.25822" lon="6.02347">
        <ele>907.62</ele>
        <time>2021-11-18T09:46:14Z</time>
      </trkpt>
      <trkpt lat="44.25822" lon="6.02348">
        <ele>908.1</ele>
        <time>2021-11-18T09:46:39Z</time>
      </trkpt>
      <trkpt lat="44.25821" lon="6.02351">
        <ele>908.1</ele>
        <time>2021-11-18T09:46:55Z</time>
      </trkpt>
      <trkpt lat="44.25821" lon="6.02353">
        <ele>909.06</ele>
        <time>2021-11-18T09:47:08Z</time>
      </trkpt>
      <trkpt lat="44.25821" lon="6.02355">
        <ele>909.06</ele>
        <time>2021-11-18T09:47:30Z</time>
      </trkpt>
      <trkpt lat="44.25815" lon="6.02359">
        <ele>909.54</ele>
        <time>2021-11-18T09:47:47Z</time>
      </trkpt>
      <trkpt lat="44.25809" lon="6.02365">
        <ele>909.06</ele>
        <time>2021-11-18T09:48:01Z</time>
      </trkpt>
      <trkpt lat="44.25799" lon="6.02376">
        <ele>907.62</ele>
        <time>2021-11-18T09:48:17Z</time>
      </trkpt>
      <trkpt lat="44.25792" lon="6.02385">
        <ele>908.58</ele>
        <time>2021-11-18T09:48:31Z</time>
      </trkpt>
      <trkpt lat="44.25784" lon="6.02394">
        <ele>910.51</ele>
        <time>2021-11-18T09:48:46Z</time>
      </trkpt>
      <trkpt lat="44.25782" lon="6.02406">
        <ele>912.43</ele>
        <time>2021-11-18T09:49:00Z</time>
      </trkpt>
      <trkpt lat="44.25775" lon="6.02417">
        <ele>913.87</ele>
        <time>2021-11-18T09:49:15Z</time>
      </trkpt>
      <trkpt lat="44.25772" lon="6.02426">
        <ele>915.79</ele>
        <time>2021-11-18T09:49:30Z</time>
      </trkpt>
      <trkpt lat="44.25769" lon="6.02439">
        <ele>918.2</ele>
        <time>2021-11-18T09:49:45Z</time>
      </trkpt>
      <trkpt lat="44.25765" lon="6.02451">
        <ele>920.12</ele>
        <time>2021-11-18T09:50:00Z</time>
      </trkpt>
      <trkpt lat="44.25761" lon="6.02461">
        <ele>921.56</ele>
        <time>2021-11-18T09:50:14Z</time>
      </trkpt>
      <trkpt lat="44.25758" lon="6.02473">
        <ele>923.48</ele>
        <time>2021-11-18T09:50:27Z</time>
      </trkpt>
      <trkpt lat="44.25752" lon="6.02486">
        <ele>924.45</ele>
        <time>2021-11-18T09:50:41Z</time>
      </trkpt>
      <trkpt lat="44.25739" lon="6.02494">
        <ele>923</ele>
        <time>2021-11-18T09:50:56Z</time>
      </trkpt>
      <trkpt lat="44.25724" lon="6.025">
        <ele>920.6</ele>
        <time>2021-11-18T09:51:13Z</time>
      </trkpt>
      <trkpt lat="44.25708" lon="6.02512">
        <ele>920.12</ele>
        <time>2021-11-18T09:51:31Z</time>
      </trkpt>
      <trkpt lat="44.25694" lon="6.02515">
        <ele>921.08</ele>
        <time>2021-11-18T09:51:46Z</time>
      </trkpt>
      <trkpt lat="44.25686" lon="6.02521">
        <ele>921.56</ele>
        <time>2021-11-18T09:52:00Z</time>
      </trkpt>
      <trkpt lat="44.25677" lon="6.02527">
        <ele>923.96</ele>
        <time>2021-11-18T09:52:14Z</time>
      </trkpt>
      <trkpt lat="44.25674" lon="6.02528">
        <ele>923.96</ele>
        <time>2021-11-18T09:52:18Z</time>
      </trkpt>
      <trkpt lat="44.25665" lon="6.02539">
        <ele>925.41</ele>
        <time>2021-11-18T09:52:32Z</time>
      </trkpt>
      <trkpt lat="44.25654" lon="6.02549">
        <ele>926.85</ele>
        <time>2021-11-18T09:52:47Z</time>
      </trkpt>
      <trkpt lat="44.25643" lon="6.02556">
        <ele>928.77</ele>
        <time>2021-11-18T09:53:03Z</time>
      </trkpt>
      <trkpt lat="44.25636" lon="6.02566">
        <ele>930.21</ele>
        <time>2021-11-18T09:53:18Z</time>
      </trkpt>
      <trkpt lat="44.25627" lon="6.02579">
        <ele>932.14</ele>
        <time>2021-11-18T09:53:34Z</time>
      </trkpt>
      <trkpt lat="44.25622" lon="6.02591">
        <ele>933.58</ele>
        <time>2021-11-18T09:53:48Z</time>
      </trkpt>
      <trkpt lat="44.25616" lon="6.02599">
        <ele>935.02</ele>
        <time>2021-11-18T09:54:00Z</time>
      </trkpt>
      <trkpt lat="44.25602" lon="6.02609">
        <ele>935.5</ele>
        <time>2021-11-18T09:54:17Z</time>
      </trkpt>
      <trkpt lat="44.25589" lon="6.02618">
        <ele>935.5</ele>
        <time>2021-11-18T09:54:32Z</time>
      </trkpt>
      <trkpt lat="44.2558" lon="6.02624">
        <ele>936.94</ele>
        <time>2021-11-18T09:54:46Z</time>
      </trkpt>
      <trkpt lat="44.25572" lon="6.02629">
        <ele>936.94</ele>
        <time>2021-11-18T09:55:00Z</time>
      </trkpt>
      <trkpt lat="44.25562" lon="6.02633">
        <ele>938.38</ele>
        <time>2021-11-18T09:55:14Z</time>
      </trkpt>
      <trkpt lat="44.25552" lon="6.02643">
        <ele>940.31</ele>
        <time>2021-11-18T09:55:29Z</time>
      </trkpt>
      <trkpt lat="44.25548" lon="6.02646">
        <ele>940.79</ele>
        <time>2021-11-18T09:55:36Z</time>
      </trkpt>
      <trkpt lat="44.25544" lon="6.02652">
        <ele>943.19</ele>
        <time>2021-11-18T09:55:45Z</time>
      </trkpt>
      <trkpt lat="44.25539" lon="6.02662">
        <ele>944.15</ele>
        <time>2021-11-18T09:55:59Z</time>
      </trkpt>
      <trkpt lat="44.25532" lon="6.02674">
        <ele>946.07</ele>
        <time>2021-11-18T09:56:15Z</time>
      </trkpt>
      <trkpt lat="44.25531" lon="6.02687">
        <ele>948</ele>
        <time>2021-11-18T09:56:30Z</time>
      </trkpt>
      <trkpt lat="44.25539" lon="6.02696">
        <ele>949.44</ele>
        <time>2021-11-18T09:56:44Z</time>
      </trkpt>
      <trkpt lat="44.2554" lon="6.02699">
        <ele>949.44</ele>
        <time>2021-11-18T09:56:47Z</time>
      </trkpt>
      <trkpt lat="44.25545" lon="6.02711">
        <ele>951.36</ele>
        <time>2021-11-18T09:57:01Z</time>
      </trkpt>
      <trkpt lat="44.2554" lon="6.02721">
        <ele>952.8</ele>
        <time>2021-11-18T09:57:14Z</time>
      </trkpt>
      <trkpt lat="44.25531" lon="6.02716">
        <ele>955.21</ele>
        <time>2021-11-18T09:57:29Z</time>
      </trkpt>
      <trkpt lat="44.25522" lon="6.02709">
        <ele>956.65</ele>
        <time>2021-11-18T09:57:42Z</time>
      </trkpt>
      <trkpt lat="44.25514" lon="6.02713">
        <ele>958.57</ele>
        <time>2021-11-18T09:57:57Z</time>
      </trkpt>
      <trkpt lat="44.25509" lon="6.02728">
        <ele>959.05</ele>
        <time>2021-11-18T09:58:13Z</time>
      </trkpt>
      <trkpt lat="44.25498" lon="6.02738">
        <ele>960.49</ele>
        <time>2021-11-18T09:58:29Z</time>
      </trkpt>
      <trkpt lat="44.25491" lon="6.02747">
        <ele>962.42</ele>
        <time>2021-11-18T09:58:43Z</time>
      </trkpt>
      <trkpt lat="44.25486" lon="6.02758">
        <ele>965.3</ele>
        <time>2021-11-18T09:58:58Z</time>
      </trkpt>
      <trkpt lat="44.25481" lon="6.02762">
        <ele>967.22</ele>
        <time>2021-11-18T09:59:13Z</time>
      </trkpt>
      <trkpt lat="44.25475" lon="6.02768">
        <ele>969.63</ele>
        <time>2021-11-18T09:59:31Z</time>
      </trkpt>
      <trkpt lat="44.25473" lon="6.02774">
        <ele>972.51</ele>
        <time>2021-11-18T09:59:46Z</time>
      </trkpt>
      <trkpt lat="44.25467" lon="6.02788">
        <ele>972.99</ele>
        <time>2021-11-18T10:00:02Z</time>
      </trkpt>
      <trkpt lat="44.25461" lon="6.02798">
        <ele>975.39</ele>
        <time>2021-11-18T10:00:16Z</time>
      </trkpt>
      <trkpt lat="44.25452" lon="6.02805">
        <ele>977.8</ele>
        <time>2021-11-18T10:00:31Z</time>
      </trkpt>
      <trkpt lat="44.25441" lon="6.02809">
        <ele>980.2</ele>
        <time>2021-11-18T10:00:47Z</time>
      </trkpt>
      <trkpt lat="44.25431" lon="6.02812">
        <ele>982.6</ele>
        <time>2021-11-18T10:01:01Z</time>
      </trkpt>
      <trkpt lat="44.25423" lon="6.02822">
        <ele>984.53</ele>
        <time>2021-11-18T10:01:15Z</time>
      </trkpt>
      <trkpt lat="44.2541" lon="6.02828">
        <ele>986.45</ele>
        <time>2021-11-18T10:01:31Z</time>
      </trkpt>
      <trkpt lat="44.254" lon="6.02828">
        <ele>986.45</ele>
        <time>2021-11-18T10:01:46Z</time>
      </trkpt>
      <trkpt lat="44.25389" lon="6.02826">
        <ele>987.89</ele>
        <time>2021-11-18T10:01:59Z</time>
      </trkpt>
      <trkpt lat="44.25375" lon="6.02821">
        <ele>989.81</ele>
        <time>2021-11-18T10:02:16Z</time>
      </trkpt>
      <trkpt lat="44.25363" lon="6.02821">
        <ele>991.74</ele>
        <time>2021-11-18T10:02:30Z</time>
      </trkpt>
      <trkpt lat="44.25356" lon="6.02816">
        <ele>991.74</ele>
        <time>2021-11-18T10:02:39Z</time>
      </trkpt>
      <trkpt lat="44.25341" lon="6.02807">
        <ele>991.74</ele>
        <time>2021-11-18T10:02:56Z</time>
      </trkpt>
      <trkpt lat="44.25327" lon="6.02795">
        <ele>992.7</ele>
        <time>2021-11-18T10:03:12Z</time>
      </trkpt>
      <trkpt lat="44.25323" lon="6.02791">
        <ele>993.18</ele>
        <time>2021-11-18T10:03:18Z</time>
      </trkpt>
      <trkpt lat="44.25309" lon="6.02787">
        <ele>993.18</ele>
        <time>2021-11-18T10:03:32Z</time>
      </trkpt>
      <trkpt lat="44.25295" lon="6.02788">
        <ele>994.14</ele>
        <time>2021-11-18T10:03:46Z</time>
      </trkpt>
      <trkpt lat="44.25293" lon="6.02788">
        <ele>994.62</ele>
        <time>2021-11-18T10:03:49Z</time>
      </trkpt>
      <trkpt lat="44.25291" lon="6.02788">
        <ele>994.62</ele>
        <time>2021-11-18T10:03:51Z</time>
      </trkpt>
      <trkpt lat="44.25275" lon="6.02789">
        <ele>994.62</ele>
        <time>2021-11-18T10:04:06Z</time>
      </trkpt>
      <trkpt lat="44.25264" lon="6.02787">
        <ele>997.02</ele>
        <time>2021-11-18T10:04:21Z</time>
      </trkpt>
      <trkpt lat="44.25252" lon="6.02789">
        <ele>998.95</ele>
        <time>2021-11-18T10:04:36Z</time>
      </trkpt>
      <trkpt lat="44.25239" lon="6.02784">
        <ele>999.43</ele>
        <time>2021-11-18T10:04:51Z</time>
      </trkpt>
      <trkpt lat="44.25232" lon="6.02788">
        <ele>1001.83</ele>
        <time>2021-11-18T10:05:06Z</time>
      </trkpt>
      <trkpt lat="44.25222" lon="6.02797">
        <ele>1003.75</ele>
        <time>2021-11-18T10:05:21Z</time>
      </trkpt>
      <trkpt lat="44.25214" lon="6.02803">
        <ele>1006.16</ele>
        <time>2021-11-18T10:05:35Z</time>
      </trkpt>
      <trkpt lat="44.25213" lon="6.02801">
        <ele>1006.64</ele>
        <time>2021-11-18T10:05:48Z</time>
      </trkpt>
      <trkpt lat="44.25213" lon="6.02802">
        <ele>1006.64</ele>
        <time>2021-11-18T10:06:10Z</time>
      </trkpt>
      <trkpt lat="44.25212" lon="6.02801">
        <ele>1006.64</ele>
        <time>2021-11-18T10:06:33Z</time>
      </trkpt>
      <trkpt lat="44.25206" lon="6.02802">
        <ele>1007.6</ele>
        <time>2021-11-18T10:06:52Z</time>
      </trkpt>
      <trkpt lat="44.25198" lon="6.02797">
        <ele>1009.04</ele>
        <time>2021-11-18T10:07:04Z</time>
      </trkpt>
      <trkpt lat="44.2519" lon="6.0279">
        <ele>1010.96</ele>
        <time>2021-11-18T10:07:18Z</time>
      </trkpt>
      <trkpt lat="44.25182" lon="6.0278">
        <ele>1013.37</ele>
        <time>2021-11-18T10:07:33Z</time>
      </trkpt>
      <trkpt lat="44.25174" lon="6.02776">
        <ele>1016.25</ele>
        <time>2021-11-18T10:07:49Z</time>
      </trkpt>
      <trkpt lat="44.25169" lon="6.02779">
        <ele>1018.17</ele>
        <time>2021-11-18T10:08:02Z</time>
      </trkpt>
      <trkpt lat="44.25164" lon="6.02784">
        <ele>1020.58</ele>
        <time>2021-11-18T10:08:16Z</time>
      </trkpt>
      <trkpt lat="44.25157" lon="6.02789">
        <ele>1022.98</ele>
        <time>2021-11-18T10:08:31Z</time>
      </trkpt>
      <trkpt lat="44.25149" lon="6.02793">
        <ele>1024.9</ele>
        <time>2021-11-18T10:08:48Z</time>
      </trkpt>
      <trkpt lat="44.2514" lon="6.02799">
        <ele>1027.31</ele>
        <time>2021-11-18T10:09:02Z</time>
      </trkpt>
      <trkpt lat="44.25133" lon="6.02801">
        <ele>1028.75</ele>
        <time>2021-11-18T10:09:17Z</time>
      </trkpt>
      <trkpt lat="44.25122" lon="6.02807">
        <ele>1031.15</ele>
        <time>2021-11-18T10:09:32Z</time>
      </trkpt>
      <trkpt lat="44.25113" lon="6.02809">
        <ele>1032.11</ele>
        <time>2021-11-18T10:09:45Z</time>
      </trkpt>
      <trkpt lat="44.25103" lon="6.02812">
        <ele>1032.59</ele>
        <time>2021-11-18T10:09:59Z</time>
      </trkpt>
      <trkpt lat="44.25099" lon="6.0282">
        <ele>1035</ele>
        <time>2021-11-18T10:10:12Z</time>
      </trkpt>
      <trkpt lat="44.2509" lon="6.02828">
        <ele>1036.92</ele>
        <time>2021-11-18T10:10:27Z</time>
      </trkpt>
      <trkpt lat="44.25083" lon="6.02834">
        <ele>1038.36</ele>
        <time>2021-11-18T10:10:40Z</time>
      </trkpt>
      <trkpt lat="44.25074" lon="6.02844">
        <ele>1039.32</ele>
        <time>2021-11-18T10:10:56Z</time>
      </trkpt>
      <trkpt lat="44.25063" lon="6.02849">
        <ele>1041.25</ele>
        <time>2021-11-18T10:11:11Z</time>
      </trkpt>
      <trkpt lat="44.25055" lon="6.02854">
        <ele>1043.17</ele>
        <time>2021-11-18T10:11:26Z</time>
      </trkpt>
      <trkpt lat="44.25049" lon="6.02859">
        <ele>1045.57</ele>
        <time>2021-11-18T10:11:41Z</time>
      </trkpt>
      <trkpt lat="44.25039" lon="6.02863">
        <ele>1046.53</ele>
        <time>2021-11-18T10:11:57Z</time>
      </trkpt>
      <trkpt lat="44.25036" lon="6.02866">
        <ele>1046.53</ele>
        <time>2021-11-18T10:12:11Z</time>
      </trkpt>
      <trkpt lat="44.25034" lon="6.02871">
        <ele>1047.97</ele>
        <time>2021-11-18T10:12:25Z</time>
      </trkpt>
      <trkpt lat="44.25029" lon="6.02882">
        <ele>1049.42</ele>
        <time>2021-11-18T10:12:39Z</time>
      </trkpt>
      <trkpt lat="44.25024" lon="6.02896">
        <ele>1051.82</ele>
        <time>2021-11-18T10:12:54Z</time>
      </trkpt>
      <trkpt lat="44.25021" lon="6.02904">
        <ele>1053.74</ele>
        <time>2021-11-18T10:13:07Z</time>
      </trkpt>
      <trkpt lat="44.25017" lon="6.02911">
        <ele>1056.15</ele>
        <time>2021-11-18T10:13:23Z</time>
      </trkpt>
      <trkpt lat="44.2501" lon="6.02914">
        <ele>1058.07</ele>
        <time>2021-11-18T10:13:36Z</time>
      </trkpt>
      <trkpt lat="44.25002" lon="6.02917">
        <ele>1059.99</ele>
        <time>2021-11-18T10:13:49Z</time>
      </trkpt>
      <trkpt lat="44.24989" lon="6.02919">
        <ele>1061.43</ele>
        <time>2021-11-18T10:14:04Z</time>
      </trkpt>
      <trkpt lat="44.24977" lon="6.02923">
        <ele>1062.87</ele>
        <time>2021-11-18T10:14:20Z</time>
      </trkpt>
      <trkpt lat="44.24968" lon="6.02927">
        <ele>1064.32</ele>
        <time>2021-11-18T10:14:34Z</time>
      </trkpt>
      <trkpt lat="44.24961" lon="6.02932">
        <ele>1065.76</ele>
        <time>2021-11-18T10:14:47Z</time>
      </trkpt>
      <trkpt lat="44.24952" lon="6.02939">
        <ele>1068.16</ele>
        <time>2021-11-18T10:15:01Z</time>
      </trkpt>
      <trkpt lat="44.24943" lon="6.02945">
        <ele>1069.6</ele>
        <time>2021-11-18T10:15:14Z</time>
      </trkpt>
      <trkpt lat="44.2495" lon="6.02946">
        <ele>1070.57</ele>
        <time>2021-11-18T10:15:28Z</time>
      </trkpt>
      <trkpt lat="44.24962" lon="6.02947">
        <ele>1072.49</ele>
        <time>2021-11-18T10:15:43Z</time>
      </trkpt>
      <trkpt lat="44.24967" lon="6.02958">
        <ele>1073.45</ele>
        <time>2021-11-18T10:15:57Z</time>
      </trkpt>
      <trkpt lat="44.24968" lon="6.02969">
        <ele>1075.85</ele>
        <time>2021-11-18T10:16:12Z</time>
      </trkpt>
      <trkpt lat="44.24968" lon="6.02978">
        <ele>1078.26</ele>
        <time>2021-11-18T10:16:26Z</time>
      </trkpt>
      <trkpt lat="44.24964" lon="6.02982">
        <ele>1079.22</ele>
        <time>2021-11-18T10:16:42Z</time>
      </trkpt>
      <trkpt lat="44.24963" lon="6.02981">
        <ele>1079.22</ele>
        <time>2021-11-18T10:17:10Z</time>
      </trkpt>
      <trkpt lat="44.24964" lon="6.0298">
        <ele>1079.22</ele>
        <time>2021-11-18T10:17:36Z</time>
      </trkpt>
      <trkpt lat="44.24962" lon="6.02979">
        <ele>1079.22</ele>
        <time>2021-11-18T10:18:13Z</time>
      </trkpt>
      <trkpt lat="44.24958" lon="6.02983">
        <ele>1080.18</ele>
        <time>2021-11-18T10:18:27Z</time>
      </trkpt>
      <trkpt lat="44.24957" lon="6.02982">
        <ele>1080.18</ele>
        <time>2021-11-18T10:18:58Z</time>
      </trkpt>
      <trkpt lat="44.24957" lon="6.02979">
        <ele>1080.18</ele>
        <time>2021-11-18T10:19:30Z</time>
      </trkpt>
      <trkpt lat="44.24955" lon="6.02985">
        <ele>1080.66</ele>
        <time>2021-11-18T10:19:54Z</time>
      </trkpt>
      <trkpt lat="44.24946" lon="6.02993">
        <ele>1082.1</ele>
        <time>2021-11-18T10:20:09Z</time>
      </trkpt>
      <trkpt lat="44.24938" lon="6.03001">
        <ele>1083.54</ele>
        <time>2021-11-18T10:20:22Z</time>
      </trkpt>
      <trkpt lat="44.24929" lon="6.0301">
        <ele>1086.43</ele>
        <time>2021-11-18T10:20:36Z</time>
      </trkpt>
      <trkpt lat="44.24924" lon="6.03024">
        <ele>1088.83</ele>
        <time>2021-11-18T10:20:50Z</time>
      </trkpt>
      <trkpt lat="44.24926" lon="6.03038">
        <ele>1090.75</ele>
        <time>2021-11-18T10:21:03Z</time>
      </trkpt>
      <trkpt lat="44.24924" lon="6.03047">
        <ele>1091.23</ele>
        <time>2021-11-18T10:21:11Z</time>
      </trkpt>
      <trkpt lat="44.24917" lon="6.0305">
        <ele>1092.2</ele>
        <time>2021-11-18T10:21:20Z</time>
      </trkpt>
      <trkpt lat="44.24907" lon="6.03055">
        <ele>1094.6</ele>
        <time>2021-11-18T10:21:34Z</time>
      </trkpt>
      <trkpt lat="44.24896" lon="6.03058">
        <ele>1097</ele>
        <time>2021-11-18T10:21:49Z</time>
      </trkpt>
      <trkpt lat="44.24893" lon="6.03069">
        <ele>1099.89</ele>
        <time>2021-11-18T10:22:05Z</time>
      </trkpt>
      <trkpt lat="44.24885" lon="6.03081">
        <ele>1101.81</ele>
        <time>2021-11-18T10:22:20Z</time>
      </trkpt>
      <trkpt lat="44.24873" lon="6.03081">
        <ele>1104.21</ele>
        <time>2021-11-18T10:22:36Z</time>
      </trkpt>
      <trkpt lat="44.24867" lon="6.03082">
        <ele>1106.13</ele>
        <time>2021-11-18T10:22:49Z</time>
      </trkpt>
      <trkpt lat="44.24859" lon="6.03086">
        <ele>1108.54</ele>
        <time>2021-11-18T10:23:03Z</time>
      </trkpt>
      <trkpt lat="44.24848" lon="6.0309">
        <ele>1109.5</ele>
        <time>2021-11-18T10:23:19Z</time>
      </trkpt>
      <trkpt lat="44.24839" lon="6.03097">
        <ele>1111.42</ele>
        <time>2021-11-18T10:23:34Z</time>
      </trkpt>
      <trkpt lat="44.24831" lon="6.03101">
        <ele>1113.34</ele>
        <time>2021-11-18T10:23:48Z</time>
      </trkpt>
      <trkpt lat="44.24826" lon="6.03108">
        <ele>1116.23</ele>
        <time>2021-11-18T10:24:00Z</time>
      </trkpt>
      <trkpt lat="44.24814" lon="6.03112">
        <ele>1116.23</ele>
        <time>2021-11-18T10:24:15Z</time>
      </trkpt>
      <trkpt lat="44.24807" lon="6.03114">
        <ele>1117.19</ele>
        <time>2021-11-18T10:24:30Z</time>
      </trkpt>
      <trkpt lat="44.24801" lon="6.03114">
        <ele>1118.15</ele>
        <time>2021-11-18T10:24:44Z</time>
      </trkpt>
      <trkpt lat="44.24796" lon="6.03122">
        <ele>1120.07</ele>
        <time>2021-11-18T10:25:00Z</time>
      </trkpt>
      <trkpt lat="44.24796" lon="6.03135">
        <ele>1122</ele>
        <time>2021-11-18T10:25:12Z</time>
      </trkpt>
      <trkpt lat="44.2479" lon="6.03145">
        <ele>1123.44</ele>
        <time>2021-11-18T10:25:26Z</time>
      </trkpt>
      <trkpt lat="44.24783" lon="6.03147">
        <ele>1123.92</ele>
        <time>2021-11-18T10:25:33Z</time>
      </trkpt>
      <trkpt lat="44.24774" lon="6.03139">
        <ele>1124.4</ele>
        <time>2021-11-18T10:25:46Z</time>
      </trkpt>
      <trkpt lat="44.24767" lon="6.03146">
        <ele>1128.24</ele>
        <time>2021-11-18T10:26:01Z</time>
      </trkpt>
      <trkpt lat="44.2476" lon="6.03155">
        <ele>1129.21</ele>
        <time>2021-11-18T10:26:16Z</time>
      </trkpt>
      <trkpt lat="44.24751" lon="6.03162">
        <ele>1130.65</ele>
        <time>2021-11-18T10:26:29Z</time>
      </trkpt>
      <trkpt lat="44.24742" lon="6.03175">
        <ele>1133.05</ele>
        <time>2021-11-18T10:26:46Z</time>
      </trkpt>
      <trkpt lat="44.24735" lon="6.03188">
        <ele>1134.49</ele>
        <time>2021-11-18T10:27:01Z</time>
      </trkpt>
      <trkpt lat="44.24728" lon="6.03201">
        <ele>1137.38</ele>
        <time>2021-11-18T10:27:17Z</time>
      </trkpt>
      <trkpt lat="44.24721" lon="6.0321">
        <ele>1138.82</ele>
        <time>2021-11-18T10:27:31Z</time>
      </trkpt>
      <trkpt lat="44.24715" lon="6.03219">
        <ele>1141.22</ele>
        <time>2021-11-18T10:27:48Z</time>
      </trkpt>
      <trkpt lat="44.24707" lon="6.03231">
        <ele>1143.14</ele>
        <time>2021-11-18T10:28:05Z</time>
      </trkpt>
      <trkpt lat="44.247" lon="6.03243">
        <ele>1144.59</ele>
        <time>2021-11-18T10:28:20Z</time>
      </trkpt>
      <trkpt lat="44.24687" lon="6.03246">
        <ele>1145.07</ele>
        <time>2021-11-18T10:28:36Z</time>
      </trkpt>
      <trkpt lat="44.24686" lon="6.03251">
        <ele>1145.55</ele>
        <time>2021-11-18T10:28:49Z</time>
      </trkpt>
      <trkpt lat="44.24687" lon="6.03255">
        <ele>1145.55</ele>
        <time>2021-11-18T10:29:07Z</time>
      </trkpt>
      <trkpt lat="44.24685" lon="6.03261">
        <ele>1146.99</ele>
        <time>2021-11-18T10:29:24Z</time>
      </trkpt>
      <trkpt lat="44.24683" lon="6.03264">
        <ele>1147.47</ele>
        <time>2021-11-18T10:29:28Z</time>
      </trkpt>
      <trkpt lat="44.24675" lon="6.03271">
        <ele>1148.91</ele>
        <time>2021-11-18T10:29:43Z</time>
      </trkpt>
      <trkpt lat="44.24667" lon="6.03281">
        <ele>1150.84</ele>
        <time>2021-11-18T10:29:58Z</time>
      </trkpt>
      <trkpt lat="44.24666" lon="6.03283">
        <ele>1150.84</ele>
        <time>2021-11-18T10:30:00Z</time>
      </trkpt>
      <trkpt lat="44.24656" lon="6.03299">
        <ele>1151.32</ele>
        <time>2021-11-18T10:30:16Z</time>
      </trkpt>
      <trkpt lat="44.24646" lon="6.03312">
        <ele>1151.8</ele>
        <time>2021-11-18T10:30:32Z</time>
      </trkpt>
      <trkpt lat="44.24638" lon="6.0332">
        <ele>1153.24</ele>
        <time>2021-11-18T10:30:46Z</time>
      </trkpt>
      <trkpt lat="44.24638" lon="6.03321">
        <ele>1153.24</ele>
        <time>2021-11-18T10:30:52Z</time>
      </trkpt>
      <trkpt lat="44.24637" lon="6.03333">
        <ele>1155.16</ele>
        <time>2021-11-18T10:31:07Z</time>
      </trkpt>
      <trkpt lat="44.24639" lon="6.03347">
        <ele>1156.6</ele>
        <time>2021-11-18T10:31:20Z</time>
      </trkpt>
      <trkpt lat="44.2464" lon="6.03363">
        <ele>1158.53</ele>
        <time>2021-11-18T10:31:35Z</time>
      </trkpt>
      <trkpt lat="44.24631" lon="6.03369">
        <ele>1160.45</ele>
        <time>2021-11-18T10:31:48Z</time>
      </trkpt>
      <trkpt lat="44.24622" lon="6.03376">
        <ele>1161.41</ele>
        <time>2021-11-18T10:32:01Z</time>
      </trkpt>
      <trkpt lat="44.24612" lon="6.03384">
        <ele>1163.33</ele>
        <time>2021-11-18T10:32:17Z</time>
      </trkpt>
      <trkpt lat="44.24606" lon="6.03392">
        <ele>1164.77</ele>
        <time>2021-11-18T10:32:30Z</time>
      </trkpt>
      <trkpt lat="44.24599" lon="6.034">
        <ele>1166.7</ele>
        <time>2021-11-18T10:32:44Z</time>
      </trkpt>
      <trkpt lat="44.24592" lon="6.03407">
        <ele>1168.14</ele>
        <time>2021-11-18T10:32:57Z</time>
      </trkpt>
      <trkpt lat="44.24588" lon="6.03418">
        <ele>1169.1</ele>
        <time>2021-11-18T10:33:11Z</time>
      </trkpt>
      <trkpt lat="44.24584" lon="6.0343">
        <ele>1170.54</ele>
        <time>2021-11-18T10:33:24Z</time>
      </trkpt>
      <trkpt lat="44.24584" lon="6.03439">
        <ele>1171.5</ele>
        <time>2021-11-18T10:33:32Z</time>
      </trkpt>
      <trkpt lat="44.24586" lon="6.03453">
        <ele>1172.95</ele>
        <time>2021-11-18T10:33:47Z</time>
      </trkpt>
      <trkpt lat="44.24588" lon="6.03469">
        <ele>1174.87</ele>
        <time>2021-11-18T10:34:01Z</time>
      </trkpt>
      <trkpt lat="44.24583" lon="6.03487">
        <ele>1175.83</ele>
        <time>2021-11-18T10:34:16Z</time>
      </trkpt>
      <trkpt lat="44.24578" lon="6.03503">
        <ele>1175.83</ele>
        <time>2021-11-18T10:34:34Z</time>
      </trkpt>
      <trkpt lat="44.24576" lon="6.03508">
        <ele>1176.31</ele>
        <time>2021-11-18T10:34:39Z</time>
      </trkpt>
      <trkpt lat="44.24569" lon="6.03524">
        <ele>1177.27</ele>
        <time>2021-11-18T10:34:55Z</time>
      </trkpt>
      <trkpt lat="44.24564" lon="6.03536">
        <ele>1177.75</ele>
        <time>2021-11-18T10:35:11Z</time>
      </trkpt>
      <trkpt lat="44.24564" lon="6.03538">
        <ele>1176.79</ele>
        <time>2021-11-18T10:35:30Z</time>
      </trkpt>
      <trkpt lat="44.24564" lon="6.0354">
        <ele>1177.27</ele>
        <time>2021-11-18T10:35:54Z</time>
      </trkpt>
      <trkpt lat="44.2456" lon="6.03541">
        <ele>1177.27</ele>
        <time>2021-11-18T10:36:21Z</time>
      </trkpt>
      <trkpt lat="44.24558" lon="6.0354">
        <ele>1176.79</ele>
        <time>2021-11-18T10:36:41Z</time>
      </trkpt>
      <trkpt lat="44.24558" lon="6.03541">
        <ele>1176.79</ele>
        <time>2021-11-18T10:37:05Z</time>
      </trkpt>
      <trkpt lat="44.24558" lon="6.03543">
        <ele>1176.79</ele>
        <time>2021-11-18T10:37:30Z</time>
      </trkpt>
      <trkpt lat="44.2456" lon="6.03545">
        <ele>1177.27</ele>
        <time>2021-11-18T10:37:52Z</time>
      </trkpt>
      <trkpt lat="44.2456" lon="6.03545">
        <ele>1177.27</ele>
        <time>2021-11-18T10:38:15Z</time>
      </trkpt>
      <trkpt lat="44.24559" lon="6.03546">
        <ele>1177.27</ele>
        <time>2021-11-18T10:38:41Z</time>
      </trkpt>
      <trkpt lat="44.24561" lon="6.03551">
        <ele>1176.31</ele>
        <time>2021-11-18T10:38:54Z</time>
      </trkpt>
      <trkpt lat="44.24565" lon="6.03557">
        <ele>1176.31</ele>
        <time>2021-11-18T10:39:01Z</time>
      </trkpt>
      <trkpt lat="44.24565" lon="6.03567">
        <ele>1176.31</ele>
        <time>2021-11-18T10:39:12Z</time>
      </trkpt>
      <trkpt lat="44.24562" lon="6.03568">
        <ele>1175.35</ele>
        <time>2021-11-18T10:39:15Z</time>
      </trkpt>
      <trkpt lat="44.24563" lon="6.03571">
        <ele>1174.87</ele>
        <time>2021-11-18T10:39:18Z</time>
      </trkpt>
      <trkpt lat="44.24568" lon="6.03576">
        <ele>1173.91</ele>
        <time>2021-11-18T10:39:36Z</time>
      </trkpt>
      <trkpt lat="44.24571" lon="6.0358">
        <ele>1174.39</ele>
        <time>2021-11-18T10:39:55Z</time>
      </trkpt>
      <trkpt lat="44.24576" lon="6.03585">
        <ele>1174.39</ele>
        <time>2021-11-18T10:40:02Z</time>
      </trkpt>
      <trkpt lat="44.24577" lon="6.03595">
        <ele>1174.87</ele>
        <time>2021-11-18T10:40:11Z</time>
      </trkpt>
      <trkpt lat="44.24571" lon="6.03599">
        <ele>1171.98</ele>
        <time>2021-11-18T10:40:17Z</time>
      </trkpt>
      <trkpt lat="44.2457" lon="6.03602">
        <ele>1171.5</ele>
        <time>2021-11-18T10:40:19Z</time>
      </trkpt>
      <trkpt lat="44.24567" lon="6.03617">
        <ele>1170.54</ele>
        <time>2021-11-18T10:40:29Z</time>
      </trkpt>
      <trkpt lat="44.24576" lon="6.03642">
        <ele>1169.1</ele>
        <time>2021-11-18T10:40:44Z</time>
      </trkpt>
      <trkpt lat="44.24574" lon="6.03646">
        <ele>1169.58</ele>
        <time>2021-11-18T10:40:48Z</time>
      </trkpt>
      <trkpt lat="44.24569" lon="6.03672">
        <ele>1171.5</ele>
        <time>2021-11-18T10:41:06Z</time>
      </trkpt>
      <trkpt lat="44.24567" lon="6.03678">
        <ele>1171.02</ele>
        <time>2021-11-18T10:41:10Z</time>
      </trkpt>
      <trkpt lat="44.24554" lon="6.03695">
        <ele>1168.14</ele>
        <time>2021-11-18T10:41:26Z</time>
      </trkpt>
      <trkpt lat="44.24553" lon="6.03695">
        <ele>1167.66</ele>
        <time>2021-11-18T10:41:27Z</time>
      </trkpt>
      <trkpt lat="44.24551" lon="6.03697">
        <ele>1166.7</ele>
        <time>2021-11-18T10:41:29Z</time>
      </trkpt>
      <trkpt lat="44.24549" lon="6.03711">
        <ele>1164.29</ele>
        <time>2021-11-18T10:41:40Z</time>
      </trkpt>
      <trkpt lat="44.24546" lon="6.03713">
        <ele>1163.81</ele>
        <time>2021-11-18T10:41:43Z</time>
      </trkpt>
      <trkpt lat="44.24542" lon="6.03714">
        <ele>1162.85</ele>
        <time>2021-11-18T10:41:47Z</time>
      </trkpt>
      <trkpt lat="44.24538" lon="6.03716">
        <ele>1161.89</ele>
        <time>2021-11-18T10:41:51Z</time>
      </trkpt>
      <trkpt lat="44.24536" lon="6.03717">
        <ele>1160.93</ele>
        <time>2021-11-18T10:41:53Z</time>
      </trkpt>
      <trkpt lat="44.24533" lon="6.03718">
        <ele>1160.93</ele>
        <time>2021-11-18T10:41:56Z</time>
      </trkpt>
      <trkpt lat="44.2452" lon="6.03731">
        <ele>1158.53</ele>
        <time>2021-11-18T10:42:13Z</time>
      </trkpt>
      <trkpt lat="44.24519" lon="6.03732">
        <ele>1158.05</ele>
        <time>2021-11-18T10:42:14Z</time>
      </trkpt>
      <trkpt lat="44.24514" lon="6.03741">
        <ele>1155.64</ele>
        <time>2021-11-18T10:42:23Z</time>
      </trkpt>
      <trkpt lat="44.24504" lon="6.03758">
        <ele>1152.76</ele>
        <time>2021-11-18T10:42:38Z</time>
      </trkpt>
      <trkpt lat="44.24491" lon="6.03774">
        <ele>1149.87</ele>
        <time>2021-11-18T10:42:56Z</time>
      </trkpt>
      <trkpt lat="44.24486" lon="6.0378">
        <ele>1149.39</ele>
        <time>2021-11-18T10:43:02Z</time>
      </trkpt>
      <trkpt lat="44.24483" lon="6.0379">
        <ele>1148.43</ele>
        <time>2021-11-18T10:43:19Z</time>
      </trkpt>
      <trkpt lat="44.2448" lon="6.03803">
        <ele>1146.51</ele>
        <time>2021-11-18T10:43:35Z</time>
      </trkpt>
      <trkpt lat="44.2447" lon="6.0382">
        <ele>1144.59</ele>
        <time>2021-11-18T10:43:51Z</time>
      </trkpt>
      <trkpt lat="44.24457" lon="6.0384">
        <ele>1142.66</ele>
        <time>2021-11-18T10:44:09Z</time>
      </trkpt>
      <trkpt lat="44.24452" lon="6.03864">
        <ele>1141.7</ele>
        <time>2021-11-18T10:44:27Z</time>
      </trkpt>
      <trkpt lat="44.24447" lon="6.03879">
        <ele>1141.22</ele>
        <time>2021-11-18T10:44:42Z</time>
      </trkpt>
      <trkpt lat="44.24441" lon="6.03903">
        <ele>1139.3</ele>
        <time>2021-11-18T10:44:59Z</time>
      </trkpt>
      <trkpt lat="44.24439" lon="6.0393">
        <ele>1137.38</ele>
        <time>2021-11-18T10:45:17Z</time>
      </trkpt>
      <trkpt lat="44.2443" lon="6.03954">
        <ele>1136.42</ele>
        <time>2021-11-18T10:45:35Z</time>
      </trkpt>
      <trkpt lat="44.24426" lon="6.03978">
        <ele>1137.38</ele>
        <time>2021-11-18T10:45:53Z</time>
      </trkpt>
      <trkpt lat="44.24432" lon="6.04009">
        <ele>1136.9</ele>
        <time>2021-11-18T10:46:13Z</time>
      </trkpt>
      <trkpt lat="44.24438" lon="6.0403">
        <ele>1134.01</ele>
        <time>2021-11-18T10:46:27Z</time>
      </trkpt>
      <trkpt lat="44.24438" lon="6.04042">
        <ele>1132.57</ele>
        <time>2021-11-18T10:46:35Z</time>
      </trkpt>
      <trkpt lat="44.24438" lon="6.04064">
        <ele>1131.61</ele>
        <time>2021-11-18T10:46:51Z</time>
      </trkpt>
      <trkpt lat="44.2444" lon="6.04087">
        <ele>1130.17</ele>
        <time>2021-11-18T10:47:06Z</time>
      </trkpt>
      <trkpt lat="44.2444" lon="6.04094">
        <ele>1129.69</ele>
        <time>2021-11-18T10:47:10Z</time>
      </trkpt>
      <trkpt lat="44.24438" lon="6.04119">
        <ele>1128.73</ele>
        <time>2021-11-18T10:47:26Z</time>
      </trkpt>
      <trkpt lat="44.24438" lon="6.04123">
        <ele>1128.24</ele>
        <time>2021-11-18T10:47:29Z</time>
      </trkpt>
      <trkpt lat="44.24441" lon="6.04132">
        <ele>1128.24</ele>
        <time>2021-11-18T10:47:35Z</time>
      </trkpt>
      <trkpt lat="44.24442" lon="6.04164">
        <ele>1127.28</ele>
        <time>2021-11-18T10:47:55Z</time>
      </trkpt>
      <trkpt lat="44.24442" lon="6.04187">
        <ele>1126.32</ele>
        <time>2021-11-18T10:48:10Z</time>
      </trkpt>
      <trkpt lat="44.24443" lon="6.04219">
        <ele>1124.88</ele>
        <time>2021-11-18T10:48:29Z</time>
      </trkpt>
      <trkpt lat="44.24445" lon="6.04232">
        <ele>1124.4</ele>
        <time>2021-11-18T10:48:38Z</time>
      </trkpt>
      <trkpt lat="44.24442" lon="6.04264">
        <ele>1124.4</ele>
        <time>2021-11-18T10:48:57Z</time>
      </trkpt>
      <trkpt lat="44.24437" lon="6.04281">
        <ele>1125.36</ele>
        <time>2021-11-18T10:49:09Z</time>
      </trkpt>
      <trkpt lat="44.24432" lon="6.0431">
        <ele>1125.36</ele>
        <time>2021-11-18T10:49:28Z</time>
      </trkpt>
      <trkpt lat="44.24431" lon="6.04322">
        <ele>1124.88</ele>
        <time>2021-11-18T10:49:35Z</time>
      </trkpt>
      <trkpt lat="44.24426" lon="6.04345">
        <ele>1125.36</ele>
        <time>2021-11-18T10:49:52Z</time>
      </trkpt>
      <trkpt lat="44.2442" lon="6.04369">
        <ele>1124.88</ele>
        <time>2021-11-18T10:50:10Z</time>
      </trkpt>
      <trkpt lat="44.24419" lon="6.04388">
        <ele>1124.4</ele>
        <time>2021-11-18T10:50:27Z</time>
      </trkpt>
      <trkpt lat="44.2442" lon="6.04403">
        <ele>1122.96</ele>
        <time>2021-11-18T10:50:42Z</time>
      </trkpt>
      <trkpt lat="44.24417" lon="6.04429">
        <ele>1121.52</ele>
        <time>2021-11-18T10:51:01Z</time>
      </trkpt>
      <trkpt lat="44.24408" lon="6.04447">
        <ele>1121.52</ele>
        <time>2021-11-18T10:51:17Z</time>
      </trkpt>
      <trkpt lat="44.24408" lon="6.04475">
        <ele>1121.52</ele>
        <time>2021-11-18T10:51:37Z</time>
      </trkpt>
      <trkpt lat="44.2441" lon="6.0449">
        <ele>1121.52</ele>
        <time>2021-11-18T10:51:51Z</time>
      </trkpt>
      <trkpt lat="44.24418" lon="6.0451">
        <ele>1121.52</ele>
        <time>2021-11-18T10:52:09Z</time>
      </trkpt>
      <trkpt lat="44.24421" lon="6.0452">
        <ele>1121.03</ele>
        <time>2021-11-18T10:52:25Z</time>
      </trkpt>
      <trkpt lat="44.24423" lon="6.04534">
        <ele>1121.52</ele>
        <time>2021-11-18T10:52:40Z</time>
      </trkpt>
      <trkpt lat="44.24422" lon="6.04536">
        <ele>1121.52</ele>
        <time>2021-11-18T10:52:42Z</time>
      </trkpt>
      <trkpt lat="44.24414" lon="6.04554">
        <ele>1122</ele>
        <time>2021-11-18T10:52:59Z</time>
      </trkpt>
      <trkpt lat="44.24414" lon="6.04569">
        <ele>1121.03</ele>
        <time>2021-11-18T10:53:14Z</time>
      </trkpt>
      <trkpt lat="44.24416" lon="6.04595">
        <ele>1120.07</ele>
        <time>2021-11-18T10:53:32Z</time>
      </trkpt>
      <trkpt lat="44.24413" lon="6.04624">
        <ele>1118.63</ele>
        <time>2021-11-18T10:53:51Z</time>
      </trkpt>
      <trkpt lat="44.24412" lon="6.04653">
        <ele>1119.11</ele>
        <time>2021-11-18T10:54:11Z</time>
      </trkpt>
      <trkpt lat="44.24417" lon="6.04667">
        <ele>1119.59</ele>
        <time>2021-11-18T10:54:24Z</time>
      </trkpt>
      <trkpt lat="44.24423" lon="6.04681">
        <ele>1119.59</ele>
        <time>2021-11-18T10:54:35Z</time>
      </trkpt>
      <trkpt lat="44.24424" lon="6.04708">
        <ele>1120.55</ele>
        <time>2021-11-18T10:54:55Z</time>
      </trkpt>
      <trkpt lat="44.24424" lon="6.04726">
        <ele>1122.48</ele>
        <time>2021-11-18T10:55:11Z</time>
      </trkpt>
      <trkpt lat="44.24423" lon="6.04731">
        <ele>1122.48</ele>
        <time>2021-11-18T10:55:24Z</time>
      </trkpt>
      <trkpt lat="44.24423" lon="6.0473">
        <ele>1121.52</ele>
        <time>2021-11-18T10:55:40Z</time>
      </trkpt>
      <trkpt lat="44.24423" lon="6.04727">
        <ele>1121.03</ele>
        <time>2021-11-18T10:56:06Z</time>
      </trkpt>
      <trkpt lat="44.24423" lon="6.04727">
        <ele>1122.48</ele>
        <time>2021-11-18T10:56:19Z</time>
      </trkpt>
      <trkpt lat="44.24424" lon="6.04732">
        <ele>1122.48</ele>
        <time>2021-11-18T10:56:29Z</time>
      </trkpt>
      <trkpt lat="44.24422" lon="6.04765">
        <ele>1121.03</ele>
        <time>2021-11-18T10:56:49Z</time>
      </trkpt>
      <trkpt lat="44.24428" lon="6.04793">
        <ele>1120.55</ele>
        <time>2021-11-18T10:57:07Z</time>
      </trkpt>
      <trkpt lat="44.24431" lon="6.04819">
        <ele>1120.55</ele>
        <time>2021-11-18T10:57:25Z</time>
      </trkpt>
      <trkpt lat="44.24435" lon="6.04843">
        <ele>1121.03</ele>
        <time>2021-11-18T10:57:41Z</time>
      </trkpt>
      <trkpt lat="44.24443" lon="6.04868">
        <ele>1122.48</ele>
        <time>2021-11-18T10:57:59Z</time>
      </trkpt>
      <trkpt lat="44.24451" lon="6.0489">
        <ele>1122.96</ele>
        <time>2021-11-18T10:58:16Z</time>
      </trkpt>
      <trkpt lat="44.24458" lon="6.04906">
        <ele>1124.4</ele>
        <time>2021-11-18T10:58:30Z</time>
      </trkpt>
      <trkpt lat="44.24466" lon="6.04925">
        <ele>1125.36</ele>
        <time>2021-11-18T10:58:46Z</time>
      </trkpt>
      <trkpt lat="44.24477" lon="6.04944">
        <ele>1127.28</ele>
        <time>2021-11-18T10:59:04Z</time>
      </trkpt>
      <trkpt lat="44.24484" lon="6.04963">
        <ele>1129.21</ele>
        <time>2021-11-18T10:59:20Z</time>
      </trkpt>
      <trkpt lat="44.24485" lon="6.04976">
        <ele>1129.69</ele>
        <time>2021-11-18T10:59:36Z</time>
      </trkpt>
      <trkpt lat="44.24487" lon="6.0499">
        <ele>1129.69</ele>
        <time>2021-11-18T10:59:51Z</time>
      </trkpt>
      <trkpt lat="44.24488" lon="6.05003">
        <ele>1130.17</ele>
        <time>2021-11-18T11:00:00Z</time>
      </trkpt>
      <trkpt lat="44.24489" lon="6.05009">
        <ele>1130.17</ele>
        <time>2021-11-18T11:00:04Z</time>
      </trkpt>
      <trkpt lat="44.2449" lon="6.05018">
        <ele>1130.17</ele>
        <time>2021-11-18T11:00:10Z</time>
      </trkpt>
      <trkpt lat="44.24494" lon="6.05044">
        <ele>1129.69</ele>
        <time>2021-11-18T11:00:27Z</time>
      </trkpt>
      <trkpt lat="44.24495" lon="6.05075">
        <ele>1127.76</ele>
        <time>2021-11-18T11:00:47Z</time>
      </trkpt>
      <trkpt lat="44.24498" lon="6.05102">
        <ele>1126.8</ele>
        <time>2021-11-18T11:01:05Z</time>
      </trkpt>
      <trkpt lat="44.245" lon="6.0513">
        <ele>1126.8</ele>
        <time>2021-11-18T11:01:23Z</time>
      </trkpt>
      <trkpt lat="44.24502" lon="6.05154">
        <ele>1126.8</ele>
        <time>2021-11-18T11:01:40Z</time>
      </trkpt>
      <trkpt lat="44.24504" lon="6.0517">
        <ele>1127.28</ele>
        <time>2021-11-18T11:01:51Z</time>
      </trkpt>
      <trkpt lat="44.24506" lon="6.0519">
        <ele>1127.28</ele>
        <time>2021-11-18T11:02:08Z</time>
      </trkpt>
      <trkpt lat="44.24494" lon="6.05204">
        <ele>1125.36</ele>
        <time>2021-11-18T11:02:25Z</time>
      </trkpt>
      <trkpt lat="44.24493" lon="6.05213">
        <ele>1125.36</ele>
        <time>2021-11-18T11:02:31Z</time>
      </trkpt>
      <trkpt lat="44.24497" lon="6.0523">
        <ele>1125.84</ele>
        <time>2021-11-18T11:02:47Z</time>
      </trkpt>
      <trkpt lat="44.24501" lon="6.05239">
        <ele>1125.84</ele>
        <time>2021-11-18T11:03:02Z</time>
      </trkpt>
      <trkpt lat="44.24501" lon="6.0524">
        <ele>1125.84</ele>
        <time>2021-11-18T11:03:03Z</time>
      </trkpt>
      <trkpt lat="44.24506" lon="6.05254">
        <ele>1126.32</ele>
        <time>2021-11-18T11:03:20Z</time>
      </trkpt>
      <trkpt lat="44.24509" lon="6.05262">
        <ele>1126.8</ele>
        <time>2021-11-18T11:03:34Z</time>
      </trkpt>
      <trkpt lat="44.24512" lon="6.05263">
        <ele>1126.8</ele>
        <time>2021-11-18T11:03:50Z</time>
      </trkpt>
      <trkpt lat="44.24516" lon="6.05268">
        <ele>1127.28</ele>
        <time>2021-11-18T11:04:04Z</time>
      </trkpt>
      <trkpt lat="44.24515" lon="6.05268">
        <ele>1127.76</ele>
        <time>2021-11-18T11:04:17Z</time>
      </trkpt>
      <trkpt lat="44.24515" lon="6.05268">
        <ele>1126.32</ele>
        <time>2021-11-18T11:04:38Z</time>
      </trkpt>
      <trkpt lat="44.24515" lon="6.05269">
        <ele>1127.28</ele>
        <time>2021-11-18T11:05:03Z</time>
      </trkpt>
      <trkpt lat="44.24514" lon="6.05267">
        <ele>1127.28</ele>
        <time>2021-11-18T11:05:28Z</time>
      </trkpt>
      <trkpt lat="44.24514" lon="6.05265">
        <ele>1127.76</ele>
        <time>2021-11-18T11:05:47Z</time>
      </trkpt>
      <trkpt lat="44.24513" lon="6.05262">
        <ele>1127.76</ele>
        <time>2021-11-18T11:06:06Z</time>
      </trkpt>
      <trkpt lat="44.24511" lon="6.05262">
        <ele>1129.21</ele>
        <time>2021-11-18T11:06:24Z</time>
      </trkpt>
      <trkpt lat="44.24511" lon="6.05262">
        <ele>1129.21</ele>
        <time>2021-11-18T11:06:25Z</time>
      </trkpt>
      <trkpt lat="44.2451" lon="6.05261">
        <ele>1127.76</ele>
        <time>2021-11-18T11:06:47Z</time>
      </trkpt>
      <trkpt lat="44.24511" lon="6.05259">
        <ele>1127.76</ele>
        <time>2021-11-18T11:07:05Z</time>
      </trkpt>
      <trkpt lat="44.24518" lon="6.05258">
        <ele>1128.24</ele>
        <time>2021-11-18T11:07:30Z</time>
      </trkpt>
      <trkpt lat="44.2452" lon="6.05256">
        <ele>1128.73</ele>
        <time>2021-11-18T11:07:33Z</time>
      </trkpt>
      <trkpt lat="44.24528" lon="6.05244">
        <ele>1129.69</ele>
        <time>2021-11-18T11:07:47Z</time>
      </trkpt>
      <trkpt lat="44.24541" lon="6.0524">
        <ele>1132.09</ele>
        <time>2021-11-18T11:08:04Z</time>
      </trkpt>
      <trkpt lat="44.24551" lon="6.05248">
        <ele>1134.01</ele>
        <time>2021-11-18T11:08:18Z</time>
      </trkpt>
      <trkpt lat="44.24558" lon="6.05265">
        <ele>1134.97</ele>
        <time>2021-11-18T11:08:34Z</time>
      </trkpt>
      <trkpt lat="44.24559" lon="6.05268">
        <ele>1134.97</ele>
        <time>2021-11-18T11:08:37Z</time>
      </trkpt>
      <trkpt lat="44.2456" lon="6.05291">
        <ele>1135.45</ele>
        <time>2021-11-18T11:08:56Z</time>
      </trkpt>
      <trkpt lat="44.24559" lon="6.05292">
        <ele>1135.94</ele>
        <time>2021-11-18T11:08:57Z</time>
      </trkpt>
      <trkpt lat="44.24562" lon="6.05309">
        <ele>1137.38</ele>
        <time>2021-11-18T11:09:16Z</time>
      </trkpt>
      <trkpt lat="44.24571" lon="6.05315">
        <ele>1139.78</ele>
        <time>2021-11-18T11:09:31Z</time>
      </trkpt>
      <trkpt lat="44.2458" lon="6.0532">
        <ele>1141.7</ele>
        <time>2021-11-18T11:09:46Z</time>
      </trkpt>
      <trkpt lat="44.24586" lon="6.05324">
        <ele>1143.14</ele>
        <time>2021-11-18T11:09:59Z</time>
      </trkpt>
      <trkpt lat="44.24592" lon="6.05332">
        <ele>1145.07</ele>
        <time>2021-11-18T11:10:12Z</time>
      </trkpt>
      <trkpt lat="44.24595" lon="6.0534">
        <ele>1146.99</ele>
        <time>2021-11-18T11:10:27Z</time>
      </trkpt>
      <trkpt lat="44.24601" lon="6.05346">
        <ele>1148.91</ele>
        <time>2021-11-18T11:10:41Z</time>
      </trkpt>
      <trkpt lat="44.2461" lon="6.05344">
        <ele>1150.35</ele>
        <time>2021-11-18T11:10:54Z</time>
      </trkpt>
      <trkpt lat="44.24618" lon="6.05347">
        <ele>1152.28</ele>
        <time>2021-11-18T11:11:07Z</time>
      </trkpt>
      <trkpt lat="44.24627" lon="6.05351">
        <ele>1154.68</ele>
        <time>2021-11-18T11:11:21Z</time>
      </trkpt>
      <trkpt lat="44.24639" lon="6.05356">
        <ele>1157.08</ele>
        <time>2021-11-18T11:11:38Z</time>
      </trkpt>
      <trkpt lat="44.24645" lon="6.05367">
        <ele>1158.53</ele>
        <time>2021-11-18T11:11:51Z</time>
      </trkpt>
      <trkpt lat="44.24653" lon="6.05379">
        <ele>1159.49</ele>
        <time>2021-11-18T11:12:06Z</time>
      </trkpt>
      <trkpt lat="44.24667" lon="6.05381">
        <ele>1160.45</ele>
        <time>2021-11-18T11:12:22Z</time>
      </trkpt>
      <trkpt lat="44.24675" lon="6.05383">
        <ele>1161.89</ele>
        <time>2021-11-18T11:12:33Z</time>
      </trkpt>
      <trkpt lat="44.24687" lon="6.05386">
        <ele>1163.33</ele>
        <time>2021-11-18T11:12:48Z</time>
      </trkpt>
      <trkpt lat="44.24698" lon="6.05392">
        <ele>1164.77</ele>
        <time>2021-11-18T11:13:03Z</time>
      </trkpt>
      <trkpt lat="44.24708" lon="6.05397">
        <ele>1165.74</ele>
        <time>2021-11-18T11:13:18Z</time>
      </trkpt>
      <trkpt lat="44.24719" lon="6.05399">
        <ele>1168.62</ele>
        <time>2021-11-18T11:13:33Z</time>
      </trkpt>
      <trkpt lat="44.24729" lon="6.05401">
        <ele>1169.58</ele>
        <time>2021-11-18T11:13:46Z</time>
      </trkpt>
      <trkpt lat="44.2474" lon="6.05404">
        <ele>1171.5</ele>
        <time>2021-11-18T11:14:01Z</time>
      </trkpt>
      <trkpt lat="44.24752" lon="6.05403">
        <ele>1173.43</ele>
        <time>2021-11-18T11:14:16Z</time>
      </trkpt>
      <trkpt lat="44.24764" lon="6.05397">
        <ele>1175.35</ele>
        <time>2021-11-18T11:14:31Z</time>
      </trkpt>
      <trkpt lat="44.24775" lon="6.05385">
        <ele>1176.31</ele>
        <time>2021-11-18T11:14:46Z</time>
      </trkpt>
      <trkpt lat="44.24778" lon="6.0538">
        <ele>1177.27</ele>
        <time>2021-11-18T11:14:51Z</time>
      </trkpt>
      <trkpt lat="44.24787" lon="6.05365">
        <ele>1178.23</ele>
        <time>2021-11-18T11:15:07Z</time>
      </trkpt>
      <trkpt lat="44.24793" lon="6.05351">
        <ele>1179.67</ele>
        <time>2021-11-18T11:15:21Z</time>
      </trkpt>
      <trkpt lat="44.248" lon="6.05338">
        <ele>1181.6</ele>
        <time>2021-11-18T11:15:36Z</time>
      </trkpt>
      <trkpt lat="44.24808" lon="6.05321">
        <ele>1183.52</ele>
        <time>2021-11-18T11:15:53Z</time>
      </trkpt>
      <trkpt lat="44.24816" lon="6.05305">
        <ele>1184.96</ele>
        <time>2021-11-18T11:16:08Z</time>
      </trkpt>
      <trkpt lat="44.24817" lon="6.05302">
        <ele>1185.92</ele>
        <time>2021-11-18T11:16:11Z</time>
      </trkpt>
      <trkpt lat="44.24823" lon="6.05286">
        <ele>1187.37</ele>
        <time>2021-11-18T11:16:26Z</time>
      </trkpt>
      <trkpt lat="44.24828" lon="6.05271">
        <ele>1189.29</ele>
        <time>2021-11-18T11:16:40Z</time>
      </trkpt>
      <trkpt lat="44.24833" lon="6.05258">
        <ele>1190.73</ele>
        <time>2021-11-18T11:16:54Z</time>
      </trkpt>
      <trkpt lat="44.2484" lon="6.05273">
        <ele>1192.65</ele>
        <time>2021-11-18T11:17:09Z</time>
      </trkpt>
      <trkpt lat="44.2484" lon="6.05281">
        <ele>1193.13</ele>
        <time>2021-11-18T11:17:16Z</time>
      </trkpt>
      <trkpt lat="44.24841" lon="6.05307">
        <ele>1194.58</ele>
        <time>2021-11-18T11:17:35Z</time>
      </trkpt>
      <trkpt lat="44.24841" lon="6.05326">
        <ele>1196.02</ele>
        <time>2021-11-18T11:17:49Z</time>
      </trkpt>
      <trkpt lat="44.2484" lon="6.05348">
        <ele>1197.94</ele>
        <time>2021-11-18T11:18:06Z</time>
      </trkpt>
      <trkpt lat="44.2484" lon="6.05368">
        <ele>1199.38</ele>
        <time>2021-11-18T11:18:22Z</time>
      </trkpt>
      <trkpt lat="44.2484" lon="6.05388">
        <ele>1200.82</ele>
        <time>2021-11-18T11:18:38Z</time>
      </trkpt>
      <trkpt lat="44.24841" lon="6.05412">
        <ele>1202.27</ele>
        <time>2021-11-18T11:18:56Z</time>
      </trkpt>
      <trkpt lat="44.24843" lon="6.05431">
        <ele>1203.71</ele>
        <time>2021-11-18T11:19:11Z</time>
      </trkpt>
      <trkpt lat="44.24844" lon="6.0545">
        <ele>1204.67</ele>
        <time>2021-11-18T11:19:27Z</time>
      </trkpt>
      <trkpt lat="44.24845" lon="6.05471">
        <ele>1206.59</ele>
        <time>2021-11-18T11:19:44Z</time>
      </trkpt>
      <trkpt lat="44.24846" lon="6.05484">
        <ele>1208.03</ele>
        <time>2021-11-18T11:19:54Z</time>
      </trkpt>
      <trkpt lat="44.24845" lon="6.05487">
        <ele>1208.51</ele>
        <time>2021-11-18T11:19:56Z</time>
      </trkpt>
      <trkpt lat="44.24846" lon="6.05491">
        <ele>1208.51</ele>
        <time>2021-11-18T11:19:59Z</time>
      </trkpt>
      <trkpt lat="44.24854" lon="6.05498">
        <ele>1209.96</ele>
        <time>2021-11-18T11:20:14Z</time>
      </trkpt>
      <trkpt lat="44.24854" lon="6.05497">
        <ele>1209.96</ele>
        <time>2021-11-18T11:20:15Z</time>
      </trkpt>
      <trkpt lat="44.24857" lon="6.05496">
        <ele>1210.44</ele>
        <time>2021-11-18T11:20:18Z</time>
      </trkpt>
      <trkpt lat="44.24859" lon="6.05479">
        <ele>1211.4</ele>
        <time>2021-11-18T11:20:32Z</time>
      </trkpt>
      <trkpt lat="44.24861" lon="6.0546">
        <ele>1212.84</ele>
        <time>2021-11-18T11:20:47Z</time>
      </trkpt>
      <trkpt lat="44.24864" lon="6.05442">
        <ele>1213.8</ele>
        <time>2021-11-18T11:21:01Z</time>
      </trkpt>
      <trkpt lat="44.24867" lon="6.05423">
        <ele>1215.72</ele>
        <time>2021-11-18T11:21:17Z</time>
      </trkpt>
      <trkpt lat="44.24867" lon="6.0542">
        <ele>1215.72</ele>
        <time>2021-11-18T11:21:20Z</time>
      </trkpt>
      <trkpt lat="44.24872" lon="6.05402">
        <ele>1217.65</ele>
        <time>2021-11-18T11:21:35Z</time>
      </trkpt>
      <trkpt lat="44.24877" lon="6.05387">
        <ele>1219.09</ele>
        <time>2021-11-18T11:21:49Z</time>
      </trkpt>
      <trkpt lat="44.24881" lon="6.05371">
        <ele>1220.53</ele>
        <time>2021-11-18T11:22:05Z</time>
      </trkpt>
      <trkpt lat="44.24886" lon="6.05354">
        <ele>1221.97</ele>
        <time>2021-11-18T11:22:20Z</time>
      </trkpt>
      <trkpt lat="44.24889" lon="6.05341">
        <ele>1223.42</ele>
        <time>2021-11-18T11:22:36Z</time>
      </trkpt>
      <trkpt lat="44.2489" lon="6.05333">
        <ele>1223.9</ele>
        <time>2021-11-18T11:22:49Z</time>
      </trkpt>
      <trkpt lat="44.2489" lon="6.05332">
        <ele>1223.9</ele>
        <time>2021-11-18T11:23:04Z</time>
      </trkpt>
      <trkpt lat="44.24889" lon="6.05331">
        <ele>1223.9</ele>
        <time>2021-11-18T11:23:28Z</time>
      </trkpt>
      <trkpt lat="44.24892" lon="6.05321">
        <ele>1224.38</ele>
        <time>2021-11-18T11:23:44Z</time>
      </trkpt>
      <trkpt lat="44.24894" lon="6.05308">
        <ele>1225.34</ele>
        <time>2021-11-18T11:23:58Z</time>
      </trkpt>
      <trkpt lat="44.24895" lon="6.05291">
        <ele>1226.78</ele>
        <time>2021-11-18T11:24:15Z</time>
      </trkpt>
      <trkpt lat="44.24894" lon="6.0528">
        <ele>1227.74</ele>
        <time>2021-11-18T11:24:27Z</time>
      </trkpt>
      <trkpt lat="44.24893" lon="6.05265">
        <ele>1227.74</ele>
        <time>2021-11-18T11:24:41Z</time>
      </trkpt>
      <trkpt lat="44.24892" lon="6.05263">
        <ele>1227.74</ele>
        <time>2021-11-18T11:25:00Z</time>
      </trkpt>
      <trkpt lat="44.24892" lon="6.05262">
        <ele>1228.22</ele>
        <time>2021-11-18T11:25:12Z</time>
      </trkpt>
      <trkpt lat="44.2489" lon="6.05265">
        <ele>1228.22</ele>
        <time>2021-11-18T11:25:38Z</time>
      </trkpt>
      <trkpt lat="44.24891" lon="6.05264">
        <ele>1228.22</ele>
        <time>2021-11-18T11:26:02Z</time>
      </trkpt>
      <trkpt lat="44.2489" lon="6.05261">
        <ele>1228.22</ele>
        <time>2021-11-18T11:26:22Z</time>
      </trkpt>
      <trkpt lat="44.2489" lon="6.0526">
        <ele>1228.22</ele>
        <time>2021-11-18T11:26:41Z</time>
      </trkpt>
      <trkpt lat="44.24889" lon="6.0526">
        <ele>1228.22</ele>
        <time>2021-11-18T11:27:04Z</time>
      </trkpt>
      <trkpt lat="44.24888" lon="6.05242">
        <ele>1228.22</ele>
        <time>2021-11-18T11:27:21Z</time>
      </trkpt>
      <trkpt lat="44.2489" lon="6.05231">
        <ele>1227.26</ele>
        <time>2021-11-18T11:27:43Z</time>
      </trkpt>
      <trkpt lat="44.24897" lon="6.05211">
        <ele>1226.3</ele>
        <time>2021-11-18T11:28:01Z</time>
      </trkpt>
      <trkpt lat="44.24903" lon="6.05199">
        <ele>1227.74</ele>
        <time>2021-11-18T11:28:14Z</time>
      </trkpt>
      <trkpt lat="44.2491" lon="6.05191">
        <ele>1229.66</ele>
        <time>2021-11-18T11:28:26Z</time>
      </trkpt>
      <trkpt lat="44.24917" lon="6.05183">
        <ele>1231.59</ele>
        <time>2021-11-18T11:28:39Z</time>
      </trkpt>
      <trkpt lat="44.24925" lon="6.05175">
        <ele>1232.55</ele>
        <time>2021-11-18T11:28:53Z</time>
      </trkpt>
      <trkpt lat="44.2493" lon="6.0517">
        <ele>1233.03</ele>
        <time>2021-11-18T11:29:08Z</time>
      </trkpt>
      <trkpt lat="44.24934" lon="6.05167">
        <ele>1233.03</ele>
        <time>2021-11-18T11:29:22Z</time>
      </trkpt>
      <trkpt lat="44.24933" lon="6.05165">
        <ele>1233.03</ele>
        <time>2021-11-18T11:29:44Z</time>
      </trkpt>
      <trkpt lat="44.24933" lon="6.05164">
        <ele>1233.03</ele>
        <time>2021-11-18T11:30:02Z</time>
      </trkpt>
      <trkpt lat="44.24932" lon="6.05164">
        <ele>1233.51</ele>
        <time>2021-11-18T11:30:32Z</time>
      </trkpt>
      <trkpt lat="44.24933" lon="6.05163">
        <ele>1233.03</ele>
        <time>2021-11-18T11:30:50Z</time>
      </trkpt>
      <trkpt lat="44.24931" lon="6.05166">
        <ele>1233.51</ele>
        <time>2021-11-18T11:31:07Z</time>
      </trkpt>
      <trkpt lat="44.24931" lon="6.05161">
        <ele>1233.51</ele>
        <time>2021-11-18T11:31:28Z</time>
      </trkpt>
      <trkpt lat="44.24931" lon="6.05158">
        <ele>1233.51</ele>
        <time>2021-11-18T11:31:49Z</time>
      </trkpt>
      <trkpt lat="44.24932" lon="6.05157">
        <ele>1233.51</ele>
        <time>2021-11-18T11:32:01Z</time>
      </trkpt>
      <trkpt lat="44.24937" lon="6.05156">
        <ele>1232.55</ele>
        <time>2021-11-18T11:32:14Z</time>
      </trkpt>
      <trkpt lat="44.2493" lon="6.05156">
        <ele>1233.03</ele>
        <time>2021-11-18T11:32:28Z</time>
      </trkpt>
      <trkpt lat="44.2492" lon="6.05158">
        <ele>1232.55</ele>
        <time>2021-11-18T11:32:43Z</time>
      </trkpt>
      <trkpt lat="44.24914" lon="6.05158">
        <ele>1231.59</ele>
        <time>2021-11-18T11:32:58Z</time>
      </trkpt>
      <trkpt lat="44.24914" lon="6.05157">
        <ele>1231.11</ele>
        <time>2021-11-18T11:33:08Z</time>
      </trkpt>
      <trkpt lat="44.24916" lon="6.05158">
        <ele>1231.11</ele>
        <time>2021-11-18T11:33:26Z</time>
      </trkpt>
      <trkpt lat="44.24916" lon="6.05159">
        <ele>1231.11</ele>
        <time>2021-11-18T11:33:47Z</time>
      </trkpt>
      <trkpt lat="44.24915" lon="6.05159">
        <ele>1231.11</ele>
        <time>2021-11-18T11:34:05Z</time>
      </trkpt>
      <trkpt lat="44.24915" lon="6.05158">
        <ele>1230.62</ele>
        <time>2021-11-18T11:34:14Z</time>
      </trkpt>
      <trkpt lat="44.24915" lon="6.05157">
        <ele>1230.62</ele>
        <time>2021-11-18T11:34:28Z</time>
      </trkpt>
      <trkpt lat="44.24915" lon="6.05159">
        <ele>1230.62</ele>
        <time>2021-11-18T11:34:46Z</time>
      </trkpt>
      <trkpt lat="44.24915" lon="6.0516">
        <ele>1230.62</ele>
        <time>2021-11-18T11:35:20Z</time>
      </trkpt>
      <trkpt lat="44.24915" lon="6.0516">
        <ele>1230.62</ele>
        <time>2021-11-18T11:35:57Z</time>
      </trkpt>
      <trkpt lat="44.24915" lon="6.05161">
        <ele>1231.59</ele>
        <time>2021-11-18T11:36:42Z</time>
      </trkpt>
      <trkpt lat="44.24915" lon="6.05162">
        <ele>1230.62</ele>
        <time>2021-11-18T11:37:25Z</time>
      </trkpt>
      <trkpt lat="44.24916" lon="6.05161">
        <ele>1230.62</ele>
        <time>2021-11-18T11:37:56Z</time>
      </trkpt>
      <trkpt lat="44.24915" lon="6.0516">
        <ele>1230.62</ele>
        <time>2021-11-18T11:38:29Z</time>
      </trkpt>
      <trkpt lat="44.24916" lon="6.0516">
        <ele>1230.14</ele>
        <time>2021-11-18T11:39:08Z</time>
      </trkpt>
      <trkpt lat="44.24916" lon="6.0516">
        <ele>1230.14</ele>
        <time>2021-11-18T11:39:47Z</time>
      </trkpt>
      <trkpt lat="44.24915" lon="6.0516">
        <ele>1230.14</ele>
        <time>2021-11-18T11:40:25Z</time>
      </trkpt>
      <trkpt lat="44.24915" lon="6.0516">
        <ele>1230.14</ele>
        <time>2021-11-18T11:41:08Z</time>
      </trkpt>
      <trkpt lat="44.24915" lon="6.0516">
        <ele>1230.14</ele>
        <time>2021-11-18T11:41:53Z</time>
      </trkpt>
      <trkpt lat="44.24915" lon="6.05161">
        <ele>1230.14</ele>
        <time>2021-11-18T11:42:41Z</time>
      </trkpt>
      <trkpt lat="44.24915" lon="6.05161">
        <ele>1230.14</ele>
        <time>2021-11-18T11:43:19Z</time>
      </trkpt>
      <trkpt lat="44.24916" lon="6.0516">
        <ele>1230.14</ele>
        <time>2021-11-18T11:44:02Z</time>
      </trkpt>
      <trkpt lat="44.24915" lon="6.0516">
        <ele>1230.14</ele>
        <time>2021-11-18T11:44:39Z</time>
      </trkpt>
      <trkpt lat="44.24915" lon="6.0516">
        <ele>1230.14</ele>
        <time>2021-11-18T11:45:08Z</time>
      </trkpt>
      <trkpt lat="44.24915" lon="6.0516">
        <ele>1229.66</ele>
        <time>2021-11-18T11:45:49Z</time>
      </trkpt>
      <trkpt lat="44.24916" lon="6.0516">
        <ele>1229.66</ele>
        <time>2021-11-18T11:46:31Z</time>
      </trkpt>
      <trkpt lat="44.24916" lon="6.0516">
        <ele>1229.66</ele>
        <time>2021-11-18T11:47:15Z</time>
      </trkpt>
      <trkpt lat="44.24915" lon="6.05161">
        <ele>1229.66</ele>
        <time>2021-11-18T11:47:59Z</time>
      </trkpt>
      <trkpt lat="44.24916" lon="6.0516">
        <ele>1229.66</ele>
        <time>2021-11-18T11:48:38Z</time>
      </trkpt>
      <trkpt lat="44.24915" lon="6.05161">
        <ele>1229.66</ele>
        <time>2021-11-18T11:49:20Z</time>
      </trkpt>
      <trkpt lat="44.24915" lon="6.0516">
        <ele>1229.66</ele>
        <time>2021-11-18T11:50:05Z</time>
      </trkpt>
      <trkpt lat="44.24915" lon="6.05161">
        <ele>1230.14</ele>
        <time>2021-11-18T11:50:49Z</time>
      </trkpt>
      <trkpt lat="44.24915" lon="6.05161">
        <ele>1229.66</ele>
        <time>2021-11-18T11:51:31Z</time>
      </trkpt>
      <trkpt lat="44.24915" lon="6.05161">
        <ele>1230.14</ele>
        <time>2021-11-18T11:52:12Z</time>
      </trkpt>
      <trkpt lat="44.24915" lon="6.0516">
        <ele>1229.66</ele>
        <time>2021-11-18T11:53:00Z</time>
      </trkpt>
      <trkpt lat="44.24916" lon="6.0516">
        <ele>1229.66</ele>
        <time>2021-11-18T11:53:37Z</time>
      </trkpt>
      <trkpt lat="44.24915" lon="6.05161">
        <ele>1229.66</ele>
        <time>2021-11-18T11:54:23Z</time>
      </trkpt>
      <trkpt lat="44.24915" lon="6.0516">
        <ele>1229.66</ele>
        <time>2021-11-18T11:55:06Z</time>
      </trkpt>
      <trkpt lat="44.24915" lon="6.0516">
        <ele>1230.14</ele>
        <time>2021-11-18T11:55:46Z</time>
      </trkpt>
      <trkpt lat="44.24915" lon="6.05161">
        <ele>1229.66</ele>
        <time>2021-11-18T11:56:32Z</time>
      </trkpt>
      <trkpt lat="44.24914" lon="6.0516">
        <ele>1230.14</ele>
        <time>2021-11-18T11:57:11Z</time>
      </trkpt>
      <trkpt lat="44.24915" lon="6.0516">
        <ele>1229.66</ele>
        <time>2021-11-18T11:57:49Z</time>
      </trkpt>
      <trkpt lat="44.24914" lon="6.0516">
        <ele>1229.66</ele>
        <time>2021-11-18T11:58:26Z</time>
      </trkpt>
      <trkpt lat="44.24914" lon="6.0516">
        <ele>1229.66</ele>
        <time>2021-11-18T11:59:04Z</time>
      </trkpt>
      <trkpt lat="44.24915" lon="6.0516">
        <ele>1229.66</ele>
        <time>2021-11-18T11:59:44Z</time>
      </trkpt>
      <trkpt lat="44.24915" lon="6.05161">
        <ele>1229.66</ele>
        <time>2021-11-18T12:00:21Z</time>
      </trkpt>
      <trkpt lat="44.24915" lon="6.05161">
        <ele>1229.66</ele>
        <time>2021-11-18T12:01:00Z</time>
      </trkpt>
      <trkpt lat="44.24914" lon="6.05161">
        <ele>1229.18</ele>
        <time>2021-11-18T12:01:43Z</time>
      </trkpt>
      <trkpt lat="44.24914" lon="6.05161">
        <ele>1229.18</ele>
        <time>2021-11-18T12:02:21Z</time>
      </trkpt>
      <trkpt lat="44.24915" lon="6.05161">
        <ele>1229.18</ele>
        <time>2021-11-18T12:03:03Z</time>
      </trkpt>
      <trkpt lat="44.24915" lon="6.05161">
        <ele>1229.18</ele>
        <time>2021-11-18T12:03:39Z</time>
      </trkpt>
      <trkpt lat="44.24915" lon="6.05161">
        <ele>1229.18</ele>
        <time>2021-11-18T12:04:13Z</time>
      </trkpt>
      <trkpt lat="44.24914" lon="6.05161">
        <ele>1229.18</ele>
        <time>2021-11-18T12:04:44Z</time>
      </trkpt>
      <trkpt lat="44.24915" lon="6.05161">
        <ele>1229.18</ele>
        <time>2021-11-18T12:05:23Z</time>
      </trkpt>
      <trkpt lat="44.24915" lon="6.05161">
        <ele>1228.7</ele>
        <time>2021-11-18T12:06:01Z</time>
      </trkpt>
      <trkpt lat="44.24915" lon="6.05161">
        <ele>1228.7</ele>
        <time>2021-11-18T12:06:35Z</time>
      </trkpt>
      <trkpt lat="44.24914" lon="6.05162">
        <ele>1228.7</ele>
        <time>2021-11-18T12:07:11Z</time>
      </trkpt>
      <trkpt lat="44.24915" lon="6.05161">
        <ele>1228.7</ele>
        <time>2021-11-18T12:07:48Z</time>
      </trkpt>
      <trkpt lat="44.24914" lon="6.05161">
        <ele>1228.7</ele>
        <time>2021-11-18T12:08:33Z</time>
      </trkpt>
      <trkpt lat="44.24914" lon="6.05161">
        <ele>1228.7</ele>
        <time>2021-11-18T12:09:11Z</time>
      </trkpt>
      <trkpt lat="44.24915" lon="6.05161">
        <ele>1228.7</ele>
        <time>2021-11-18T12:09:45Z</time>
      </trkpt>
      <trkpt lat="44.24914" lon="6.05161">
        <ele>1228.7</ele>
        <time>2021-11-18T12:10:28Z</time>
      </trkpt>
      <trkpt lat="44.24915" lon="6.0516">
        <ele>1228.7</ele>
        <time>2021-11-18T12:11:08Z</time>
      </trkpt>
      <trkpt lat="44.24914" lon="6.0516">
        <ele>1228.7</ele>
        <time>2021-11-18T12:11:41Z</time>
      </trkpt>
      <trkpt lat="44.24914" lon="6.05162">
        <ele>1228.7</ele>
        <time>2021-11-18T12:12:17Z</time>
      </trkpt>
      <trkpt lat="44.24914" lon="6.0516">
        <ele>1228.7</ele>
        <time>2021-11-18T12:12:55Z</time>
      </trkpt>
      <trkpt lat="44.24915" lon="6.05161">
        <ele>1228.7</ele>
        <time>2021-11-18T12:13:27Z</time>
      </trkpt>
      <trkpt lat="44.24915" lon="6.05161">
        <ele>1228.22</ele>
        <time>2021-11-18T12:14:12Z</time>
      </trkpt>
      <trkpt lat="44.24915" lon="6.05161">
        <ele>1228.7</ele>
        <time>2021-11-18T12:14:52Z</time>
      </trkpt>
      <trkpt lat="44.24916" lon="6.05162">
        <ele>1228.7</ele>
        <time>2021-11-18T12:15:31Z</time>
      </trkpt>
      <trkpt lat="44.24916" lon="6.05161">
        <ele>1228.7</ele>
        <time>2021-11-18T12:16:07Z</time>
      </trkpt>
      <trkpt lat="44.24915" lon="6.05161">
        <ele>1228.7</ele>
        <time>2021-11-18T12:16:51Z</time>
      </trkpt>
      <trkpt lat="44.24915" lon="6.05161">
        <ele>1228.22</ele>
        <time>2021-11-18T12:17:26Z</time>
      </trkpt>
      <trkpt lat="44.24916" lon="6.05161">
        <ele>1228.7</ele>
        <time>2021-11-18T12:18:05Z</time>
      </trkpt>
      <trkpt lat="44.24915" lon="6.05161">
        <ele>1228.7</ele>
        <time>2021-11-18T12:18:47Z</time>
      </trkpt>
      <trkpt lat="44.24916" lon="6.05161">
        <ele>1229.18</ele>
        <time>2021-11-18T12:19:32Z</time>
      </trkpt>
      <trkpt lat="44.24916" lon="6.05161">
        <ele>1228.7</ele>
        <time>2021-11-18T12:20:08Z</time>
      </trkpt>
      <trkpt lat="44.24916" lon="6.05161">
        <ele>1228.7</ele>
        <time>2021-11-18T12:20:42Z</time>
      </trkpt>
      <trkpt lat="44.24916" lon="6.05161">
        <ele>1228.7</ele>
        <time>2021-11-18T12:21:15Z</time>
      </trkpt>
      <trkpt lat="44.24915" lon="6.05161">
        <ele>1228.22</ele>
        <time>2021-11-18T12:21:59Z</time>
      </trkpt>
      <trkpt lat="44.24915" lon="6.0516">
        <ele>1228.7</ele>
        <time>2021-11-18T12:22:31Z</time>
      </trkpt>
      <trkpt lat="44.24915" lon="6.05161">
        <ele>1228.7</ele>
        <time>2021-11-18T12:23:05Z</time>
      </trkpt>
      <trkpt lat="44.24915" lon="6.05161">
        <ele>1229.66</ele>
        <time>2021-11-18T12:23:34Z</time>
      </trkpt>
      <trkpt lat="44.24915" lon="6.05161">
        <ele>1228.7</ele>
        <time>2021-11-18T12:24:10Z</time>
      </trkpt>
      <trkpt lat="44.24915" lon="6.05161">
        <ele>1228.22</ele>
        <time>2021-11-18T12:24:45Z</time>
      </trkpt>
      <trkpt lat="44.24915" lon="6.05161">
        <ele>1228.22</ele>
        <time>2021-11-18T12:25:21Z</time>
      </trkpt>
      <trkpt lat="44.24915" lon="6.05161">
        <ele>1228.7</ele>
        <time>2021-11-18T12:25:59Z</time>
      </trkpt>
      <trkpt lat="44.24915" lon="6.05161">
        <ele>1228.22</ele>
        <time>2021-11-18T12:26:35Z</time>
      </trkpt>
      <trkpt lat="44.24916" lon="6.05161">
        <ele>1228.22</ele>
        <time>2021-11-18T12:27:10Z</time>
      </trkpt>
      <trkpt lat="44.24915" lon="6.05161">
        <ele>1228.22</ele>
        <time>2021-11-18T12:27:44Z</time>
      </trkpt>
      <trkpt lat="44.24916" lon="6.05161">
        <ele>1228.22</ele>
        <time>2021-11-18T12:28:19Z</time>
      </trkpt>
      <trkpt lat="44.24915" lon="6.05161">
        <ele>1228.22</ele>
        <time>2021-11-18T12:28:47Z</time>
      </trkpt>
      <trkpt lat="44.24915" lon="6.05161">
        <ele>1228.22</ele>
        <time>2021-11-18T12:29:18Z</time>
      </trkpt>
      <trkpt lat="44.24915" lon="6.0516">
        <ele>1228.22</ele>
        <time>2021-11-18T12:29:52Z</time>
      </trkpt>
      <trkpt lat="44.24916" lon="6.05161">
        <ele>1228.22</ele>
        <time>2021-11-18T12:30:29Z</time>
      </trkpt>
      <trkpt lat="44.24915" lon="6.0516">
        <ele>1228.22</ele>
        <time>2021-11-18T12:30:52Z</time>
      </trkpt>
      <trkpt lat="44.24915" lon="6.05161">
        <ele>1228.22</ele>
        <time>2021-11-18T12:31:35Z</time>
      </trkpt>
      <trkpt lat="44.24915" lon="6.05161">
        <ele>1228.22</ele>
        <time>2021-11-18T12:32:13Z</time>
      </trkpt>
      <trkpt lat="44.24915" lon="6.05161">
        <ele>1228.22</ele>
        <time>2021-11-18T12:32:50Z</time>
      </trkpt>
      <trkpt lat="44.24915" lon="6.0516">
        <ele>1228.22</ele>
        <time>2021-11-18T12:33:22Z</time>
      </trkpt>
      <trkpt lat="44.24915" lon="6.05161">
        <ele>1228.22</ele>
        <time>2021-11-18T12:33:55Z</time>
      </trkpt>
      <trkpt lat="44.24915" lon="6.05161">
        <ele>1228.22</ele>
        <time>2021-11-18T12:34:25Z</time>
      </trkpt>
      <trkpt lat="44.24915" lon="6.0516">
        <ele>1228.22</ele>
        <time>2021-11-18T12:35:02Z</time>
      </trkpt>
      <trkpt lat="44.24915" lon="6.05161">
        <ele>1228.22</ele>
        <time>2021-11-18T12:35:37Z</time>
      </trkpt>
      <trkpt lat="44.24916" lon="6.05161">
        <ele>1228.22</ele>
        <time>2021-11-18T12:36:08Z</time>
      </trkpt>
      <trkpt lat="44.24915" lon="6.05161">
        <ele>1228.22</ele>
        <time>2021-11-18T12:36:39Z</time>
      </trkpt>
      <trkpt lat="44.24915" lon="6.0516">
        <ele>1228.7</ele>
        <time>2021-11-18T12:37:02Z</time>
      </trkpt>
      <trkpt lat="44.24915" lon="6.05161">
        <ele>1228.7</ele>
        <time>2021-11-18T12:37:32Z</time>
      </trkpt>
      <trkpt lat="44.24915" lon="6.05161">
        <ele>1228.22</ele>
        <time>2021-11-18T12:38:12Z</time>
      </trkpt>
      <trkpt lat="44.24915" lon="6.05161">
        <ele>1228.7</ele>
        <time>2021-11-18T12:38:50Z</time>
      </trkpt>
      <trkpt lat="44.24916" lon="6.05161">
        <ele>1228.7</ele>
        <time>2021-11-18T12:39:30Z</time>
      </trkpt>
      <trkpt lat="44.24915" lon="6.0516">
        <ele>1228.22</ele>
        <time>2021-11-18T12:40:09Z</time>
      </trkpt>
      <trkpt lat="44.24915" lon="6.05161">
        <ele>1228.22</ele>
        <time>2021-11-18T12:40:47Z</time>
      </trkpt>
      <trkpt lat="44.24913" lon="6.05158">
        <ele>1228.22</ele>
        <time>2021-11-18T12:41:11Z</time>
      </trkpt>
      <trkpt lat="44.24914" lon="6.05154">
        <ele>1228.7</ele>
        <time>2021-11-18T12:41:45Z</time>
      </trkpt>
      <trkpt lat="44.24914" lon="6.05155">
        <ele>1228.7</ele>
        <time>2021-11-18T12:42:09Z</time>
      </trkpt>
      <trkpt lat="44.24913" lon="6.05157">
        <ele>1228.7</ele>
        <time>2021-11-18T12:42:38Z</time>
      </trkpt>
      <trkpt lat="44.24914" lon="6.05159">
        <ele>1228.7</ele>
        <time>2021-11-18T12:42:59Z</time>
      </trkpt>
      <trkpt lat="44.24915" lon="6.05157">
        <ele>1228.7</ele>
        <time>2021-11-18T12:43:22Z</time>
      </trkpt>
      <trkpt lat="44.24914" lon="6.05157">
        <ele>1228.7</ele>
        <time>2021-11-18T12:43:57Z</time>
      </trkpt>
      <trkpt lat="44.24914" lon="6.05157">
        <ele>1228.7</ele>
        <time>2021-11-18T12:44:23Z</time>
      </trkpt>
      <trkpt lat="44.24914" lon="6.05157">
        <ele>1228.7</ele>
        <time>2021-11-18T12:44:55Z</time>
      </trkpt>
      <trkpt lat="44.24914" lon="6.05157">
        <ele>1228.7</ele>
        <time>2021-11-18T12:45:23Z</time>
      </trkpt>
      <trkpt lat="44.24914" lon="6.05156">
        <ele>1228.7</ele>
        <time>2021-11-18T12:45:51Z</time>
      </trkpt>
      <trkpt lat="44.24914" lon="6.05158">
        <ele>1228.7</ele>
        <time>2021-11-18T12:46:22Z</time>
      </trkpt>
      <trkpt lat="44.24914" lon="6.05157">
        <ele>1228.7</ele>
        <time>2021-11-18T12:46:47Z</time>
      </trkpt>
      <trkpt lat="44.24914" lon="6.05157">
        <ele>1228.7</ele>
        <time>2021-11-18T12:47:18Z</time>
      </trkpt>
      <trkpt lat="44.24914" lon="6.05156">
        <ele>1228.22</ele>
        <time>2021-11-18T12:47:55Z</time>
      </trkpt>
      <trkpt lat="44.24914" lon="6.05157">
        <ele>1228.22</ele>
        <time>2021-11-18T12:48:17Z</time>
      </trkpt>
      <trkpt lat="44.24915" lon="6.05156">
        <ele>1228.22</ele>
        <time>2021-11-18T12:48:46Z</time>
      </trkpt>
      <trkpt lat="44.24915" lon="6.05156">
        <ele>1228.22</ele>
        <time>2021-11-18T12:49:15Z</time>
      </trkpt>
      <trkpt lat="44.24915" lon="6.05156">
        <ele>1228.22</ele>
        <time>2021-11-18T12:49:46Z</time>
      </trkpt>
      <trkpt lat="44.24914" lon="6.05157">
        <ele>1228.22</ele>
        <time>2021-11-18T12:50:19Z</time>
      </trkpt>
      <trkpt lat="44.24914" lon="6.05158">
        <ele>1228.22</ele>
        <time>2021-11-18T12:50:45Z</time>
      </trkpt>
      <trkpt lat="44.24914" lon="6.05157">
        <ele>1228.22</ele>
        <time>2021-11-18T12:51:11Z</time>
      </trkpt>
      <trkpt lat="44.24914" lon="6.05157">
        <ele>1228.22</ele>
        <time>2021-11-18T12:51:47Z</time>
      </trkpt>
      <trkpt lat="44.24914" lon="6.05157">
        <ele>1227.74</ele>
        <time>2021-11-18T12:52:12Z</time>
      </trkpt>
      <trkpt lat="44.24913" lon="6.05158">
        <ele>1228.7</ele>
        <time>2021-11-18T12:52:28Z</time>
      </trkpt>
      <trkpt lat="44.24915" lon="6.05158">
        <ele>1228.7</ele>
        <time>2021-11-18T12:52:41Z</time>
      </trkpt>
      <trkpt lat="44.24908" lon="6.05149">
        <ele>1226.3</ele>
        <time>2021-11-18T12:52:54Z</time>
      </trkpt>
      <trkpt lat="44.24907" lon="6.05148">
        <ele>1230.14</ele>
        <time>2021-11-18T12:52:56Z</time>
      </trkpt>
      <trkpt lat="44.24907" lon="6.05147">
        <ele>1229.18</ele>
        <time>2021-11-18T12:52:57Z</time>
      </trkpt>
      <trkpt lat="44.24907" lon="6.05146">
        <ele>1228.22</ele>
        <time>2021-11-18T12:52:59Z</time>
      </trkpt>
      <trkpt lat="44.24903" lon="6.05139">
        <ele>1227.26</ele>
        <time>2021-11-18T12:53:11Z</time>
      </trkpt>
      <trkpt lat="44.24899" lon="6.05132">
        <ele>1226.78</ele>
        <time>2021-11-18T12:53:23Z</time>
      </trkpt>
      <trkpt lat="44.24896" lon="6.05124">
        <ele>1225.34</ele>
        <time>2021-11-18T12:53:29Z</time>
      </trkpt>
      <trkpt lat="44.24894" lon="6.05119">
        <ele>1226.3</ele>
        <time>2021-11-18T12:53:34Z</time>
      </trkpt>
      <trkpt lat="44.2489" lon="6.05115">
        <ele>1224.38</ele>
        <time>2021-11-18T12:53:41Z</time>
      </trkpt>
      <trkpt lat="44.24884" lon="6.05109">
        <ele>1222.93</ele>
        <time>2021-11-18T12:53:54Z</time>
      </trkpt>
      <trkpt lat="44.24886" lon="6.05101">
        <ele>1221.97</ele>
        <time>2021-11-18T12:54:03Z</time>
      </trkpt>
      <trkpt lat="44.24895" lon="6.0509">
        <ele>1222.45</ele>
        <time>2021-11-18T12:54:19Z</time>
      </trkpt>
      <trkpt lat="44.24896" lon="6.0509">
        <ele>1221.97</ele>
        <time>2021-11-18T12:54:33Z</time>
      </trkpt>
      <trkpt lat="44.24897" lon="6.0509">
        <ele>1221.97</ele>
        <time>2021-11-18T12:54:50Z</time>
      </trkpt>
      <trkpt lat="44.24895" lon="6.0509">
        <ele>1222.45</ele>
        <time>2021-11-18T12:55:05Z</time>
      </trkpt>
      <trkpt lat="44.24895" lon="6.05089">
        <ele>1221.97</ele>
        <time>2021-11-18T12:55:24Z</time>
      </trkpt>
      <trkpt lat="44.24897" lon="6.05087">
        <ele>1221.97</ele>
        <time>2021-11-18T12:55:39Z</time>
      </trkpt>
      <trkpt lat="44.24898" lon="6.05088">
        <ele>1221.97</ele>
        <time>2021-11-18T12:56:01Z</time>
      </trkpt>
      <trkpt lat="44.24899" lon="6.05087">
        <ele>1221.97</ele>
        <time>2021-11-18T12:56:20Z</time>
      </trkpt>
      <trkpt lat="44.24903" lon="6.05086">
        <ele>1217.65</ele>
        <time>2021-11-18T12:56:35Z</time>
      </trkpt>
      <trkpt lat="44.24904" lon="6.05086">
        <ele>1223.42</ele>
        <time>2021-11-18T12:56:36Z</time>
      </trkpt>
      <trkpt lat="44.24908" lon="6.05084">
        <ele>1221.97</ele>
        <time>2021-11-18T12:56:39Z</time>
      </trkpt>
      <trkpt lat="44.24924" lon="6.05082">
        <ele>1220.05</ele>
        <time>2021-11-18T12:56:56Z</time>
      </trkpt>
      <trkpt lat="44.24938" lon="6.05084">
        <ele>1219.57</ele>
        <time>2021-11-18T12:57:10Z</time>
      </trkpt>
      <trkpt lat="44.24951" lon="6.0509">
        <ele>1217.65</ele>
        <time>2021-11-18T12:57:23Z</time>
      </trkpt>
      <trkpt lat="44.24965" lon="6.05102">
        <ele>1215.24</ele>
        <time>2021-11-18T12:57:39Z</time>
      </trkpt>
      <trkpt lat="44.24974" lon="6.05125">
        <ele>1213.32</ele>
        <time>2021-11-18T12:57:58Z</time>
      </trkpt>
      <trkpt lat="44.24974" lon="6.05138">
        <ele>1211.88</ele>
        <time>2021-11-18T12:58:07Z</time>
      </trkpt>
      <trkpt lat="44.24974" lon="6.05142">
        <ele>1211.4</ele>
        <time>2021-11-18T12:58:10Z</time>
      </trkpt>
      <trkpt lat="44.24976" lon="6.05143">
        <ele>1210.92</ele>
        <time>2021-11-18T12:58:12Z</time>
      </trkpt>
      <trkpt lat="44.24984" lon="6.05161">
        <ele>1209.48</ele>
        <time>2021-11-18T12:58:26Z</time>
      </trkpt>
      <trkpt lat="44.24997" lon="6.05166">
        <ele>1206.11</ele>
        <time>2021-11-18T12:58:40Z</time>
      </trkpt>
      <trkpt lat="44.25016" lon="6.05167">
        <ele>1204.67</ele>
        <time>2021-11-18T12:58:59Z</time>
      </trkpt>
      <trkpt lat="44.25034" lon="6.05169">
        <ele>1201.79</ele>
        <time>2021-11-18T12:59:17Z</time>
      </trkpt>
      <trkpt lat="44.25053" lon="6.05168">
        <ele>1199.86</ele>
        <time>2021-11-18T12:59:35Z</time>
      </trkpt>
      <trkpt lat="44.25072" lon="6.05169">
        <ele>1196.5</ele>
        <time>2021-11-18T12:59:52Z</time>
      </trkpt>
      <trkpt lat="44.25087" lon="6.05174">
        <ele>1193.61</ele>
        <time>2021-11-18T13:00:08Z</time>
      </trkpt>
      <trkpt lat="44.25097" lon="6.05177">
        <ele>1193.13</ele>
        <time>2021-11-18T13:00:22Z</time>
      </trkpt>
      <trkpt lat="44.25117" lon="6.0518">
        <ele>1191.21</ele>
        <time>2021-11-18T13:00:40Z</time>
      </trkpt>
      <trkpt lat="44.25136" lon="6.05182">
        <ele>1188.33</ele>
        <time>2021-11-18T13:00:58Z</time>
      </trkpt>
      <trkpt lat="44.25153" lon="6.05197">
        <ele>1186.88</ele>
        <time>2021-11-18T13:01:18Z</time>
      </trkpt>
      <trkpt lat="44.25155" lon="6.052">
        <ele>1184.96</ele>
        <time>2021-11-18T13:01:21Z</time>
      </trkpt>
      <trkpt lat="44.25158" lon="6.05206">
        <ele>1183.52</ele>
        <time>2021-11-18T13:01:25Z</time>
      </trkpt>
      <trkpt lat="44.2516" lon="6.05211">
        <ele>1182.56</ele>
        <time>2021-11-18T13:01:31Z</time>
      </trkpt>
      <trkpt lat="44.25168" lon="6.05232">
        <ele>1180.16</ele>
        <time>2021-11-18T13:01:45Z</time>
      </trkpt>
      <trkpt lat="44.25175" lon="6.0525">
        <ele>1177.75</ele>
        <time>2021-11-18T13:01:58Z</time>
      </trkpt>
      <trkpt lat="44.25177" lon="6.05251">
        <ele>1177.27</ele>
        <time>2021-11-18T13:02:01Z</time>
      </trkpt>
      <trkpt lat="44.25183" lon="6.05264">
        <ele>1176.31</ele>
        <time>2021-11-18T13:02:12Z</time>
      </trkpt>
      <trkpt lat="44.25192" lon="6.05279">
        <ele>1174.39</ele>
        <time>2021-11-18T13:02:26Z</time>
      </trkpt>
      <trkpt lat="44.25196" lon="6.05288">
        <ele>1172.95</ele>
        <time>2021-11-18T13:02:34Z</time>
      </trkpt>
      <trkpt lat="44.252" lon="6.05295">
        <ele>1172.47</ele>
        <time>2021-11-18T13:02:40Z</time>
      </trkpt>
      <trkpt lat="44.25206" lon="6.05302">
        <ele>1171.5</ele>
        <time>2021-11-18T13:02:45Z</time>
      </trkpt>
      <trkpt lat="44.25212" lon="6.0532">
        <ele>1169.58</ele>
        <time>2021-11-18T13:02:59Z</time>
      </trkpt>
      <trkpt lat="44.25218" lon="6.05336">
        <ele>1168.14</ele>
        <time>2021-11-18T13:03:13Z</time>
      </trkpt>
      <trkpt lat="44.25219" lon="6.05335">
        <ele>1167.66</ele>
        <time>2021-11-18T13:03:14Z</time>
      </trkpt>
      <trkpt lat="44.25227" lon="6.05333">
        <ele>1167.18</ele>
        <time>2021-11-18T13:03:20Z</time>
      </trkpt>
      <trkpt lat="44.25228" lon="6.05321">
        <ele>1166.22</ele>
        <time>2021-11-18T13:03:29Z</time>
      </trkpt>
      <trkpt lat="44.25225" lon="6.05311">
        <ele>1165.74</ele>
        <time>2021-11-18T13:03:37Z</time>
      </trkpt>
      <trkpt lat="44.25225" lon="6.0529">
        <ele>1164.29</ele>
        <time>2021-11-18T13:03:49Z</time>
      </trkpt>
      <trkpt lat="44.25224" lon="6.05281">
        <ele>1163.33</ele>
        <time>2021-11-18T13:03:56Z</time>
      </trkpt>
      <trkpt lat="44.25222" lon="6.05276">
        <ele>1162.85</ele>
        <time>2021-11-18T13:04:01Z</time>
      </trkpt>
      <trkpt lat="44.25216" lon="6.05267">
        <ele>1161.89</ele>
        <time>2021-11-18T13:04:08Z</time>
      </trkpt>
      <trkpt lat="44.25209" lon="6.0525">
        <ele>1160.45</ele>
        <time>2021-11-18T13:04:21Z</time>
      </trkpt>
      <trkpt lat="44.25214" lon="6.05237">
        <ele>1158.05</ele>
        <time>2021-11-18T13:04:37Z</time>
      </trkpt>
      <trkpt lat="44.2522" lon="6.05258">
        <ele>1157.08</ele>
        <time>2021-11-18T13:04:53Z</time>
      </trkpt>
      <trkpt lat="44.2523" lon="6.05264">
        <ele>1156.6</ele>
        <time>2021-11-18T13:05:04Z</time>
      </trkpt>
      <trkpt lat="44.25236" lon="6.05269">
        <ele>1155.64</ele>
        <time>2021-11-18T13:05:10Z</time>
      </trkpt>
      <trkpt lat="44.25242" lon="6.05288">
        <ele>1153.72</ele>
        <time>2021-11-18T13:05:26Z</time>
      </trkpt>
      <trkpt lat="44.2525" lon="6.05308">
        <ele>1151.8</ele>
        <time>2021-11-18T13:05:41Z</time>
      </trkpt>
      <trkpt lat="44.25255" lon="6.05314">
        <ele>1150.84</ele>
        <time>2021-11-18T13:05:48Z</time>
      </trkpt>
      <trkpt lat="44.25257" lon="6.05317">
        <ele>1150.84</ele>
        <time>2021-11-18T13:05:52Z</time>
      </trkpt>
      <trkpt lat="44.25266" lon="6.05327">
        <ele>1149.39</ele>
        <time>2021-11-18T13:06:02Z</time>
      </trkpt>
      <trkpt lat="44.25274" lon="6.05341">
        <ele>1147.95</ele>
        <time>2021-11-18T13:06:12Z</time>
      </trkpt>
      <trkpt lat="44.25284" lon="6.0536">
        <ele>1146.03</ele>
        <time>2021-11-18T13:06:27Z</time>
      </trkpt>
      <trkpt lat="44.25288" lon="6.05364">
        <ele>1146.03</ele>
        <time>2021-11-18T13:06:32Z</time>
      </trkpt>
      <trkpt lat="44.25296" lon="6.05378">
        <ele>1144.59</ele>
        <time>2021-11-18T13:06:46Z</time>
      </trkpt>
      <trkpt lat="44.25305" lon="6.05398">
        <ele>1143.14</ele>
        <time>2021-11-18T13:07:02Z</time>
      </trkpt>
      <trkpt lat="44.25313" lon="6.05414">
        <ele>1141.7</ele>
        <time>2021-11-18T13:07:15Z</time>
      </trkpt>
      <trkpt lat="44.25316" lon="6.05422">
        <ele>1141.22</ele>
        <time>2021-11-18T13:07:21Z</time>
      </trkpt>
      <trkpt lat="44.25324" lon="6.05439">
        <ele>1139.3</ele>
        <time>2021-11-18T13:07:34Z</time>
      </trkpt>
      <trkpt lat="44.2533" lon="6.05456">
        <ele>1136.9</ele>
        <time>2021-11-18T13:07:48Z</time>
      </trkpt>
      <trkpt lat="44.25331" lon="6.05461">
        <ele>1136.42</ele>
        <time>2021-11-18T13:07:53Z</time>
      </trkpt>
      <trkpt lat="44.2533" lon="6.05479">
        <ele>1136.42</ele>
        <time>2021-11-18T13:08:05Z</time>
      </trkpt>
      <trkpt lat="44.2533" lon="6.05497">
        <ele>1136.42</ele>
        <time>2021-11-18T13:08:17Z</time>
      </trkpt>
      <trkpt lat="44.25329" lon="6.05514">
        <ele>1135.94</ele>
        <time>2021-11-18T13:08:27Z</time>
      </trkpt>
      <trkpt lat="44.25333" lon="6.05538">
        <ele>1135.45</ele>
        <time>2021-11-18T13:08:43Z</time>
      </trkpt>
      <trkpt lat="44.25346" lon="6.05532">
        <ele>1134.49</ele>
        <time>2021-11-18T13:08:58Z</time>
      </trkpt>
      <trkpt lat="44.25363" lon="6.05517">
        <ele>1133.53</ele>
        <time>2021-11-18T13:09:18Z</time>
      </trkpt>
      <trkpt lat="44.25381" lon="6.05504">
        <ele>1130.65</ele>
        <time>2021-11-18T13:09:37Z</time>
      </trkpt>
      <trkpt lat="44.25383" lon="6.05498">
        <ele>1129.69</ele>
        <time>2021-11-18T13:09:43Z</time>
      </trkpt>
      <trkpt lat="44.2539" lon="6.05467">
        <ele>1126.8</ele>
        <time>2021-11-18T13:10:05Z</time>
      </trkpt>
      <trkpt lat="44.25389" lon="6.05436">
        <ele>1124.4</ele>
        <time>2021-11-18T13:10:26Z</time>
      </trkpt>
      <trkpt lat="44.25393" lon="6.05409">
        <ele>1121.03</ele>
        <time>2021-11-18T13:10:43Z</time>
      </trkpt>
      <trkpt lat="44.25401" lon="6.05393">
        <ele>1119.59</ele>
        <time>2021-11-18T13:10:55Z</time>
      </trkpt>
      <trkpt lat="44.25417" lon="6.05375">
        <ele>1116.23</ele>
        <time>2021-11-18T13:11:14Z</time>
      </trkpt>
      <trkpt lat="44.25434" lon="6.05374">
        <ele>1113.34</ele>
        <time>2021-11-18T13:11:30Z</time>
      </trkpt>
      <trkpt lat="44.25451" lon="6.05374">
        <ele>1109.02</ele>
        <time>2021-11-18T13:11:46Z</time>
      </trkpt>
      <trkpt lat="44.25471" lon="6.05372">
        <ele>1106.13</ele>
        <time>2021-11-18T13:12:04Z</time>
      </trkpt>
      <trkpt lat="44.2549" lon="6.05368">
        <ele>1103.25</ele>
        <time>2021-11-18T13:12:22Z</time>
      </trkpt>
      <trkpt lat="44.25513" lon="6.05364">
        <ele>1100.37</ele>
        <time>2021-11-18T13:12:43Z</time>
      </trkpt>
      <trkpt lat="44.2552" lon="6.05364">
        <ele>1099.4</ele>
        <time>2021-11-18T13:12:51Z</time>
      </trkpt>
      <trkpt lat="44.25536" lon="6.05355">
        <ele>1097</ele>
        <time>2021-11-18T13:13:08Z</time>
      </trkpt>
      <trkpt lat="44.25554" lon="6.05345">
        <ele>1094.12</ele>
        <time>2021-11-18T13:13:26Z</time>
      </trkpt>
      <trkpt lat="44.25572" lon="6.05338">
        <ele>1091.23</ele>
        <time>2021-11-18T13:13:44Z</time>
      </trkpt>
      <trkpt lat="44.25585" lon="6.05329">
        <ele>1089.31</ele>
        <time>2021-11-18T13:13:59Z</time>
      </trkpt>
      <trkpt lat="44.25606" lon="6.05315">
        <ele>1086.43</ele>
        <time>2021-11-18T13:14:19Z</time>
      </trkpt>
      <trkpt lat="44.25625" lon="6.05303">
        <ele>1084.02</ele>
        <time>2021-11-18T13:14:36Z</time>
      </trkpt>
      <trkpt lat="44.25624" lon="6.05295">
        <ele>1083.06</ele>
        <time>2021-11-18T13:14:44Z</time>
      </trkpt>
      <trkpt lat="44.25608" lon="6.053">
        <ele>1081.62</ele>
        <time>2021-11-18T13:15:01Z</time>
      </trkpt>
      <trkpt lat="44.25594" lon="6.05301">
        <ele>1079.7</ele>
        <time>2021-11-18T13:15:17Z</time>
      </trkpt>
      <trkpt lat="44.25582" lon="6.05301">
        <ele>1078.26</ele>
        <time>2021-11-18T13:15:28Z</time>
      </trkpt>
      <trkpt lat="44.25575" lon="6.05299">
        <ele>1077.29</ele>
        <time>2021-11-18T13:15:35Z</time>
      </trkpt>
      <trkpt lat="44.25553" lon="6.05289">
        <ele>1076.81</ele>
        <time>2021-11-18T13:15:53Z</time>
      </trkpt>
      <trkpt lat="44.25535" lon="6.05279">
        <ele>1074.89</ele>
        <time>2021-11-18T13:16:11Z</time>
      </trkpt>
      <trkpt lat="44.25519" lon="6.05262">
        <ele>1072.01</ele>
        <time>2021-11-18T13:16:31Z</time>
      </trkpt>
      <trkpt lat="44.25506" lon="6.05241">
        <ele>1070.57</ele>
        <time>2021-11-18T13:16:49Z</time>
      </trkpt>
      <trkpt lat="44.25494" lon="6.05219">
        <ele>1068.64</ele>
        <time>2021-11-18T13:17:06Z</time>
      </trkpt>
      <trkpt lat="44.25477" lon="6.05195">
        <ele>1067.68</ele>
        <time>2021-11-18T13:17:27Z</time>
      </trkpt>
      <trkpt lat="44.25461" lon="6.05191">
        <ele>1066.72</ele>
        <time>2021-11-18T13:17:41Z</time>
      </trkpt>
      <trkpt lat="44.25458" lon="6.05182">
        <ele>1065.76</ele>
        <time>2021-11-18T13:17:50Z</time>
      </trkpt>
      <trkpt lat="44.2546" lon="6.05177">
        <ele>1065.28</ele>
        <time>2021-11-18T13:17:53Z</time>
      </trkpt>
      <trkpt lat="44.25478" lon="6.05168">
        <ele>1061.43</ele>
        <time>2021-11-18T13:18:09Z</time>
      </trkpt>
      <trkpt lat="44.25494" lon="6.05163">
        <ele>1058.07</ele>
        <time>2021-11-18T13:18:21Z</time>
      </trkpt>
      <trkpt lat="44.25496" lon="6.0516">
        <ele>1058.07</ele>
        <time>2021-11-18T13:18:23Z</time>
      </trkpt>
      <trkpt lat="44.25496" lon="6.05153">
        <ele>1058.07</ele>
        <time>2021-11-18T13:18:27Z</time>
      </trkpt>
      <trkpt lat="44.25484" lon="6.05142">
        <ele>1055.18</ele>
        <time>2021-11-18T13:18:39Z</time>
      </trkpt>
      <trkpt lat="44.25475" lon="6.05137">
        <ele>1051.34</ele>
        <time>2021-11-18T13:18:49Z</time>
      </trkpt>
      <trkpt lat="44.25474" lon="6.05136">
        <ele>1054.7</ele>
        <time>2021-11-18T13:18:50Z</time>
      </trkpt>
      <trkpt lat="44.25468" lon="6.05132">
        <ele>1052.78</ele>
        <time>2021-11-18T13:18:56Z</time>
      </trkpt>
      <trkpt lat="44.25486" lon="6.05124">
        <ele>1049.9</ele>
        <time>2021-11-18T13:19:13Z</time>
      </trkpt>
      <trkpt lat="44.25508" lon="6.05129">
        <ele>1046.53</ele>
        <time>2021-11-18T13:19:31Z</time>
      </trkpt>
      <trkpt lat="44.25533" lon="6.05129">
        <ele>1044.13</ele>
        <time>2021-11-18T13:19:51Z</time>
      </trkpt>
      <trkpt lat="44.25556" lon="6.0513">
        <ele>1041.73</ele>
        <time>2021-11-18T13:20:09Z</time>
      </trkpt>
      <trkpt lat="44.25574" lon="6.05137">
        <ele>1038.84</ele>
        <time>2021-11-18T13:20:24Z</time>
      </trkpt>
      <trkpt lat="44.25594" lon="6.05146">
        <ele>1035.48</ele>
        <time>2021-11-18T13:20:41Z</time>
      </trkpt>
      <trkpt lat="44.25613" lon="6.05152">
        <ele>1032.11</ele>
        <time>2021-11-18T13:20:56Z</time>
      </trkpt>
      <trkpt lat="44.25634" lon="6.05154">
        <ele>1029.23</ele>
        <time>2021-11-18T13:21:13Z</time>
      </trkpt>
      <trkpt lat="44.25651" lon="6.05158">
        <ele>1026.34</ele>
        <time>2021-11-18T13:21:29Z</time>
      </trkpt>
      <trkpt lat="44.25676" lon="6.05168">
        <ele>1023.46</ele>
        <time>2021-11-18T13:21:49Z</time>
      </trkpt>
      <trkpt lat="44.25698" lon="6.05162">
        <ele>1020.58</ele>
        <time>2021-11-18T13:22:07Z</time>
      </trkpt>
      <trkpt lat="44.25721" lon="6.05162">
        <ele>1018.17</ele>
        <time>2021-11-18T13:22:26Z</time>
      </trkpt>
      <trkpt lat="44.25735" lon="6.05162">
        <ele>1015.77</ele>
        <time>2021-11-18T13:22:38Z</time>
      </trkpt>
      <trkpt lat="44.25738" lon="6.05161">
        <ele>1015.29</ele>
        <time>2021-11-18T13:22:41Z</time>
      </trkpt>
      <trkpt lat="44.25742" lon="6.05159">
        <ele>1014.33</ele>
        <time>2021-11-18T13:22:47Z</time>
      </trkpt>
      <trkpt lat="44.25761" lon="6.05153">
        <ele>1011.93</ele>
        <time>2021-11-18T13:23:05Z</time>
      </trkpt>
      <trkpt lat="44.25778" lon="6.05147">
        <ele>1009.52</ele>
        <time>2021-11-18T13:23:21Z</time>
      </trkpt>
      <trkpt lat="44.25799" lon="6.05148">
        <ele>1006.64</ele>
        <time>2021-11-18T13:23:39Z</time>
      </trkpt>
      <trkpt lat="44.25822" lon="6.05142">
        <ele>1005.2</ele>
        <time>2021-11-18T13:24:00Z</time>
      </trkpt>
      <trkpt lat="44.25823" lon="6.05141">
        <ele>1004.23</ele>
        <time>2021-11-18T13:24:01Z</time>
      </trkpt>
      <trkpt lat="44.25828" lon="6.05135">
        <ele>1002.79</ele>
        <time>2021-11-18T13:24:07Z</time>
      </trkpt>
      <trkpt lat="44.25849" lon="6.05124">
        <ele>999.91</ele>
        <time>2021-11-18T13:24:27Z</time>
      </trkpt>
      <trkpt lat="44.25869" lon="6.05113">
        <ele>997.51</ele>
        <time>2021-11-18T13:24:45Z</time>
      </trkpt>
      <trkpt lat="44.25885" lon="6.05094">
        <ele>995.1</ele>
        <time>2021-11-18T13:25:03Z</time>
      </trkpt>
      <trkpt lat="44.25889" lon="6.0509">
        <ele>994.14</ele>
        <time>2021-11-18T13:25:07Z</time>
      </trkpt>
      <trkpt lat="44.25903" lon="6.05067">
        <ele>992.7</ele>
        <time>2021-11-18T13:25:24Z</time>
      </trkpt>
      <trkpt lat="44.25903" lon="6.05061">
        <ele>992.22</ele>
        <time>2021-11-18T13:25:35Z</time>
      </trkpt>
      <trkpt lat="44.25907" lon="6.05051">
        <ele>991.26</ele>
        <time>2021-11-18T13:25:49Z</time>
      </trkpt>
      <trkpt lat="44.25907" lon="6.05042">
        <ele>989.81</ele>
        <time>2021-11-18T13:25:58Z</time>
      </trkpt>
      <trkpt lat="44.2591" lon="6.05034">
        <ele>989.33</ele>
        <time>2021-11-18T13:26:05Z</time>
      </trkpt>
      <trkpt lat="44.25911" lon="6.05032">
        <ele>988.85</ele>
        <time>2021-11-18T13:26:07Z</time>
      </trkpt>
      <trkpt lat="44.25916" lon="6.05021">
        <ele>987.41</ele>
        <time>2021-11-18T13:26:16Z</time>
      </trkpt>
      <trkpt lat="44.25925" lon="6.05005">
        <ele>985.01</ele>
        <time>2021-11-18T13:26:29Z</time>
      </trkpt>
      <trkpt lat="44.25934" lon="6.04992">
        <ele>982.6</ele>
        <time>2021-11-18T13:26:44Z</time>
      </trkpt>
      <trkpt lat="44.25935" lon="6.04992">
        <ele>982.6</ele>
        <time>2021-11-18T13:27:00Z</time>
      </trkpt>
      <trkpt lat="44.25936" lon="6.0499">
        <ele>982.12</ele>
        <time>2021-11-18T13:27:16Z</time>
      </trkpt>
      <trkpt lat="44.2594" lon="6.04976">
        <ele>980.68</ele>
        <time>2021-11-18T13:27:28Z</time>
      </trkpt>
      <trkpt lat="44.25941" lon="6.04965">
        <ele>979.72</ele>
        <time>2021-11-18T13:27:34Z</time>
      </trkpt>
      <trkpt lat="44.25941" lon="6.04962">
        <ele>979.24</ele>
        <time>2021-11-18T13:27:36Z</time>
      </trkpt>
      <trkpt lat="44.25936" lon="6.04946">
        <ele>977.32</ele>
        <time>2021-11-18T13:27:50Z</time>
      </trkpt>
      <trkpt lat="44.25931" lon="6.04946">
        <ele>977.32</ele>
        <time>2021-11-18T13:27:55Z</time>
      </trkpt>
      <trkpt lat="44.25921" lon="6.04935">
        <ele>974.91</ele>
        <time>2021-11-18T13:28:08Z</time>
      </trkpt>
      <trkpt lat="44.25921" lon="6.04931">
        <ele>974.43</ele>
        <time>2021-11-18T13:28:17Z</time>
      </trkpt>
      <trkpt lat="44.25923" lon="6.04926">
        <ele>974.43</ele>
        <time>2021-11-18T13:28:33Z</time>
      </trkpt>
      <trkpt lat="44.25925" lon="6.04927">
        <ele>974.91</ele>
        <time>2021-11-18T13:28:46Z</time>
      </trkpt>
      <trkpt lat="44.25924" lon="6.04928">
        <ele>974.43</ele>
        <time>2021-11-18T13:28:59Z</time>
      </trkpt>
      <trkpt lat="44.25927" lon="6.0493">
        <ele>974.91</ele>
        <time>2021-11-18T13:29:13Z</time>
      </trkpt>
      <trkpt lat="44.25958" lon="6.04956">
        <ele>973.47</ele>
        <time>2021-11-18T13:33:00Z</time>
      </trkpt>
      <trkpt lat="44.25948" lon="6.04905">
        <ele>973.47</ele>
        <time>2021-11-18T13:33:27Z</time>
      </trkpt>
      <trkpt lat="44.25952" lon="6.04904">
        <ele>973.47</ele>
        <time>2021-11-18T13:34:19Z</time>
      </trkpt>
      <trkpt lat="44.2592" lon="6.04923">
        <ele>974.91</ele>
        <time>2021-11-18T13:40:01Z</time>
      </trkpt>
      <trkpt lat="44.25918" lon="6.04927">
        <ele>974.91</ele>
        <time>2021-11-18T13:40:13Z</time>
      </trkpt>
      <trkpt lat="44.2592" lon="6.04923">
        <ele>975.39</ele>
        <time>2021-11-18T13:40:43Z</time>
      </trkpt>
      <trkpt lat="44.25917" lon="6.04917">
        <ele>974.91</ele>
        <time>2021-11-18T13:40:59Z</time>
      </trkpt>
      <trkpt lat="44.25919" lon="6.04911">
        <ele>974.43</ele>
        <time>2021-11-18T13:41:13Z</time>
      </trkpt>
      <trkpt lat="44.25925" lon="6.04902">
        <ele>973.47</ele>
        <time>2021-11-18T13:41:30Z</time>
      </trkpt>
      <trkpt lat="44.2593" lon="6.04894">
        <ele>972.51</ele>
        <time>2021-11-18T13:41:44Z</time>
      </trkpt>
      <trkpt lat="44.25933" lon="6.0489">
        <ele>972.51</ele>
        <time>2021-11-18T13:42:02Z</time>
      </trkpt>
      <trkpt lat="44.25932" lon="6.04892">
        <ele>972.03</ele>
        <time>2021-11-18T13:42:19Z</time>
      </trkpt>
      <trkpt lat="44.25931" lon="6.04891">
        <ele>972.03</ele>
        <time>2021-11-18T13:42:42Z</time>
      </trkpt>
      <trkpt lat="44.25932" lon="6.0489">
        <ele>972.51</ele>
        <time>2021-11-18T13:43:07Z</time>
      </trkpt>
      <trkpt lat="44.25934" lon="6.0489">
        <ele>972.51</ele>
        <time>2021-11-18T13:43:38Z</time>
      </trkpt>
      <trkpt lat="44.2593" lon="6.04885">
        <ele>971.55</ele>
        <time>2021-11-18T13:43:56Z</time>
      </trkpt>
      <trkpt lat="44.25927" lon="6.04875">
        <ele>971.07</ele>
        <time>2021-11-18T13:44:08Z</time>
      </trkpt>
      <trkpt lat="44.25925" lon="6.04865">
        <ele>967.22</ele>
        <time>2021-11-18T13:44:17Z</time>
      </trkpt>
      <trkpt lat="44.25926" lon="6.04865">
        <ele>971.07</ele>
        <time>2021-11-18T13:44:18Z</time>
      </trkpt>
      <trkpt lat="44.25925" lon="6.04862">
        <ele>970.11</ele>
        <time>2021-11-18T13:44:42Z</time>
      </trkpt>
      <trkpt lat="44.25924" lon="6.04864">
        <ele>970.11</ele>
        <time>2021-11-18T13:45:06Z</time>
      </trkpt>
      <trkpt lat="44.25924" lon="6.04862">
        <ele>969.63</ele>
        <time>2021-11-18T13:45:20Z</time>
      </trkpt>
      <trkpt lat="44.25925" lon="6.04858">
        <ele>969.63</ele>
        <time>2021-11-18T13:45:24Z</time>
      </trkpt>
      <trkpt lat="44.25929" lon="6.04844">
        <ele>968.67</ele>
        <time>2021-11-18T13:45:35Z</time>
      </trkpt>
      <trkpt lat="44.25935" lon="6.04815">
        <ele>965.78</ele>
        <time>2021-11-18T13:45:57Z</time>
      </trkpt>
      <trkpt lat="44.25935" lon="6.04814">
        <ele>965.3</ele>
        <time>2021-11-18T13:45:58Z</time>
      </trkpt>
      <trkpt lat="44.25948" lon="6.04795">
        <ele>963.86</ele>
        <time>2021-11-18T13:46:18Z</time>
      </trkpt>
      <trkpt lat="44.2596" lon="6.04789">
        <ele>962.42</ele>
        <time>2021-11-18T13:46:31Z</time>
      </trkpt>
      <trkpt lat="44.25967" lon="6.04784">
        <ele>961.46</ele>
        <time>2021-11-18T13:46:38Z</time>
      </trkpt>
      <trkpt lat="44.25989" lon="6.04774">
        <ele>958.57</ele>
        <time>2021-11-18T13:47:00Z</time>
      </trkpt>
      <trkpt lat="44.25994" lon="6.04772">
        <ele>958.09</ele>
        <time>2021-11-18T13:47:06Z</time>
      </trkpt>
      <trkpt lat="44.26015" lon="6.04772">
        <ele>956.17</ele>
        <time>2021-11-18T13:47:26Z</time>
      </trkpt>
      <trkpt lat="44.26028" lon="6.04779">
        <ele>956.17</ele>
        <time>2021-11-18T13:47:41Z</time>
      </trkpt>
      <trkpt lat="44.26043" lon="6.04797">
        <ele>955.69</ele>
        <time>2021-11-18T13:48:00Z</time>
      </trkpt>
      <trkpt lat="44.26059" lon="6.0481">
        <ele>953.77</ele>
        <time>2021-11-18T13:48:19Z</time>
      </trkpt>
      <trkpt lat="44.26063" lon="6.04818">
        <ele>952.8</ele>
        <time>2021-11-18T13:48:26Z</time>
      </trkpt>
      <trkpt lat="44.26069" lon="6.04847">
        <ele>950.4</ele>
        <time>2021-11-18T13:48:47Z</time>
      </trkpt>
      <trkpt lat="44.26068" lon="6.04871">
        <ele>948.96</ele>
        <time>2021-11-18T13:49:05Z</time>
      </trkpt>
      <trkpt lat="44.26068" lon="6.04889">
        <ele>945.59</ele>
        <time>2021-11-18T13:49:18Z</time>
      </trkpt>
      <trkpt lat="44.26067" lon="6.04906">
        <ele>947.04</ele>
        <time>2021-11-18T13:49:32Z</time>
      </trkpt>
      <trkpt lat="44.26067" lon="6.0493">
        <ele>945.11</ele>
        <time>2021-11-18T13:49:51Z</time>
      </trkpt>
      <trkpt lat="44.26068" lon="6.04944">
        <ele>943.67</ele>
        <time>2021-11-18T13:50:00Z</time>
      </trkpt>
      <trkpt lat="44.26075" lon="6.04957">
        <ele>942.71</ele>
        <time>2021-11-18T13:50:14Z</time>
      </trkpt>
      <trkpt lat="44.26095" lon="6.0497">
        <ele>940.79</ele>
        <time>2021-11-18T13:50:35Z</time>
      </trkpt>
      <trkpt lat="44.26113" lon="6.0498">
        <ele>937.9</ele>
        <time>2021-11-18T13:50:55Z</time>
      </trkpt>
      <trkpt lat="44.26116" lon="6.0498">
        <ele>937.42</ele>
        <time>2021-11-18T13:50:58Z</time>
      </trkpt>
      <trkpt lat="44.26134" lon="6.04974">
        <ele>934.06</ele>
        <time>2021-11-18T13:51:16Z</time>
      </trkpt>
      <trkpt lat="44.26154" lon="6.04962">
        <ele>931.17</ele>
        <time>2021-11-18T13:51:36Z</time>
      </trkpt>
      <trkpt lat="44.2617" lon="6.04954">
        <ele>927.81</ele>
        <time>2021-11-18T13:51:54Z</time>
      </trkpt>
      <trkpt lat="44.26185" lon="6.04943">
        <ele>925.41</ele>
        <time>2021-11-18T13:52:11Z</time>
      </trkpt>
      <trkpt lat="44.26191" lon="6.04938">
        <ele>923.96</ele>
        <time>2021-11-18T13:52:19Z</time>
      </trkpt>
      <trkpt lat="44.2621" lon="6.04922">
        <ele>920.6</ele>
        <time>2021-11-18T13:52:40Z</time>
      </trkpt>
      <trkpt lat="44.26215" lon="6.04909">
        <ele>919.16</ele>
        <time>2021-11-18T13:52:51Z</time>
      </trkpt>
      <trkpt lat="44.26212" lon="6.04889">
        <ele>916.27</ele>
        <time>2021-11-18T13:53:07Z</time>
      </trkpt>
      <trkpt lat="44.26207" lon="6.04862">
        <ele>914.35</ele>
        <time>2021-11-18T13:53:27Z</time>
      </trkpt>
      <trkpt lat="44.26221" lon="6.04846">
        <ele>910.99</ele>
        <time>2021-11-18T13:53:46Z</time>
      </trkpt>
      <trkpt lat="44.26228" lon="6.04846">
        <ele>910.03</ele>
        <time>2021-11-18T13:53:52Z</time>
      </trkpt>
      <trkpt lat="44.26252" lon="6.04844">
        <ele>907.62</ele>
        <time>2021-11-18T13:54:13Z</time>
      </trkpt>
      <trkpt lat="44.26271" lon="6.04842">
        <ele>904.74</ele>
        <time>2021-11-18T13:54:33Z</time>
      </trkpt>
      <trkpt lat="44.26278" lon="6.04839">
        <ele>903.3</ele>
        <time>2021-11-18T13:54:40Z</time>
      </trkpt>
      <trkpt lat="44.26293" lon="6.04828">
        <ele>900.41</ele>
        <time>2021-11-18T13:54:58Z</time>
      </trkpt>
      <trkpt lat="44.26313" lon="6.04815">
        <ele>897.05</ele>
        <time>2021-11-18T13:55:18Z</time>
      </trkpt>
      <trkpt lat="44.26325" lon="6.04822">
        <ele>895.61</ele>
        <time>2021-11-18T13:55:31Z</time>
      </trkpt>
      <trkpt lat="44.26322" lon="6.04854">
        <ele>893.68</ele>
        <time>2021-11-18T13:55:52Z</time>
      </trkpt>
      <trkpt lat="44.26312" lon="6.04884">
        <ele>891.28</ele>
        <time>2021-11-18T13:56:13Z</time>
      </trkpt>
      <trkpt lat="44.26311" lon="6.04892">
        <ele>891.28</ele>
        <time>2021-11-18T13:56:19Z</time>
      </trkpt>
      <trkpt lat="44.26313" lon="6.04902">
        <ele>890.32</ele>
        <time>2021-11-18T13:56:26Z</time>
      </trkpt>
      <trkpt lat="44.26331" lon="6.04902">
        <ele>890.32</ele>
        <time>2021-11-18T13:56:42Z</time>
      </trkpt>
      <trkpt lat="44.26349" lon="6.04882">
        <ele>888.4</ele>
        <time>2021-11-18T13:57:04Z</time>
      </trkpt>
      <trkpt lat="44.26367" lon="6.04865">
        <ele>886.95</ele>
        <time>2021-11-18T13:57:25Z</time>
      </trkpt>
      <trkpt lat="44.26387" lon="6.04846">
        <ele>884.55</ele>
        <time>2021-11-18T13:57:47Z</time>
      </trkpt>
      <trkpt lat="44.26405" lon="6.04835">
        <ele>882.15</ele>
        <time>2021-11-18T13:58:06Z</time>
      </trkpt>
      <trkpt lat="44.26426" lon="6.04836">
        <ele>879.26</ele>
        <time>2021-11-18T13:58:24Z</time>
      </trkpt>
      <trkpt lat="44.26443" lon="6.04841">
        <ele>877.34</ele>
        <time>2021-11-18T13:58:40Z</time>
      </trkpt>
      <trkpt lat="44.26455" lon="6.04838">
        <ele>874.94</ele>
        <time>2021-11-18T13:58:55Z</time>
      </trkpt>
      <trkpt lat="44.26453" lon="6.04832">
        <ele>873.98</ele>
        <time>2021-11-18T13:59:02Z</time>
      </trkpt>
      <trkpt lat="44.26436" lon="6.04821">
        <ele>871.57</ele>
        <time>2021-11-18T13:59:21Z</time>
      </trkpt>
      <trkpt lat="44.26413" lon="6.04808">
        <ele>871.09</ele>
        <time>2021-11-18T13:59:42Z</time>
      </trkpt>
      <trkpt lat="44.26395" lon="6.04809">
        <ele>870.61</ele>
        <time>2021-11-18T13:59:59Z</time>
      </trkpt>
      <trkpt lat="44.26386" lon="6.04805">
        <ele>870.61</ele>
        <time>2021-11-18T14:00:07Z</time>
      </trkpt>
      <trkpt lat="44.26384" lon="6.04794">
        <ele>869.65</ele>
        <time>2021-11-18T14:00:15Z</time>
      </trkpt>
      <trkpt lat="44.26389" lon="6.04782">
        <ele>868.69</ele>
        <time>2021-11-18T14:00:24Z</time>
      </trkpt>
      <trkpt lat="44.26399" lon="6.04779">
        <ele>866.77</ele>
        <time>2021-11-18T14:00:35Z</time>
      </trkpt>
      <trkpt lat="44.26421" lon="6.04781">
        <ele>863.4</ele>
        <time>2021-11-18T14:00:56Z</time>
      </trkpt>
      <trkpt lat="44.26435" lon="6.04781">
        <ele>861.48</ele>
        <time>2021-11-18T14:01:11Z</time>
      </trkpt>
      <trkpt lat="44.26443" lon="6.04776">
        <ele>860.04</ele>
        <time>2021-11-18T14:01:21Z</time>
      </trkpt>
      <trkpt lat="44.26444" lon="6.04774">
        <ele>860.04</ele>
        <time>2021-11-18T14:01:23Z</time>
      </trkpt>
      <trkpt lat="44.2645" lon="6.04744">
        <ele>857.63</ele>
        <time>2021-11-18T14:01:44Z</time>
      </trkpt>
      <trkpt lat="44.26464" lon="6.0473">
        <ele>856.19</ele>
        <time>2021-11-18T14:02:00Z</time>
      </trkpt>
      <trkpt lat="44.26483" lon="6.04725">
        <ele>853.79</ele>
        <time>2021-11-18T14:02:18Z</time>
      </trkpt>
      <trkpt lat="44.26502" lon="6.04715">
        <ele>850.9</ele>
        <time>2021-11-18T14:02:35Z</time>
      </trkpt>
      <trkpt lat="44.26516" lon="6.04711">
        <ele>848.5</ele>
        <time>2021-11-18T14:02:50Z</time>
      </trkpt>
      <trkpt lat="44.26533" lon="6.04706">
        <ele>846.1</ele>
        <time>2021-11-18T14:03:08Z</time>
      </trkpt>
      <trkpt lat="44.26548" lon="6.04695">
        <ele>843.21</ele>
        <time>2021-11-18T14:03:25Z</time>
      </trkpt>
      <trkpt lat="44.26565" lon="6.04685">
        <ele>839.85</ele>
        <time>2021-11-18T14:03:43Z</time>
      </trkpt>
      <trkpt lat="44.26582" lon="6.04669">
        <ele>836.96</ele>
        <time>2021-11-18T14:04:01Z</time>
      </trkpt>
      <trkpt lat="44.26595" lon="6.04653">
        <ele>833.6</ele>
        <time>2021-11-18T14:04:18Z</time>
      </trkpt>
      <trkpt lat="44.26602" lon="6.04647">
        <ele>832.64</ele>
        <time>2021-11-18T14:04:26Z</time>
      </trkpt>
      <trkpt lat="44.26605" lon="6.04642">
        <ele>832.16</ele>
        <time>2021-11-18T14:04:30Z</time>
      </trkpt>
      <trkpt lat="44.2662" lon="6.04628">
        <ele>828.79</ele>
        <time>2021-11-18T14:04:49Z</time>
      </trkpt>
      <trkpt lat="44.26636" lon="6.04612">
        <ele>826.39</ele>
        <time>2021-11-18T14:05:07Z</time>
      </trkpt>
      <trkpt lat="44.26653" lon="6.04594">
        <ele>823.99</ele>
        <time>2021-11-18T14:05:27Z</time>
      </trkpt>
      <trkpt lat="44.26671" lon="6.04578">
        <ele>822.55</ele>
        <time>2021-11-18T14:05:47Z</time>
      </trkpt>
      <trkpt lat="44.26687" lon="6.0456">
        <ele>821.1</ele>
        <time>2021-11-18T14:06:05Z</time>
      </trkpt>
      <trkpt lat="44.26701" lon="6.0454">
        <ele>819.18</ele>
        <time>2021-11-18T14:06:25Z</time>
      </trkpt>
      <trkpt lat="44.26712" lon="6.04526">
        <ele>816.78</ele>
        <time>2021-11-18T14:06:40Z</time>
      </trkpt>
      <trkpt lat="44.26715" lon="6.04523">
        <ele>816.3</ele>
        <time>2021-11-18T14:06:44Z</time>
      </trkpt>
      <trkpt lat="44.26717" lon="6.0452">
        <ele>816.3</ele>
        <time>2021-11-18T14:06:47Z</time>
      </trkpt>
      <trkpt lat="44.26728" lon="6.04509">
        <ele>813.89</ele>
        <time>2021-11-18T14:07:03Z</time>
      </trkpt>
      <trkpt lat="44.26741" lon="6.04502">
        <ele>811.97</ele>
        <time>2021-11-18T14:07:17Z</time>
      </trkpt>
      <trkpt lat="44.26743" lon="6.04501">
        <ele>811.49</ele>
        <time>2021-11-18T14:07:19Z</time>
      </trkpt>
      <trkpt lat="44.26759" lon="6.04492">
        <ele>809.09</ele>
        <time>2021-11-18T14:07:35Z</time>
      </trkpt>
      <trkpt lat="44.26762" lon="6.04489">
        <ele>808.13</ele>
        <time>2021-11-18T14:07:40Z</time>
      </trkpt>
      <trkpt lat="44.26778" lon="6.04472">
        <ele>806.2</ele>
        <time>2021-11-18T14:07:58Z</time>
      </trkpt>
      <trkpt lat="44.26793" lon="6.04448">
        <ele>804.28</ele>
        <time>2021-11-18T14:08:17Z</time>
      </trkpt>
      <trkpt lat="44.268" lon="6.04433">
        <ele>803.32</ele>
        <time>2021-11-18T14:08:28Z</time>
      </trkpt>
      <trkpt lat="44.26809" lon="6.04411">
        <ele>801.88</ele>
        <time>2021-11-18T14:08:45Z</time>
      </trkpt>
      <trkpt lat="44.26819" lon="6.04387">
        <ele>799.95</ele>
        <time>2021-11-18T14:09:02Z</time>
      </trkpt>
      <trkpt lat="44.26825" lon="6.04367">
        <ele>798.03</ele>
        <time>2021-11-18T14:09:18Z</time>
      </trkpt>
      <trkpt lat="44.26834" lon="6.04348">
        <ele>795.63</ele>
        <time>2021-11-18T14:09:34Z</time>
      </trkpt>
      <trkpt lat="44.2685" lon="6.0433">
        <ele>793.71</ele>
        <time>2021-11-18T14:09:52Z</time>
      </trkpt>
      <trkpt lat="44.26857" lon="6.04314">
        <ele>792.26</ele>
        <time>2021-11-18T14:10:08Z</time>
      </trkpt>
      <trkpt lat="44.26851" lon="6.04292">
        <ele>790.34</ele>
        <time>2021-11-18T14:10:26Z</time>
      </trkpt>
      <trkpt lat="44.26843" lon="6.04267">
        <ele>788.42</ele>
        <time>2021-11-18T14:10:44Z</time>
      </trkpt>
      <trkpt lat="44.26841" lon="6.04252">
        <ele>786.5</ele>
        <time>2021-11-18T14:10:59Z</time>
      </trkpt>
      <trkpt lat="44.26837" lon="6.04234">
        <ele>785.05</ele>
        <time>2021-11-18T14:11:14Z</time>
      </trkpt>
      <trkpt lat="44.26837" lon="6.04212">
        <ele>783.61</ele>
        <time>2021-11-18T14:11:31Z</time>
      </trkpt>
      <trkpt lat="44.26842" lon="6.04189">
        <ele>782.17</ele>
        <time>2021-11-18T14:11:48Z</time>
      </trkpt>
      <trkpt lat="44.26845" lon="6.04166">
        <ele>780.73</ele>
        <time>2021-11-18T14:12:07Z</time>
      </trkpt>
      <trkpt lat="44.26848" lon="6.04143">
        <ele>779.77</ele>
        <time>2021-11-18T14:12:23Z</time>
      </trkpt>
      <trkpt lat="44.26847" lon="6.04129">
        <ele>779.29</ele>
        <time>2021-11-18T14:12:37Z</time>
      </trkpt>
      <trkpt lat="44.26849" lon="6.04125">
        <ele>779.29</ele>
        <time>2021-11-18T14:12:56Z</time>
      </trkpt>
      <trkpt lat="44.26847" lon="6.04117">
        <ele>778.81</ele>
        <time>2021-11-18T14:13:23Z</time>
      </trkpt>
      <trkpt lat="44.26854" lon="6.04113">
        <ele>778.32</ele>
        <time>2021-11-18T14:13:47Z</time>
      </trkpt>
      <trkpt lat="44.26848" lon="6.04109">
        <ele>778.81</ele>
        <time>2021-11-18T14:14:05Z</time>
      </trkpt>
      <trkpt lat="44.26844" lon="6.04105">
        <ele>779.29</ele>
        <time>2021-11-18T14:14:30Z</time>
      </trkpt>
      <trkpt lat="44.2685" lon="6.04099">
        <ele>778.32</ele>
        <time>2021-11-18T14:14:48Z</time>
      </trkpt>
      <trkpt lat="44.26854" lon="6.04082">
        <ele>777.84</ele>
        <time>2021-11-18T14:15:04Z</time>
      </trkpt>
      <trkpt lat="44.26858" lon="6.04062">
        <ele>776.88</ele>
        <time>2021-11-18T14:15:21Z</time>
      </trkpt>
      <trkpt lat="44.26854" lon="6.04055">
        <ele>776.88</ele>
        <time>2021-11-18T14:15:39Z</time>
      </trkpt>
      <trkpt lat="44.26854" lon="6.04042">
        <ele>775.44</ele>
        <time>2021-11-18T14:15:55Z</time>
      </trkpt>
      <trkpt lat="44.26854" lon="6.04046">
        <ele>775.44</ele>
        <time>2021-11-18T14:16:15Z</time>
      </trkpt>
      <trkpt lat="44.26854" lon="6.04041">
        <ele>775.44</ele>
        <time>2021-11-18T14:16:33Z</time>
      </trkpt>
      <trkpt lat="44.26857" lon="6.04038">
        <ele>774.48</ele>
        <time>2021-11-18T14:16:47Z</time>
      </trkpt>
      <trkpt lat="44.26856" lon="6.04043">
        <ele>774</ele>
        <time>2021-11-18T14:17:24Z</time>
      </trkpt>
      <trkpt lat="44.26857" lon="6.04037">
        <ele>774</ele>
        <time>2021-11-18T14:18:02Z</time>
      </trkpt>
      <trkpt lat="44.26859" lon="6.04038">
        <ele>774</ele>
        <time>2021-11-18T14:18:41Z</time>
      </trkpt>
      <trkpt lat="44.2686" lon="6.0404">
        <ele>774</ele>
        <time>2021-11-18T14:19:15Z</time>
      </trkpt>
      <trkpt lat="44.26857" lon="6.04039">
        <ele>773.52</ele>
        <time>2021-11-18T14:19:48Z</time>
      </trkpt>
      <trkpt lat="44.26858" lon="6.04038">
        <ele>774</ele>
        <time>2021-11-18T14:20:15Z</time>
      </trkpt>
      <trkpt lat="44.26855" lon="6.0404">
        <ele>774.96</ele>
        <time>2021-11-18T14:20:28Z</time>
      </trkpt>
      <trkpt lat="44.26856" lon="6.04041">
        <ele>774</ele>
        <time>2021-11-18T14:20:50Z</time>
      </trkpt>
      <trkpt lat="44.26853" lon="6.04041">
        <ele>774.48</ele>
        <time>2021-11-18T14:21:10Z</time>
      </trkpt>
      <trkpt lat="44.26852" lon="6.04043">
        <ele>774.48</ele>
        <time>2021-11-18T14:21:33Z</time>
      </trkpt>
      <trkpt lat="44.26852" lon="6.04043">
        <ele>774</ele>
        <time>2021-11-18T14:21:59Z</time>
      </trkpt>
      <trkpt lat="44.26853" lon="6.0404">
        <ele>774</ele>
        <time>2021-11-18T14:22:30Z</time>
      </trkpt>
      <trkpt lat="44.26853" lon="6.04041">
        <ele>774</ele>
        <time>2021-11-18T14:22:53Z</time>
      </trkpt>
      <trkpt lat="44.26851" lon="6.04036">
        <ele>773.04</ele>
        <time>2021-11-18T14:22:59Z</time>
      </trkpt>
      <trkpt lat="44.2684" lon="6.04014">
        <ele>771.6</ele>
        <time>2021-11-18T14:23:18Z</time>
      </trkpt>
      <trkpt lat="44.26826" lon="6.03993">
        <ele>769.19</ele>
        <time>2021-11-18T14:23:36Z</time>
      </trkpt>
      <trkpt lat="44.26817" lon="6.03974">
        <ele>767.75</ele>
        <time>2021-11-18T14:23:52Z</time>
      </trkpt>
      <trkpt lat="44.26804" lon="6.03955">
        <ele>766.31</ele>
        <time>2021-11-18T14:24:07Z</time>
      </trkpt>
      <trkpt lat="44.26797" lon="6.03932">
        <ele>764.87</ele>
        <time>2021-11-18T14:24:23Z</time>
      </trkpt>
      <trkpt lat="44.26789" lon="6.03904">
        <ele>763.9</ele>
        <time>2021-11-18T14:24:41Z</time>
      </trkpt>
      <trkpt lat="44.26786" lon="6.03869">
        <ele>761.98</ele>
        <time>2021-11-18T14:24:59Z</time>
      </trkpt>
      <trkpt lat="44.26786" lon="6.03845">
        <ele>760.54</ele>
        <time>2021-11-18T14:25:15Z</time>
      </trkpt>
      <trkpt lat="44.2678" lon="6.03817">
        <ele>758.62</ele>
        <time>2021-11-18T14:25:34Z</time>
      </trkpt>
      <trkpt lat="44.26774" lon="6.03792">
        <ele>758.14</ele>
        <time>2021-11-18T14:25:50Z</time>
      </trkpt>
      <trkpt lat="44.26774" lon="6.03785">
        <ele>757.66</ele>
        <time>2021-11-18T14:25:54Z</time>
      </trkpt>
      <trkpt lat="44.26784" lon="6.03751">
        <ele>755.73</ele>
        <time>2021-11-18T14:26:15Z</time>
      </trkpt>
      <trkpt lat="44.26796" lon="6.03726">
        <ele>754.77</ele>
        <time>2021-11-18T14:26:33Z</time>
      </trkpt>
      <trkpt lat="44.26807" lon="6.03701">
        <ele>752.85</ele>
        <time>2021-11-18T14:26:52Z</time>
      </trkpt>
      <trkpt lat="44.26819" lon="6.03676">
        <ele>751.89</ele>
        <time>2021-11-18T14:27:10Z</time>
      </trkpt>
      <trkpt lat="44.26836" lon="6.03652">
        <ele>750.93</ele>
        <time>2021-11-18T14:27:30Z</time>
      </trkpt>
      <trkpt lat="44.26845" lon="6.03625">
        <ele>750.93</ele>
        <time>2021-11-18T14:27:48Z</time>
      </trkpt>
      <trkpt lat="44.2685" lon="6.03606">
        <ele>751.89</ele>
        <time>2021-11-18T14:28:04Z</time>
      </trkpt>
      <trkpt lat="44.2685" lon="6.03607">
        <ele>752.37</ele>
        <time>2021-11-18T14:28:19Z</time>
      </trkpt>
      <trkpt lat="44.26848" lon="6.03596">
        <ele>752.85</ele>
        <time>2021-11-18T14:28:32Z</time>
      </trkpt>
      <trkpt lat="44.2685" lon="6.03588">
        <ele>753.33</ele>
        <time>2021-11-18T14:28:38Z</time>
      </trkpt>
      <trkpt lat="44.2685" lon="6.03585">
        <ele>753.33</ele>
        <time>2021-11-18T14:28:40Z</time>
      </trkpt>
      <trkpt lat="44.2685" lon="6.03582">
        <ele>753.33</ele>
        <time>2021-11-18T14:28:42Z</time>
      </trkpt>
      <trkpt lat="44.26847" lon="6.03562">
        <ele>754.77</ele>
        <time>2021-11-18T14:28:58Z</time>
      </trkpt>
      <trkpt lat="44.26845" lon="6.03549">
        <ele>755.25</ele>
        <time>2021-11-18T14:29:13Z</time>
      </trkpt>
      <trkpt lat="44.26847" lon="6.03545">
        <ele>755.25</ele>
        <time>2021-11-18T14:29:27Z</time>
      </trkpt>
      <trkpt lat="44.26847" lon="6.03546">
        <ele>755.25</ele>
        <time>2021-11-18T14:29:39Z</time>
      </trkpt>
      <trkpt lat="44.26847" lon="6.03543">
        <ele>755.25</ele>
        <time>2021-11-18T14:30:02Z</time>
      </trkpt>
      <trkpt lat="44.26845" lon="6.03536">
        <ele>754.77</ele>
        <time>2021-11-18T14:30:15Z</time>
      </trkpt>
      <trkpt lat="44.26842" lon="6.0352">
        <ele>753.81</ele>
        <time>2021-11-18T14:30:31Z</time>
      </trkpt>
      <trkpt lat="44.26842" lon="6.035">
        <ele>752.85</ele>
        <time>2021-11-18T14:30:49Z</time>
      </trkpt>
      <trkpt lat="44.26844" lon="6.03467">
        <ele>752.37</ele>
        <time>2021-11-18T14:31:09Z</time>
      </trkpt>
      <trkpt lat="44.26849" lon="6.03436">
        <ele>751.41</ele>
        <time>2021-11-18T14:31:28Z</time>
      </trkpt>
      <trkpt lat="44.26856" lon="6.03406">
        <ele>750.45</ele>
        <time>2021-11-18T14:31:47Z</time>
      </trkpt>
      <trkpt lat="44.26855" lon="6.03375">
        <ele>749</ele>
        <time>2021-11-18T14:32:07Z</time>
      </trkpt>
      <trkpt lat="44.26847" lon="6.03342">
        <ele>747.56</ele>
        <time>2021-11-18T14:32:29Z</time>
      </trkpt>
      <trkpt lat="44.2683" lon="6.03321">
        <ele>748.04</ele>
        <time>2021-11-18T14:32:48Z</time>
      </trkpt>
      <trkpt lat="44.26814" lon="6.03308">
        <ele>748.52</ele>
        <time>2021-11-18T14:33:05Z</time>
      </trkpt>
      <trkpt lat="44.26795" lon="6.033">
        <ele>748.04</ele>
        <time>2021-11-18T14:33:23Z</time>
      </trkpt>
      <trkpt lat="44.26776" lon="6.03294">
        <ele>747.08</ele>
        <time>2021-11-18T14:33:40Z</time>
      </trkpt>
      <trkpt lat="44.26758" lon="6.03284">
        <ele>746.12</ele>
        <time>2021-11-18T14:33:56Z</time>
      </trkpt>
      <trkpt lat="44.26749" lon="6.03256">
        <ele>746.6</ele>
        <time>2021-11-18T14:34:14Z</time>
      </trkpt>
      <trkpt lat="44.26735" lon="6.0323">
        <ele>746.6</ele>
        <time>2021-11-18T14:34:34Z</time>
      </trkpt>
      <trkpt lat="44.26724" lon="6.03201">
        <ele>747.56</ele>
        <time>2021-11-18T14:34:54Z</time>
      </trkpt>
      <trkpt lat="44.2672" lon="6.03171">
        <ele>748.52</ele>
        <time>2021-11-18T14:35:12Z</time>
      </trkpt>
      <trkpt lat="44.26711" lon="6.03149">
        <ele>749.97</ele>
        <time>2021-11-18T14:35:30Z</time>
      </trkpt>
      <trkpt lat="44.26695" lon="6.03129">
        <ele>750.93</ele>
        <time>2021-11-18T14:35:48Z</time>
      </trkpt>
      <trkpt lat="44.26687" lon="6.03106">
        <ele>751.41</ele>
        <time>2021-11-18T14:36:05Z</time>
      </trkpt>
      <trkpt lat="44.26683" lon="6.03083">
        <ele>751.89</ele>
        <time>2021-11-18T14:36:21Z</time>
      </trkpt>
      <trkpt lat="44.26693" lon="6.03058">
        <ele>753.33</ele>
        <time>2021-11-18T14:36:38Z</time>
      </trkpt>
      <trkpt lat="44.26695" lon="6.03049">
        <ele>753.81</ele>
        <time>2021-11-18T14:36:44Z</time>
      </trkpt>
      <trkpt lat="44.26695" lon="6.03046">
        <ele>754.29</ele>
        <time>2021-11-18T14:36:46Z</time>
      </trkpt>
      <trkpt lat="44.26698" lon="6.03022">
        <ele>755.25</ele>
        <time>2021-11-18T14:37:03Z</time>
      </trkpt>
      <trkpt lat="44.26699" lon="6.02999">
        <ele>756.21</ele>
        <time>2021-11-18T14:37:19Z</time>
      </trkpt>
      <trkpt lat="44.26695" lon="6.02983">
        <ele>756.21</ele>
        <time>2021-11-18T14:37:36Z</time>
      </trkpt>
      <trkpt lat="44.26694" lon="6.02978">
        <ele>756.21</ele>
        <time>2021-11-18T14:37:51Z</time>
      </trkpt>
      <trkpt lat="44.26692" lon="6.02979">
        <ele>756.21</ele>
        <time>2021-11-18T14:38:13Z</time>
      </trkpt>
      <trkpt lat="44.2669" lon="6.02979">
        <ele>756.69</ele>
        <time>2021-11-18T14:38:30Z</time>
      </trkpt>
      <trkpt lat="44.26691" lon="6.02969">
        <ele>756.21</ele>
        <time>2021-11-18T14:38:42Z</time>
      </trkpt>
      <trkpt lat="44.2669" lon="6.02969">
        <ele>756.21</ele>
        <time>2021-11-18T14:38:44Z</time>
      </trkpt>
      <trkpt lat="44.26672" lon="6.02958">
        <ele>753.33</ele>
        <time>2021-11-18T14:39:04Z</time>
      </trkpt>
      <trkpt lat="44.26659" lon="6.02948">
        <ele>751.89</ele>
        <time>2021-11-18T14:39:18Z</time>
      </trkpt>
      <trkpt lat="44.26646" lon="6.0293">
        <ele>752.37</ele>
        <time>2021-11-18T14:39:34Z</time>
      </trkpt>
      <trkpt lat="44.26631" lon="6.02904">
        <ele>751.41</ele>
        <time>2021-11-18T14:39:55Z</time>
      </trkpt>
      <trkpt lat="44.26619" lon="6.02881">
        <ele>750.45</ele>
        <time>2021-11-18T14:40:13Z</time>
      </trkpt>
      <trkpt lat="44.26602" lon="6.02862">
        <ele>749</ele>
        <time>2021-11-18T14:40:32Z</time>
      </trkpt>
      <trkpt lat="44.2659" lon="6.02845">
        <ele>748.52</ele>
        <time>2021-11-18T14:40:48Z</time>
      </trkpt>
      <trkpt lat="44.26589" lon="6.02845">
        <ele>748.04</ele>
        <time>2021-11-18T14:41:09Z</time>
      </trkpt>
      <trkpt lat="44.2659" lon="6.0284">
        <ele>747.56</ele>
        <time>2021-11-18T14:41:37Z</time>
      </trkpt>
      <trkpt lat="44.26586" lon="6.02816">
        <ele>746.12</ele>
        <time>2021-11-18T14:41:52Z</time>
      </trkpt>
      <trkpt lat="44.2659" lon="6.02787">
        <ele>745.16</ele>
        <time>2021-11-18T14:42:08Z</time>
      </trkpt>
      <trkpt lat="44.26588" lon="6.02764">
        <ele>744.68</ele>
        <time>2021-11-18T14:42:24Z</time>
      </trkpt>
      <trkpt lat="44.26586" lon="6.02758">
        <ele>744.2</ele>
        <time>2021-11-18T14:42:28Z</time>
      </trkpt>
      <trkpt lat="44.26576" lon="6.02747">
        <ele>744.68</ele>
        <time>2021-11-18T14:42:40Z</time>
      </trkpt>
      <trkpt lat="44.26566" lon="6.02742">
        <ele>744.68</ele>
        <time>2021-11-18T14:42:49Z</time>
      </trkpt>
      <trkpt lat="44.26564" lon="6.0273">
        <ele>744.68</ele>
        <time>2021-11-18T14:42:59Z</time>
      </trkpt>
      <trkpt lat="44.26574" lon="6.02715">
        <ele>744.68</ele>
        <time>2021-11-18T14:43:13Z</time>
      </trkpt>
      <trkpt lat="44.2659" lon="6.02704">
        <ele>743.72</ele>
        <time>2021-11-18T14:43:28Z</time>
      </trkpt>
      <trkpt lat="44.26602" lon="6.02695">
        <ele>742.28</ele>
        <time>2021-11-18T14:43:41Z</time>
      </trkpt>
      <trkpt lat="44.26608" lon="6.0269">
        <ele>740.83</ele>
        <time>2021-11-18T14:43:48Z</time>
      </trkpt>
      <trkpt lat="44.26622" lon="6.02685">
        <ele>738.43</ele>
        <time>2021-11-18T14:44:01Z</time>
      </trkpt>
      <trkpt lat="44.26634" lon="6.02685">
        <ele>737.47</ele>
        <time>2021-11-18T14:44:13Z</time>
      </trkpt>
      <trkpt lat="44.2665" lon="6.02685">
        <ele>735.55</ele>
        <time>2021-11-18T14:44:26Z</time>
      </trkpt>
      <trkpt lat="44.26658" lon="6.02687">
        <ele>734.58</ele>
        <time>2021-11-18T14:44:32Z</time>
      </trkpt>
      <trkpt lat="44.26662" lon="6.02687">
        <ele>734.1</ele>
        <time>2021-11-18T14:44:36Z</time>
      </trkpt>
      <trkpt lat="44.26678" lon="6.02692">
        <ele>732.18</ele>
        <time>2021-11-18T14:44:50Z</time>
      </trkpt>
      <trkpt lat="44.26688" lon="6.02693">
        <ele>730.74</ele>
        <time>2021-11-18T14:44:58Z</time>
      </trkpt>
      <trkpt lat="44.26706" lon="6.02684">
        <ele>728.82</ele>
        <time>2021-11-18T14:45:12Z</time>
      </trkpt>
      <trkpt lat="44.26724" lon="6.0268">
        <ele>726.89</ele>
        <time>2021-11-18T14:45:27Z</time>
      </trkpt>
      <trkpt lat="44.26728" lon="6.0268">
        <ele>726.89</ele>
        <time>2021-11-18T14:45:40Z</time>
      </trkpt>
      <trkpt lat="44.26729" lon="6.02679">
        <ele>726.89</ele>
        <time>2021-11-18T14:46:04Z</time>
      </trkpt>
      <trkpt lat="44.26729" lon="6.02681">
        <ele>726.89</ele>
        <time>2021-11-18T14:46:20Z</time>
      </trkpt>
      <trkpt lat="44.26727" lon="6.02679">
        <ele>726.89</ele>
        <time>2021-11-18T14:46:38Z</time>
      </trkpt>
      <trkpt lat="44.26725" lon="6.02681">
        <ele>727.37</ele>
        <time>2021-11-18T14:47:07Z</time>
      </trkpt>
      <trkpt lat="44.26725" lon="6.0268">
        <ele>727.37</ele>
        <time>2021-11-18T14:47:23Z</time>
      </trkpt>
      <trkpt lat="44.26731" lon="6.02682">
        <ele>726.89</ele>
        <time>2021-11-18T14:47:47Z</time>
      </trkpt>
      <trkpt lat="44.26738" lon="6.02682">
        <ele>726.89</ele>
        <time>2021-11-18T14:48:01Z</time>
      </trkpt>
      <trkpt lat="44.26737" lon="6.02679">
        <ele>726.41</ele>
        <time>2021-11-18T14:48:34Z</time>
      </trkpt>
      <trkpt lat="44.26736" lon="6.02681">
        <ele>726.41</ele>
        <time>2021-11-18T14:48:56Z</time>
      </trkpt>
      <trkpt lat="44.26737" lon="6.02681">
        <ele>726.89</ele>
        <time>2021-11-18T14:49:02Z</time>
      </trkpt>
      <trkpt lat="44.26741" lon="6.02685">
        <ele>726.41</ele>
        <time>2021-11-18T14:49:06Z</time>
      </trkpt>
      <trkpt lat="44.26745" lon="6.0269">
        <ele>726.41</ele>
        <time>2021-11-18T14:49:23Z</time>
      </trkpt>
      <trkpt lat="44.26744" lon="6.02685">
        <ele>726.41</ele>
        <time>2021-11-18T14:49:41Z</time>
      </trkpt>
      <trkpt lat="44.26744" lon="6.0268">
        <ele>726.41</ele>
        <time>2021-11-18T14:50:02Z</time>
      </trkpt>
      <trkpt lat="44.26744" lon="6.02676">
        <ele>726.41</ele>
        <time>2021-11-18T14:50:18Z</time>
      </trkpt>
      <trkpt lat="44.26741" lon="6.02677">
        <ele>726.41</ele>
        <time>2021-11-18T14:50:52Z</time>
      </trkpt>
      <trkpt lat="44.26746" lon="6.0268">
        <ele>725.93</ele>
        <time>2021-11-18T14:51:22Z</time>
      </trkpt>
      <trkpt lat="44.26739" lon="6.02679">
        <ele>726.41</ele>
        <time>2021-11-18T14:51:39Z</time>
      </trkpt>
      <trkpt lat="44.26738" lon="6.02674">
        <ele>725.93</ele>
        <time>2021-11-18T14:51:50Z</time>
      </trkpt>
      <trkpt lat="44.2674" lon="6.02672">
        <ele>725.93</ele>
        <time>2021-11-18T14:52:13Z</time>
      </trkpt>
      <trkpt lat="44.26749" lon="6.02669">
        <ele>725.45</ele>
        <time>2021-11-18T14:52:28Z</time>
      </trkpt>
      <trkpt lat="44.26752" lon="6.02667">
        <ele>724.97</ele>
        <time>2021-11-18T14:52:46Z</time>
      </trkpt>
      <trkpt lat="44.26755" lon="6.02665">
        <ele>724.49</ele>
        <time>2021-11-18T14:52:50Z</time>
      </trkpt>
      <trkpt lat="44.26766" lon="6.02656">
        <ele>723.05</ele>
        <time>2021-11-18T14:53:07Z</time>
      </trkpt>
      <trkpt lat="44.26772" lon="6.02649">
        <ele>721.61</ele>
        <time>2021-11-18T14:53:19Z</time>
      </trkpt>
      <trkpt lat="44.26789" lon="6.02646">
        <ele>719.68</ele>
        <time>2021-11-18T14:53:35Z</time>
      </trkpt>
      <trkpt lat="44.26802" lon="6.02638">
        <ele>716.32</ele>
        <time>2021-11-18T14:53:51Z</time>
      </trkpt>
      <trkpt lat="44.26825" lon="6.02625">
        <ele>715.84</ele>
        <time>2021-11-18T14:54:13Z</time>
      </trkpt>
      <trkpt lat="44.26847" lon="6.02619">
        <ele>713.92</ele>
        <time>2021-11-18T14:54:35Z</time>
      </trkpt>
      <trkpt lat="44.26865" lon="6.02606">
        <ele>710.55</ele>
        <time>2021-11-18T14:54:55Z</time>
      </trkpt>
      <trkpt lat="44.26881" lon="6.02593">
        <ele>707.67</ele>
        <time>2021-11-18T14:55:12Z</time>
      </trkpt>
      <trkpt lat="44.26897" lon="6.02582">
        <ele>704.78</ele>
        <time>2021-11-18T14:55:29Z</time>
      </trkpt>
      <trkpt lat="44.26917" lon="6.02576">
        <ele>701.9</ele>
        <time>2021-11-18T14:55:49Z</time>
      </trkpt>
      <trkpt lat="44.2694" lon="6.02571">
        <ele>698.53</ele>
        <time>2021-11-18T14:56:09Z</time>
      </trkpt>
      <trkpt lat="44.26959" lon="6.02556">
        <ele>696.61</ele>
        <time>2021-11-18T14:56:29Z</time>
      </trkpt>
      <trkpt lat="44.26983" lon="6.02542">
        <ele>694.21</ele>
        <time>2021-11-18T14:56:51Z</time>
      </trkpt>
      <trkpt lat="44.2699" lon="6.02534">
        <ele>693.73</ele>
        <time>2021-11-18T14:56:59Z</time>
      </trkpt>
      <trkpt lat="44.26991" lon="6.0253">
        <ele>693.73</ele>
        <time>2021-11-18T14:57:02Z</time>
      </trkpt>
      <trkpt lat="44.26988" lon="6.02526">
        <ele>693.25</ele>
        <time>2021-11-18T14:57:06Z</time>
      </trkpt>
      <trkpt lat="44.26981" lon="6.02524">
        <ele>692.77</ele>
        <time>2021-11-18T14:57:13Z</time>
      </trkpt>
      <trkpt lat="44.26962" lon="6.02515">
        <ele>690.84</ele>
        <time>2021-11-18T14:57:32Z</time>
      </trkpt>
      <trkpt lat="44.26968" lon="6.02483">
        <ele>689.88</ele>
        <time>2021-11-18T14:57:51Z</time>
      </trkpt>
      <trkpt lat="44.2698" lon="6.02448">
        <ele>687.48</ele>
        <time>2021-11-18T14:58:15Z</time>
      </trkpt>
      <trkpt lat="44.26992" lon="6.02461">
        <ele>685.08</ele>
        <time>2021-11-18T14:58:31Z</time>
      </trkpt>
      <trkpt lat="44.26994" lon="6.02488">
        <ele>682.19</ele>
        <time>2021-11-18T14:58:49Z</time>
      </trkpt>
      <trkpt lat="44.27012" lon="6.02506">
        <ele>679.79</ele>
        <time>2021-11-18T14:59:09Z</time>
      </trkpt>
      <trkpt lat="44.27019" lon="6.02511">
        <ele>678.35</ele>
        <time>2021-11-18T14:59:16Z</time>
      </trkpt>
      <trkpt lat="44.27024" lon="6.02509">
        <ele>677.39</ele>
        <time>2021-11-18T14:59:21Z</time>
      </trkpt>
      <trkpt lat="44.27027" lon="6.0248">
        <ele>674.02</ele>
        <time>2021-11-18T14:59:41Z</time>
      </trkpt>
      <trkpt lat="44.27035" lon="6.02449">
        <ele>671.14</ele>
        <time>2021-11-18T15:00:01Z</time>
      </trkpt>
      <trkpt lat="44.27044" lon="6.02421">
        <ele>668.25</ele>
        <time>2021-11-18T15:00:20Z</time>
      </trkpt>
      <trkpt lat="44.27044" lon="6.02404">
        <ele>666.33</ele>
        <time>2021-11-18T15:00:36Z</time>
      </trkpt>
      <trkpt lat="44.27055" lon="6.02373">
        <ele>664.89</ele>
        <time>2021-11-18T15:00:56Z</time>
      </trkpt>
      <trkpt lat="44.27058" lon="6.02354">
        <ele>661.52</ele>
        <time>2021-11-18T15:01:09Z</time>
      </trkpt>
      <trkpt lat="44.27059" lon="6.02338">
        <ele>659.6</ele>
        <time>2021-11-18T15:01:19Z</time>
      </trkpt>
      <trkpt lat="44.27064" lon="6.02334">
        <ele>658.64</ele>
        <time>2021-11-18T15:01:23Z</time>
      </trkpt>
      <trkpt lat="44.27072" lon="6.02359">
        <ele>656.24</ele>
        <time>2021-11-18T15:01:40Z</time>
      </trkpt>
      <trkpt lat="44.27078" lon="6.02392">
        <ele>653.35</ele>
        <time>2021-11-18T15:02:00Z</time>
      </trkpt>
      <trkpt lat="44.27079" lon="6.02421">
        <ele>649.99</ele>
        <time>2021-11-18T15:02:18Z</time>
      </trkpt>
      <trkpt lat="44.27078" lon="6.02451">
        <ele>648.07</ele>
        <time>2021-11-18T15:02:36Z</time>
      </trkpt>
      <trkpt lat="44.2708" lon="6.02454">
        <ele>647.1</ele>
        <time>2021-11-18T15:02:40Z</time>
      </trkpt>
      <trkpt lat="44.27082" lon="6.02454">
        <ele>646.62</ele>
        <time>2021-11-18T15:02:42Z</time>
      </trkpt>
      <trkpt lat="44.27089" lon="6.02435">
        <ele>643.74</ele>
        <time>2021-11-18T15:02:58Z</time>
      </trkpt>
      <trkpt lat="44.27104" lon="6.0241">
        <ele>640.86</ele>
        <time>2021-11-18T15:03:17Z</time>
      </trkpt>
      <trkpt lat="44.27129" lon="6.024">
        <ele>638.45</ele>
        <time>2021-11-18T15:03:40Z</time>
      </trkpt>
      <trkpt lat="44.2715" lon="6.02392">
        <ele>637.97</ele>
        <time>2021-11-18T15:04:00Z</time>
      </trkpt>
      <trkpt lat="44.27156" lon="6.02368">
        <ele>639.41</ele>
        <time>2021-11-18T15:04:17Z</time>
      </trkpt>
      <trkpt lat="44.27166" lon="6.02338">
        <ele>640.38</ele>
        <time>2021-11-18T15:04:37Z</time>
      </trkpt>
      <trkpt lat="44.27175" lon="6.02321">
        <ele>640.86</ele>
        <time>2021-11-18T15:04:49Z</time>
      </trkpt>
      <trkpt lat="44.2719" lon="6.02314">
        <ele>642.3</ele>
        <time>2021-11-18T15:05:02Z</time>
      </trkpt>
      <trkpt lat="44.27199" lon="6.02314">
        <ele>642.3</ele>
        <time>2021-11-18T15:05:10Z</time>
      </trkpt>
      <trkpt lat="44.27221" lon="6.02314">
        <ele>642.78</ele>
        <time>2021-11-18T15:05:29Z</time>
      </trkpt>
      <trkpt lat="44.2724" lon="6.02302">
        <ele>641.82</ele>
        <time>2021-11-18T15:05:46Z</time>
      </trkpt>
      <trkpt lat="44.27252" lon="6.02271">
        <ele>640.38</ele>
        <time>2021-11-18T15:06:07Z</time>
      </trkpt>
      <trkpt lat="44.27266" lon="6.02246">
        <ele>637.49</ele>
        <time>2021-11-18T15:06:26Z</time>
      </trkpt>
      <trkpt lat="44.27283" lon="6.02231">
        <ele>636.05</ele>
        <time>2021-11-18T15:06:44Z</time>
      </trkpt>
      <trkpt lat="44.27302" lon="6.02212">
        <ele>636.05</ele>
        <time>2021-11-18T15:07:03Z</time>
      </trkpt>
      <trkpt lat="44.27316" lon="6.0219">
        <ele>637.01</ele>
        <time>2021-11-18T15:07:21Z</time>
      </trkpt>
      <trkpt lat="44.27335" lon="6.02184">
        <ele>637.49</ele>
        <time>2021-11-18T15:07:37Z</time>
      </trkpt>
      <trkpt lat="44.27357" lon="6.02176">
        <ele>637.97</ele>
        <time>2021-11-18T15:07:57Z</time>
      </trkpt>
      <trkpt lat="44.27376" lon="6.02162">
        <ele>637.01</ele>
        <time>2021-11-18T15:08:16Z</time>
      </trkpt>
      <trkpt lat="44.27395" lon="6.02147">
        <ele>636.53</ele>
        <time>2021-11-18T15:08:33Z</time>
      </trkpt>
      <trkpt lat="44.27404" lon="6.02131">
        <ele>638.45</ele>
        <time>2021-11-18T15:08:48Z</time>
      </trkpt>
      <trkpt lat="44.27404" lon="6.02111">
        <ele>640.86</ele>
        <time>2021-11-18T15:09:06Z</time>
      </trkpt>
      <trkpt lat="44.27404" lon="6.02092">
        <ele>642.3</ele>
        <time>2021-11-18T15:09:21Z</time>
      </trkpt>
      <trkpt lat="44.27407" lon="6.02074">
        <ele>643.26</ele>
        <time>2021-11-18T15:09:32Z</time>
      </trkpt>
      <trkpt lat="44.27413" lon="6.02052">
        <ele>645.18</ele>
        <time>2021-11-18T15:09:49Z</time>
      </trkpt>
      <trkpt lat="44.27419" lon="6.0204">
        <ele>645.66</ele>
        <time>2021-11-18T15:09:58Z</time>
      </trkpt>
      <trkpt lat="44.27437" lon="6.02018">
        <ele>646.14</ele>
        <time>2021-11-18T15:10:17Z</time>
      </trkpt>
      <trkpt lat="44.27454" lon="6.02001">
        <ele>647.1</ele>
        <time>2021-11-18T15:10:35Z</time>
      </trkpt>
      <trkpt lat="44.27467" lon="6.01982">
        <ele>648.07</ele>
        <time>2021-11-18T15:10:52Z</time>
      </trkpt>
      <trkpt lat="44.27471" lon="6.01976">
        <ele>649.03</ele>
        <time>2021-11-18T15:10:58Z</time>
      </trkpt>
      <trkpt lat="44.27486" lon="6.01958">
        <ele>649.99</ele>
        <time>2021-11-18T15:11:16Z</time>
      </trkpt>
      <trkpt lat="44.2749" lon="6.01931">
        <ele>649.03</ele>
        <time>2021-11-18T15:11:34Z</time>
      </trkpt>
      <trkpt lat="44.27485" lon="6.01903">
        <ele>648.55</ele>
        <time>2021-11-18T15:11:53Z</time>
      </trkpt>
      <trkpt lat="44.27475" lon="6.01874">
        <ele>648.07</ele>
        <time>2021-11-18T15:12:12Z</time>
      </trkpt>
      <trkpt lat="44.27464" lon="6.01851">
        <ele>648.07</ele>
        <time>2021-11-18T15:12:29Z</time>
      </trkpt>
      <trkpt lat="44.2746" lon="6.01844">
        <ele>648.07</ele>
        <time>2021-11-18T15:12:34Z</time>
      </trkpt>
      <trkpt lat="44.27454" lon="6.01812">
        <ele>647.59</ele>
        <time>2021-11-18T15:12:53Z</time>
      </trkpt>
      <trkpt lat="44.27454" lon="6.01779">
        <ele>647.1</ele>
        <time>2021-11-18T15:13:13Z</time>
      </trkpt>
      <trkpt lat="44.27455" lon="6.0177">
        <ele>646.62</ele>
        <time>2021-11-18T15:13:29Z</time>
      </trkpt>
      <trkpt lat="44.27456" lon="6.01766">
        <ele>646.62</ele>
        <time>2021-11-18T15:13:47Z</time>
      </trkpt>
      <trkpt lat="44.27456" lon="6.01752">
        <ele>646.62</ele>
        <time>2021-11-18T15:14:02Z</time>
      </trkpt>
      <trkpt lat="44.27455" lon="6.01743">
        <ele>646.62</ele>
        <time>2021-11-18T15:14:09Z</time>
      </trkpt>
      <trkpt lat="44.2745" lon="6.01735">
        <ele>647.1</ele>
        <time>2021-11-18T15:14:27Z</time>
      </trkpt>
      <trkpt lat="44.27451" lon="6.01734">
        <ele>647.1</ele>
        <time>2021-11-18T15:14:43Z</time>
      </trkpt>
      <trkpt lat="44.27451" lon="6.01735">
        <ele>648.07</ele>
        <time>2021-11-18T15:15:03Z</time>
      </trkpt>
      <trkpt lat="44.2745" lon="6.01728">
        <ele>646.62</ele>
        <time>2021-11-18T15:15:24Z</time>
      </trkpt>
      <trkpt lat="44.27451" lon="6.0173">
        <ele>646.14</ele>
        <time>2021-11-18T15:15:41Z</time>
      </trkpt>
      <trkpt lat="44.27449" lon="6.01724">
        <ele>646.62</ele>
        <time>2021-11-18T15:16:07Z</time>
      </trkpt>
      <trkpt lat="44.27448" lon="6.01732">
        <ele>646.62</ele>
        <time>2021-11-18T15:16:32Z</time>
      </trkpt>
      <trkpt lat="44.27445" lon="6.01734">
        <ele>646.62</ele>
        <time>2021-11-18T15:17:01Z</time>
      </trkpt>
    </trkseg>
  </trk>
</gpx>